Provisional Data: Apalachin Creek near Apalachin, NY


Please select a monitoring station.
Please select start date.
Please select start date.

Toggle Unit: C/F Toggle Unit: C/F
Sample Time Temperature (C) Temperature (F) Specific Conductivity (mS/cm) pH   Turbidity (NTU+) DO (mg/L)
8/1/2022 12:00:00 AM 20.56 69.008 0.32 6.46 1.82 3.9
8/1/2022 12:15:00 AM 20.51 68.918 0.32 6.45 1.66 3.79
8/1/2022 12:30:00 AM 20.47 68.846 0.32 6.45 1.66 3.75
8/1/2022 12:45:00 AM 20.43 68.774 0.32 6.45 1.46 3.71
8/1/2022 1:00:00 AM 20.39 68.702 0.32 6.44 2.54 3.62
8/1/2022 1:15:00 AM 20.35 68.63 0.319 6.45 2.01 3.58
8/1/2022 1:30:00 AM 20.3 68.54 0.319 6.44 2.19 3.58
8/1/2022 1:45:00 AM 20.28 68.504 0.319 6.45 1.79 3.53
8/1/2022 2:00:00 AM 20.24 68.432 0.319 6.45 1.91 3.55
8/1/2022 2:15:00 AM 20.2 68.36 0.319 6.45 1.64 3.53
8/1/2022 2:30:00 AM 20.17 68.306 0.319 6.45 2.38 3.5
8/1/2022 2:45:00 AM 20.13 68.234 0.319 6.45 1.59 3.48
8/1/2022 3:00:00 AM 20.11 68.198 0.319 6.45 1.97 3.49
8/1/2022 3:15:00 AM 20.06 68.108 0.319 6.45 2.5 3.57
8/1/2022 3:30:00 AM 20.05 68.09 0.319 6.43 2.03 3.51
8/1/2022 3:45:00 AM 20.02 68.036 0.318 6.46 2.34 3.48
8/1/2022 4:00:00 AM 20 68 0.318 6.46 2.38 3.48
8/1/2022 4:15:00 AM 19.98 67.964 0.317 6.46 2.65 3.49
8/1/2022 4:30:00 AM 19.97 67.946 0.316 6.47 2.34 3.5
8/1/2022 4:45:00 AM 19.96 67.92799 0.316 6.47 1.73 3.49
8/1/2022 5:00:00 AM 19.95 67.91 0.315 6.47 1.74 3.47
8/1/2022 5:15:00 AM 19.92 67.856 0.315 6.46 2.53 3.51
8/1/2022 5:30:00 AM 19.91 67.838 0.315 6.47 1.69 3.5
8/1/2022 5:45:00 AM 19.89 67.802 0.315 6.47 1.93 3.51
8/1/2022 6:00:00 AM 19.87 67.766 0.316 6.47 1.53 3.52
8/1/2022 6:15:00 AM 19.86 67.748 0.316 6.47 1.52 3.49
8/1/2022 6:30:00 AM 19.84 67.712 0.316 6.47 1.57 3.48
8/1/2022 6:45:00 AM 19.82 67.676 0.317 6.47 1.93 3.49
8/1/2022 7:00:00 AM 19.8 67.64 0.317 6.47 2.47 3.49
8/1/2022 7:15:00 AM 19.8 67.64 0.317 6.47 1.39 3.53
8/1/2022 7:30:00 AM 19.82 67.676 0.317 6.47 1.48 3.58
8/1/2022 7:45:00 AM 19.83 67.694 0.317 6.47 1.24 3.62
8/1/2022 8:00:00 AM 19.85 67.73 0.316 6.47 1.25 3.67
8/1/2022 8:15:00 AM 19.88 67.784 0.316 6.48 1.11 3.78
8/1/2022 8:30:00 AM 19.93 67.874 0.316 6.49 1.04 3.96
8/1/2022 8:45:00 AM 19.99 67.982 0.315 6.47 1.95 4.14
8/1/2022 9:00:00 AM 20.07 68.126 0.314 6.49 2.02 4.33
8/1/2022 9:15:00 AM 20.15 68.27 0.314 6.49 2.01 4.48
8/1/2022 9:30:00 AM 20.24 68.432 0.314 6.52 1.05 4.79
8/1/2022 9:45:00 AM 20.32 68.576 0.314 6.51 1.95 4.92
8/1/2022 10:00:00 AM 20.38 68.684 0.315 6.51 1.94 4.96
8/1/2022 10:15:00 AM 20.52 68.936 0.316 6.52 1.1 5.14
8/1/2022 10:30:00 AM 20.71 69.278 0.317 6.53 2 5.45
8/1/2022 10:45:00 AM 20.89 69.602 0.317 6.56 1.14 5.84
8/1/2022 11:00:00 AM 21.09 69.962 0.317 6.56 2.01 6.12
8/1/2022 11:15:00 AM 21.37 70.466 0.316 6.59 1.35 6.42
8/1/2022 11:30:00 AM 21.47 70.646 0.316 6.58 2.09 6.5
8/1/2022 11:45:00 AM 21.63 70.934 0.316 6.61 2.57 6.77
8/1/2022 12:00:00 PM 21.74 71.132 0.316 6.62 1.19 6.85
8/1/2022 12:15:00 PM 21.93 71.474 0.316 6.61 2.07 7.04
8/1/2022 12:30:00 PM 22.14 71.852 0.316 6.62 1.17 7.39
8/1/2022 12:45:00 PM 22.43 72.374 0.317 6.65 1.08 7.6
8/1/2022 1:00:00 PM 22.48 72.464 0.318 6.67 1.78 7.74
8/1/2022 1:15:00 PM 22.73 72.914 0.319 6.65 1.12 7.62
8/1/2022 1:30:00 PM 23.27 73.886 0.318 6.69 1.09 8.16
8/1/2022 1:45:00 PM 22.92 73.256 0.318 6.67 1.13 7.8
8/1/2022 2:00:00 PM 23.17 73.706 0.317 6.67 2.06 7.79
8/1/2022 2:15:00 PM 23.38 74.084 0.318 6.67 1.88 7.91
8/1/2022 2:30:00 PM 23.55 74.39 0.317 6.68 1.31 7.94
8/1/2022 2:45:00 PM 23.73 74.714 0.318 6.69 1.73 8.14
8/1/2022 3:00:00 PM 23.87 74.966 0.319 6.7 1.78 8.27
8/1/2022 3:15:00 PM 23.88 74.984 0.319 6.68 1.06 8.31
8/1/2022 3:30:00 PM 23.97 75.146 0.319 6.69 1.03 8.35
8/1/2022 3:45:00 PM 24.1 75.38 0.319 6.69 1.1 8.41
8/1/2022 4:00:00 PM 24.12 75.416 0.318 6.7 1.16 8.45
8/1/2022 4:15:00 PM 24.23 75.614 0.319 6.71 1.06 8.67
8/1/2022 4:30:00 PM 24.27 75.686 0.319 6.71 1.04 8.63
8/1/2022 4:45:00 PM 24.2 75.56 0.319 6.71 1.11 8.65
8/1/2022 5:00:00 PM 24.09 75.362 0.32 6.7 2.8 8.62
8/1/2022 5:15:00 PM 24.04 75.272 0.32 6.69 2.36 8.65
8/1/2022 5:30:00 PM 23.99 75.182 0.322 6.69 3.27 8.6
8/1/2022 5:45:00 PM 23.76 74.768 0.325 6.66 8.17 8.46
8/1/2022 6:00:00 PM 23.63 74.534 0.329 6.64 10.87 8.2
8/1/2022 6:15:00 PM 23.69 74.642 0.329 6.61 8.16 8.06
8/1/2022 6:30:00 PM 23.49 74.282 0.333 6.59 10.05 7.64
8/1/2022 6:45:00 PM 23.33 73.994 0.333 6.58 9.38 7.35
8/1/2022 7:00:00 PM 23.2 73.76 0.33 6.57 9.17 7.1
8/1/2022 7:15:00 PM 23.09 73.562 0.327 6.58 7.03 6.91
8/1/2022 7:30:00 PM 22.98 73.364 0.323 6.58 6.19 6.63
8/1/2022 7:45:00 PM 22.91 73.238 0.321 6.58 5.89 6.44
8/1/2022 8:00:00 PM 22.81 73.058 0.32 6.57 5.41 6.29
8/1/2022 8:15:00 PM 22.68 72.824 0.32 6.57 4.74 6.17
8/1/2022 8:30:00 PM 22.57 72.626 0.321 6.56 4.26 6.03
8/1/2022 8:45:00 PM 22.46 72.42799 0.322 6.55 4.53 5.81
8/1/2022 9:00:00 PM 22.35 72.23 0.322 6.53 3.64 5.6
8/1/2022 9:15:00 PM 22.23 72.014 0.322 6.53 4.31 5.3
8/1/2022 9:30:00 PM 22.14 71.852 0.321 6.52 3.38 5.05
8/1/2022 9:45:00 PM 22.05 71.69 0.321 6.51 2.85 4.9
8/1/2022 10:00:00 PM 21.95 71.51 0.32 6.51 2.89 4.71
8/1/2022 10:15:00 PM 21.85 71.33 0.318 6.5 4.81 4.57
8/1/2022 10:30:00 PM 21.75 71.15 0.317 6.5 2.11 4.38
8/1/2022 10:45:00 PM 21.66 70.988 0.317 6.49 2 4.25
8/1/2022 11:00:00 PM 21.58 70.844 0.317 6.48 2.76 4.15
8/1/2022 11:15:00 PM 21.56 70.808 0.317 6.49 1.87 4.13
8/1/2022 11:30:00 PM 21.39 70.502 0.318 6.48 2.48 3.94
8/1/2022 11:45:00 PM 21.3 70.34 0.319 6.47 3.87 3.92
8/2/2022 12:00:00 AM 21.23 70.214 0.32 6.46 3.27 3.82
8/2/2022 12:15:00 AM 21.15 70.07 0.32 6.46 2.86 3.76
8/2/2022 12:30:00 AM 21.09 69.962 0.32 6.46 1.69 3.68
8/2/2022 12:45:00 AM 21.03 69.854 0.32 6.45 2.59 3.58
8/2/2022 1:00:00 AM 20.98 69.764 0.319 6.45 1.56 3.55
8/2/2022 1:15:00 AM 20.93 69.674 0.32 6.45 1.53 3.52
8/2/2022 1:30:00 AM 20.86 69.548 0.32 6.44 2.55 3.47
8/2/2022 1:45:00 AM 20.8 69.44 0.321 6.44 1.79 3.41
8/2/2022 2:00:00 AM 20.76 69.368 0.322 6.44 2.15 3.33
8/2/2022 2:15:00 AM 20.71 69.278 0.322 6.43 3.53 3.3
8/2/2022 2:30:00 AM 20.66 69.188 0.321 6.43 3.39 3.28
8/2/2022 2:45:00 AM 20.63 69.134 0.321 6.43 2.39 3.27
8/2/2022 3:00:00 AM 20.58 69.044 0.32 6.44 2.2 3.24
8/2/2022 3:15:00 AM 20.53 68.954 0.319 6.44 2.39 3.18
8/2/2022 3:30:00 AM 20.49 68.882 0.319 6.44 1.91 3.16
8/2/2022 3:45:00 AM 20.46 68.828 0.318 6.44 1.91 3.1
8/2/2022 4:00:00 AM 20.42 68.756 0.318 6.44 1.75 3.08
8/2/2022 4:15:00 AM 20.38 68.684 0.317 6.44 2.44 3.1
8/2/2022 4:30:00 AM 20.35 68.63 0.317 6.43 2.51 3.11
8/2/2022 4:45:00 AM 20.31 68.558 0.317 6.44 2.22 3.12
8/2/2022 5:00:00 AM 20.28 68.504 0.317 6.44 1.74 3.12
8/2/2022 5:15:00 AM 20.26 68.468 0.317 6.44 1.7 3.08
8/2/2022 5:30:00 AM 20.24 68.432 0.317 6.44 1.64 3.02
8/2/2022 5:45:00 AM 20.21 68.378 0.317 6.44 2.29 3
8/2/2022 6:00:00 AM 20.18 68.324 0.318 6.44 2.36 3
8/2/2022 6:15:00 AM 20.16 68.288 0.317 6.44 2.27 3.02
8/2/2022 6:30:00 AM 20.15 68.27 0.318 6.44 1.52 3
8/2/2022 6:45:00 AM 20.14 68.252 0.318 6.44 2.21 3.02
8/2/2022 7:00:00 AM 20.13 68.234 0.318 6.45 1.7 3
8/2/2022 7:15:00 AM 20.14 68.252 0.318 6.44 2.28 2.99
8/2/2022 7:30:00 AM 20.15 68.27 0.315 6.46 1.68 3.33
8/2/2022 7:45:00 AM 20.17 68.306 0.314 6.47 1.4 3.47
8/2/2022 8:00:00 AM 20.22 68.396 0.314 6.47 1.3 3.52
8/2/2022 8:15:00 AM 20.25 68.45 0.314 6.47 1.18 3.57
8/2/2022 8:30:00 AM 20.32 68.576 0.313 6.47 2.05 3.71
8/2/2022 8:45:00 AM 20.37 68.666 0.313 6.46 1.13 3.89
8/2/2022 9:00:00 AM 20.42 68.756 0.312 6.49 1.17 3.91
8/2/2022 9:15:00 AM 20.49 68.882 0.312 6.49 1.11 4.04
8/2/2022 9:30:00 AM 20.56 69.008 0.313 6.5 1.2 4.23
8/2/2022 9:45:00 AM 20.65 69.17 0.314 6.5 1.78 4.51
8/2/2022 10:00:00 AM 20.75 69.35 0.315 6.51 1.24 4.77
8/2/2022 10:15:00 AM 20.88 69.584 0.317 6.52 1.13 4.99
8/2/2022 10:30:00 AM 20.94 69.692 0.317 6.53 1.26 5.14
8/2/2022 10:45:00 AM 21.1 69.98 0.318 6.54 1.06 5.48
8/2/2022 11:00:00 AM 21.16 70.088 0.318 6.55 1.17 5.49
8/2/2022 11:15:00 AM 21.47 70.646 0.32 6.57 1.83 6.06
8/2/2022 11:30:00 AM 21.52 70.736 0.319 6.57 1.11 5.85
8/2/2022 11:45:00 AM 21.84 71.312 0.322 6.6 1.18 6.52
8/2/2022 12:00:00 PM 21.78 71.204 0.321 6.59 2.06 6.28
8/2/2022 12:15:00 PM 21.9 71.42 0.32 6.58 1.29 6.38
8/2/2022 12:30:00 PM 22.18 71.924 0.321 6.61 1.92 6.61
8/2/2022 12:45:00 PM 22.56 72.608 0.321 6.63 1.81 6.93
8/2/2022 1:00:00 PM 22.48 72.464 0.32 6.62 1.01 6.83
8/2/2022 1:15:00 PM 22.56 72.608 0.32 6.63 1.01 6.92
8/2/2022 1:30:00 PM 22.59 72.662 0.32 6.64 1.08 7.06
8/2/2022 1:45:00 PM 22.8 73.04 0.321 6.65 1.06 7.14
8/2/2022 2:00:00 PM 23.16 73.688 0.321 6.65 0.97 7.45
8/2/2022 2:15:00 PM 23.08 73.544 0.32 6.64 1.06 7.22
8/2/2022 2:30:00 PM 23.14 73.652 0.321 6.64 1.82 7.31
8/2/2022 2:45:00 PM 23.29 73.922 0.32 6.64 1.26 7.3
8/2/2022 3:00:00 PM 23.43 74.174 0.319 6.64 0.95 7.28
8/2/2022 3:15:00 PM 23.64 74.552 0.319 6.64 0.92 7.57
8/2/2022 3:30:00 PM 23.77 74.786 0.319 6.65 1.05 7.47
8/2/2022 3:45:00 PM 23.81 74.858 0.32 6.65 1.13 7.53
8/2/2022 4:00:00 PM 23.86 74.948 0.32 6.66 1.09 7.61
8/2/2022 4:15:00 PM 24 75.2 0.32 6.66 0.99 7.57
8/2/2022 4:30:00 PM 23.99 75.182 0.321 6.67 1.25 7.77
8/2/2022 4:45:00 PM 23.97 75.146 0.321 6.67 1.08 7.8
8/2/2022 5:00:00 PM 23.97 75.146 0.321 6.68 1.29 7.93
8/2/2022 5:15:00 PM 23.93 75.074 0.322 6.68 1.11 7.95
8/2/2022 5:30:00 PM 23.83 74.894 0.322 6.68 1.25 8.01
8/2/2022 5:45:00 PM 23.82 74.876 0.323 6.68 1.07 7.99
8/2/2022 6:00:00 PM 23.65 74.57 0.323 6.67 1.09 7.91
8/2/2022 6:15:00 PM 23.55 74.39 0.323 6.65 2.01 7.77
8/2/2022 6:30:00 PM 23.41 74.138 0.324 6.64 1.12 7.41
8/2/2022 6:45:00 PM 23.26 73.868 0.324 6.63 1.12 7.14
8/2/2022 7:00:00 PM 23.2 73.76 0.325 6.61 1.9 6.94
8/2/2022 7:15:00 PM 23.04 73.472 0.326 6.6 1.17 6.72
8/2/2022 7:30:00 PM 22.9 73.22 0.326 6.56 0.99 6.53
8/2/2022 7:45:00 PM 22.75 72.95 0.326 6.58 1.68 6.23
8/2/2022 8:00:00 PM 22.66 72.788 0.326 6.56 1.53 6.15
8/2/2022 8:15:00 PM 22.47 72.446 0.326 6.55 2.29 6.14
8/2/2022 8:30:00 PM 22.33 72.194 0.325 6.54 3.91 5.96
8/2/2022 8:45:00 PM 22.23 72.014 0.324 6.55 3.83 5.89
8/2/2022 9:00:00 PM 22.16 71.888 0.324 6.55 3.57 5.73
8/2/2022 9:15:00 PM 22.06 71.708 0.324 6.54 2.9 5.58
8/2/2022 9:30:00 PM 21.98 71.564 0.325 6.53 3.59 5.45
8/2/2022 9:45:00 PM 21.9 71.42 0.325 6.53 2.48 5.4
8/2/2022 10:00:00 PM 21.76 71.168 0.325 6.51 2.59 5.19
8/2/2022 10:15:00 PM 21.66 70.988 0.324 6.48 1.73 5.08
8/2/2022 10:30:00 PM 21.55 70.79 0.324 6.5 2.5 4.87
8/2/2022 10:45:00 PM 21.47 70.646 0.324 6.5 1.79 4.76
8/2/2022 11:00:00 PM 21.38 70.484 0.324 6.49 2.03 4.59
8/2/2022 11:15:00 PM 21.28 70.304 0.324 6.48 2.03 4.44
8/2/2022 11:30:00 PM 21.2 70.16 0.325 6.48 1.9 4.32
8/2/2022 11:45:00 PM 21.1 69.98 0.326 6.46 2.31 4.24
8/3/2022 12:00:00 AM 21.03 69.854 0.326 6.47 2.01 4.12
8/3/2022 12:15:00 AM 20.94 69.692 0.327 6.46 1.76 4.02
8/3/2022 12:30:00 AM 20.86 69.548 0.327 6.45 1.79 3.92
8/3/2022 12:45:00 AM 20.8 69.44 0.328 6.45 1.82 3.89
8/3/2022 1:00:00 AM 20.72 69.296 0.328 6.45 1.54 3.84
8/3/2022 1:15:00 AM 20.66 69.188 0.328 6.43 2.37 3.78
8/3/2022 1:30:00 AM 20.57 69.026 0.328 6.43 2.48 3.75
8/3/2022 1:45:00 AM 20.53 68.954 0.327 6.44 1.63 3.7
8/3/2022 2:00:00 AM 20.45 68.81 0.326 6.44 1.47 3.67
8/3/2022 2:15:00 AM 20.38 68.684 0.324 6.44 1.6 3.65
8/3/2022 2:30:00 AM 20.32 68.576 0.323 6.44 2.19 3.6
8/3/2022 2:45:00 AM 20.27 68.486 0.323 6.45 1.41 3.54
8/3/2022 3:00:00 AM 20.21 68.378 0.322 6.42 2.4 3.55
8/3/2022 3:15:00 AM 20.15 68.27 0.322 6.39 1.43 3.49
8/3/2022 3:30:00 AM 20.11 68.198 0.322 6.4 2.51 3.53
8/3/2022 3:45:00 AM 20.07 68.126 0.322 6.42 1.54 3.52
8/3/2022 4:00:00 AM 20.02 68.036 0.321 6.43 1.51 3.49
8/3/2022 4:15:00 AM 19.98 67.964 0.322 6.44 1.87 3.43
8/3/2022 4:30:00 AM 19.93 67.874 0.322 6.43 2.43 3.46
8/3/2022 4:45:00 AM 19.89 67.802 0.322 6.44 2.3 3.5
8/3/2022 5:00:00 AM 19.85 67.73 0.323 6.44 2.21 3.38
8/3/2022 5:15:00 AM 19.82 67.676 0.323 6.44 1.36 3.41
8/3/2022 5:30:00 AM 19.77 67.586 0.324 6.44 2.3 3.34
8/3/2022 5:45:00 AM 19.72 67.496 0.324 6.44 1.36 3.33
8/3/2022 6:00:00 AM 19.67 67.406 0.324 6.43 2.24 3.3
8/3/2022 6:15:00 AM 19.64 67.352 0.324 6.44 1.48 3.21
8/3/2022 6:30:00 AM 19.6 67.28 0.323 6.45 1.49 3.19
8/3/2022 6:45:00 AM 19.56 67.208 0.323 6.45 1.58 3.31
8/3/2022 7:00:00 AM 19.53 67.154 0.322 6.45 1.92 3.42
8/3/2022 7:15:00 AM 19.51 67.118 0.319 6.48 2.63 3.71
8/3/2022 7:30:00 AM 19.52 67.136 0.318 6.49 2.67 3.91
8/3/2022 7:45:00 AM 19.54 67.172 0.319 6.5 1.87 4.01
8/3/2022 8:00:00 AM 19.55 67.19 0.319 6.5 1.42 4.08
8/3/2022 8:15:00 AM 19.58 67.244 0.319 6.51 1.33 4.23
8/3/2022 8:30:00 AM 19.62 67.316 0.319 6.51 1.76 4.34
8/3/2022 8:45:00 AM 19.66 67.388 0.318 6.51 1.89 4.42
8/3/2022 9:00:00 AM 19.74 67.532 0.317 6.52 1.51 4.65
8/3/2022 9:15:00 AM 19.83 67.694 0.316 6.53 0.95 4.72
8/3/2022 9:30:00 AM 19.86 67.748 0.316 6.54 0.97 4.69
8/3/2022 9:45:00 AM 19.98 67.964 0.316 6.54 1.07 4.8
8/3/2022 10:00:00 AM 20.06 68.108 0.316 6.54 1.14 4.76
8/3/2022 10:15:00 AM 20.28 68.504 0.316 6.55 0.95 4.94
8/3/2022 10:30:00 AM 20.38 68.684 0.317 6.55 1.11 4.95
8/3/2022 10:45:00 AM 20.65 69.17 0.318 6.56 1.11 5.39
8/3/2022 11:00:00 AM 20.9 69.62 0.317 6.58 0.94 5.81
8/3/2022 11:15:00 AM 21.11 69.998 0.318 6.58 0.95 5.99
8/3/2022 11:30:00 AM 21.36 70.448 0.32 6.6 0.9 6.22
8/3/2022 11:45:00 AM 21.71 71.078 0.321 6.63 0.89 6.74
8/3/2022 12:00:00 PM 22 71.6 0.322 6.57 1.77 6.87
8/3/2022 12:15:00 PM 22.51 72.518 0.324 6.66 0.89 7.31
8/3/2022 12:30:00 PM 22.81 73.058 0.324 6.67 0.93 7.44
8/3/2022 12:45:00 PM 23.16 73.688 0.326 6.68 1.56 7.9
8/3/2022 1:00:00 PM 23.08 73.544 0.323 6.66 0.87 7.57
8/3/2022 1:15:00 PM 23.66 74.588 0.326 6.7 1.52 8.02
8/3/2022 1:30:00 PM 23.6 74.48 0.323 6.7 1.01 7.89
8/3/2022 1:45:00 PM 23.64 74.552 0.324 6.68 1 7.76
8/3/2022 2:00:00 PM 23.97 75.146 0.325 6.69 1 8.02
8/3/2022 2:15:00 PM 24.04 75.272 0.324 6.68 0.95 7.95
8/3/2022 2:30:00 PM 24.16 75.488 0.323 6.68 0.9 7.9
8/3/2022 2:45:00 PM 24.19 75.542 0.323 6.68 0.92 7.94
8/3/2022 3:00:00 PM 24.25 75.65 0.323 6.68 0.95 8.01
8/3/2022 3:15:00 PM 24.37 75.866 0.323 6.68 1.1 8.16
8/3/2022 3:30:00 PM 24.55 76.19 0.323 6.69 1.14 8.3
8/3/2022 3:45:00 PM 24.66 76.388 0.323 6.69 0.95 8.32
8/3/2022 4:00:00 PM 24.65 76.37 0.323 6.7 1 8.36
8/3/2022 4:15:00 PM 24.66 76.388 0.323 6.7 0.98 8.4
8/3/2022 4:30:00 PM 24.56 76.208 0.324 6.7 0.95 8.51
8/3/2022 4:45:00 PM 24.61 76.298 0.324 6.7 0.93 8.62
8/3/2022 5:00:00 PM 24.52 76.136 0.322 6.7 0.91 8.46
8/3/2022 5:15:00 PM 24.55 76.19 0.322 6.69 1.65 8.38
8/3/2022 5:30:00 PM 24.58 76.244 0.322 6.7 0.87 8.32
8/3/2022 5:45:00 PM 24.44 75.992 0.322 6.7 1.02 8.31
8/3/2022 6:00:00 PM 24.39 75.902 0.322 6.69 1.81 8.23
8/3/2022 6:15:00 PM 24.17 75.506 0.323 6.68 1.03 8.01
8/3/2022 6:30:00 PM 23.96 75.128 0.323 6.66 1.71 7.68
8/3/2022 6:45:00 PM 23.82 74.876 0.323 6.65 1.19 7.49
8/3/2022 7:00:00 PM 23.7 74.66 0.323 6.64 1.67 7.22
8/3/2022 7:15:00 PM 23.57 74.426 0.323 6.62 2.06 6.93
8/3/2022 7:30:00 PM 23.44 74.192 0.323 6.61 2.78 6.71
8/3/2022 7:45:00 PM 23.31 73.958 0.323 6.59 2.52 6.49
8/3/2022 8:00:00 PM 23.18 73.724 0.323 6.58 2.64 6.26
8/3/2022 8:15:00 PM 23.05 73.49 0.323 6.57 1.92 6.08
8/3/2022 8:30:00 PM 22.91 73.238 0.323 6.56 2.55 5.9
8/3/2022 8:45:00 PM 22.81 73.058 0.323 6.55 2.56 5.71
8/3/2022 9:00:00 PM 22.68 72.824 0.323 6.54 2.98 5.55
8/3/2022 9:15:00 PM 22.57 72.626 0.323 6.54 2.79 5.38
8/3/2022 9:30:00 PM 22.45 72.41 0.323 6.53 2.33 5.22
8/3/2022 9:45:00 PM 22.33 72.194 0.322 6.51 3.2 5.09
8/3/2022 10:00:00 PM 22.23 72.014 0.322 6.52 2.21 4.95
8/3/2022 10:15:00 PM 22.15 71.87 0.322 6.51 2.31 4.82
8/3/2022 10:30:00 PM 22.04 71.672 0.322 6.51 1.9 4.74
8/3/2022 10:45:00 PM 21.94 71.492 0.323 6.5 1.72 4.58
8/3/2022 11:00:00 PM 21.83 71.294 0.324 6.49 2.3 4.49
8/3/2022 11:15:00 PM 21.72 71.096 0.324 6.48 2.15 4.4
8/3/2022 11:30:00 PM 21.63 70.934 0.325 6.47 2.34 4.3
8/3/2022 11:45:00 PM 21.52 70.736 0.326 6.46 2.54 4.17
8/4/2022 12:00:00 AM 21.47 70.646 0.327 6.46 2.42 4.09
8/4/2022 12:15:00 AM 21.38 70.484 0.327 6.46 2.5 4
8/4/2022 12:30:00 AM 21.3 70.34 0.327 6.46 2.29 3.93
8/4/2022 12:45:00 AM 21.21 70.17799 0.327 6.45 2.82 3.8
8/4/2022 1:00:00 AM 21.18 70.124 0.327 6.45 1.92 3.75
8/4/2022 1:15:00 AM 21.09 69.962 0.326 6.45 1.72 3.68
8/4/2022 1:30:00 AM 21.03 69.854 0.326 6.45 1.67 3.59
8/4/2022 1:45:00 AM 20.97 69.746 0.326 6.45 1.52 3.51
8/4/2022 2:00:00 AM 20.91 69.638 0.324 6.44 2.2 3.45
8/4/2022 2:15:00 AM 20.86 69.548 0.324 6.45 1.34 3.41
8/4/2022 2:30:00 AM 20.81 69.458 0.323 6.43 2.13 3.31
8/4/2022 2:45:00 AM 20.76 69.368 0.322 6.44 1.18 3.25
8/4/2022 3:00:00 AM 20.72 69.296 0.322 6.44 1.33 3.17
8/4/2022 3:15:00 AM 20.68 69.224 0.321 6.44 1.22 3.11
8/4/2022 3:30:00 AM 20.64 69.152 0.321 6.44 1.25 3.17
8/4/2022 3:45:00 AM 20.59 69.062 0.321 6.44 1.08 3.18
8/4/2022 4:00:00 AM 20.56 69.008 0.321 6.44 1.19 3.07
8/4/2022 4:15:00 AM 20.53 68.954 0.321 6.44 1.13 3.05
8/4/2022 4:30:00 AM 20.49 68.882 0.32 6.44 1.3 3.07
8/4/2022 4:45:00 AM 20.47 68.846 0.32 6.44 1.29 3.07
8/4/2022 5:00:00 AM 20.42 68.756 0.321 6.45 1.22 3.05
8/4/2022 5:15:00 AM 20.39 68.702 0.321 6.44 1.31 3.07
8/4/2022 5:30:00 AM 20.37 68.666 0.321 6.44 2.07 3.01
8/4/2022 5:45:00 AM 20.34 68.612 0.321 6.44 1.29 3.06
8/4/2022 6:00:00 AM 20.31 68.558 0.321 6.44 1.35 3.05
8/4/2022 6:15:00 AM 20.29 68.522 0.321 6.44 1.45 3
8/4/2022 6:30:00 AM 20.27 68.486 0.321 6.44 1.6 3.04
8/4/2022 6:45:00 AM 20.26 68.468 0.321 6.44 1.44 2.95
8/4/2022 7:00:00 AM 20.23 68.414 0.322 6.44 1.64 2.9
8/4/2022 7:15:00 AM 20.22 68.396 0.322 6.44 1.47 2.96
8/4/2022 7:30:00 AM 20.22 68.396 0.321 6.44 1.87 2.94
8/4/2022 7:45:00 AM 20.23 68.414 0.321 6.44 2.73 2.99
8/4/2022 8:00:00 AM 20.26 68.468 0.32 6.46 2.5 3.39
8/4/2022 8:15:00 AM 20.31 68.558 0.32 6.46 2.55 3.4
8/4/2022 8:30:00 AM 20.35 68.63 0.32 6.46 1.48 3.45
8/4/2022 8:45:00 AM 20.4 68.72 0.32 6.46 2.23 3.55
8/4/2022 9:00:00 AM 20.47 68.846 0.32 6.46 2.07 3.64
8/4/2022 9:15:00 AM 20.56 69.008 0.32 6.47 1.94 3.82
8/4/2022 9:30:00 AM 20.61 69.098 0.32 6.46 2 3.83
8/4/2022 9:45:00 AM 20.69 69.242 0.32 6.47 1.98 3.93
8/4/2022 10:00:00 AM 20.75 69.35 0.32 6.48 1.2 3.91
8/4/2022 10:15:00 AM 20.91 69.638 0.321 6.48 1.23 4.08
8/4/2022 10:30:00 AM 21.15 70.07 0.322 6.49 1.03 4.4
8/4/2022 10:45:00 AM 21.36 70.448 0.324 6.5 1.96 4.6
8/4/2022 11:00:00 AM 21.75 71.15 0.325 6.51 1.84 5.12
8/4/2022 11:15:00 AM 21.78 71.204 0.325 6.52 2.45 5.09
8/4/2022 11:30:00 AM 22.04 71.672 0.325 6.53 1.91 5.18
8/4/2022 11:45:00 AM 22.23 72.014 0.324 6.53 1.94 5.29
8/4/2022 12:00:00 PM 22.55 72.59 0.325 6.56 2.04 5.53
8/4/2022 12:15:00 PM 22.93 73.274 0.324 6.58 1.79 5.82
8/4/2022 12:30:00 PM 22.91 73.238 0.322 6.58 1.93 6.1
8/4/2022 12:45:00 PM 22.95 73.31 0.321 6.58 1.98 6.29
8/4/2022 1:00:00 PM 23.13 73.634 0.321 6.6 3.17 6.3
8/4/2022 1:15:00 PM 23.09 73.562 0.321 6.6 1.17 6.36
8/4/2022 1:30:00 PM 23.13 73.634 0.321 6.59 2.63 6.42
8/4/2022 1:45:00 PM 23.28 73.904 0.319 6.61 1.37 6.57
8/4/2022 2:00:00 PM 23.21 73.778 0.319 6.62 1.24 6.51
8/4/2022 2:15:00 PM 23.23 73.814 0.319 6.63 1.93 6.54
8/4/2022 2:30:00 PM 23.06 73.508 0.318 6.63 1.33 6.54
8/4/2022 2:45:00 PM 22.88 73.184 0.316 6.63 1.25 6.52
8/4/2022 3:00:00 PM 22.73 72.914 0.315 6.57 1.75 6.52
8/4/2022 3:15:00 PM 22.67 72.806 0.312 6.65 2.21 6.45
8/4/2022 3:30:00 PM 22.58 72.644 0.31 6.66 1.75 6.46
8/4/2022 3:45:00 PM 22.41 72.338 0.308 6.66 1.65 6.34
8/4/2022 4:00:00 PM 22.31 72.158 0.31 6.64 1.74 6.11
8/4/2022 4:15:00 PM 22.17 71.906 0.311 6.61 2.61 5.84
8/4/2022 4:30:00 PM 22.08 71.744 0.31 6.6 2.9 5.64
8/4/2022 4:45:00 PM 22 71.6 0.31 6.59 2.64 5.55
8/4/2022 5:00:00 PM 21.94 71.492 0.311 6.58 1.89 5.4
8/4/2022 5:15:00 PM 21.87 71.366 0.311 6.56 2.48 5.33
8/4/2022 5:30:00 PM 21.83 71.294 0.312 6.56 1.66 5.23
8/4/2022 5:45:00 PM 21.77 71.186 0.312 6.55 1.83 5.11
8/4/2022 6:00:00 PM 21.73 71.114 0.312 6.54 2.54 5.05
8/4/2022 6:15:00 PM 21.69 71.042 0.311 6.51 1.9 5.07
8/4/2022 6:30:00 PM 21.66 70.988 0.31 6.53 2.34 5.07
8/4/2022 6:45:00 PM 21.62 70.916 0.31 6.53 2.24 5.03
8/4/2022 7:00:00 PM 21.58 70.844 0.31 6.53 1.5 4.99
8/4/2022 7:15:00 PM 21.56 70.808 0.309 6.52 1.52 4.98
8/4/2022 7:30:00 PM 21.52 70.736 0.31 6.51 2.52 4.91
8/4/2022 7:45:00 PM 21.49 70.682 0.31 6.51 1.86 4.84
8/4/2022 8:00:00 PM 21.45 70.61 0.311 6.51 2.63 4.77
8/4/2022 8:15:00 PM 21.41 70.538 0.312 6.5 2.07 4.63
8/4/2022 8:30:00 PM 21.37 70.466 0.313 6.48 5.01 4.54
8/4/2022 8:45:00 PM 21.34 70.412 0.313 6.48 1.94 4.48
8/4/2022 9:00:00 PM 21.3 70.34 0.313 6.47 1.75 4.36
8/4/2022 9:15:00 PM 21.26 70.268 0.314 6.47 1.93 4.27
8/4/2022 9:30:00 PM 21.23 70.214 0.314 6.46 1.74 4.17
8/4/2022 9:45:00 PM 21.2 70.16 0.315 6.47 1.59 4.1
8/4/2022 10:00:00 PM 21.16 70.088 0.315 6.46 2.5 3.96
8/4/2022 10:15:00 PM 21.14 70.052 0.315 6.46 1.67 3.86
8/4/2022 10:30:00 PM 21.11 69.998 0.316 6.45 2.05 3.75
8/4/2022 10:45:00 PM 21.08 69.944 0.316 6.45 3.39 3.6
8/4/2022 11:00:00 PM 21.05 69.89 0.316 6.44 3.56 3.55
8/4/2022 11:15:00 PM 21.02 69.836 0.317 6.44 1.78 3.52
8/4/2022 11:30:00 PM 21 69.8 0.317 6.44 1.52 3.51
8/4/2022 11:45:00 PM 20.98 69.764 0.317 6.42 1.61 3.44
8/5/2022 12:00:00 AM 20.97 69.746 0.317 6.43 1.69 3.3
8/5/2022 12:15:00 AM 20.94 69.692 0.317 6.43 2.02 3.28
8/5/2022 12:30:00 AM 20.94 69.692 0.317 6.42 1.74 3.21
8/5/2022 12:45:00 AM 20.91 69.638 0.317 6.42 1.41 3.13
8/5/2022 1:00:00 AM 20.9 69.62 0.318 6.42 2.09 3.16
8/5/2022 1:15:00 AM 20.89 69.602 0.318 6.43 1.27 3.08
8/5/2022 1:30:00 AM 20.87 69.566 0.318 6.42 2.29 2.96
8/5/2022 1:45:00 AM 20.86 69.548 0.318 6.43 1.26 2.91
8/5/2022 2:00:00 AM 20.85 69.53 0.319 6.42 2.08 2.92
8/5/2022 2:15:00 AM 20.84 69.512 0.319 6.42 2.15 2.87
8/5/2022 2:30:00 AM 20.82 69.476 0.319 6.42 1.45 2.92
8/5/2022 2:45:00 AM 20.81 69.458 0.319 6.42 1.33 2.88
8/5/2022 3:00:00 AM 20.82 69.476 0.319 6.42 1.41 2.78
8/5/2022 3:15:00 AM 20.8 69.44 0.319 6.43 1.61 2.78
8/5/2022 3:30:00 AM 20.79 69.422 0.32 6.42 1.91 2.72
8/5/2022 3:45:00 AM 20.77 69.386 0.32 6.42 1.42 2.76
8/5/2022 4:00:00 AM 20.76 69.368 0.32 6.42 1.33 2.71
8/5/2022 4:15:00 AM 20.75 69.35 0.32 6.42 2.12 2.77
8/5/2022 4:30:00 AM 20.73 69.314 0.321 6.42 1.19 2.75
8/5/2022 4:45:00 AM 20.72 69.296 0.321 6.42 2.01 2.68
8/5/2022 5:00:00 AM 20.71 69.278 0.321 6.41 2.05 2.77
8/5/2022 5:15:00 AM 20.7 69.26 0.321 6.42 1.51 2.66
8/5/2022 5:30:00 AM 20.69 69.242 0.321 6.42 1.84 2.63
8/5/2022 5:45:00 AM 20.67 69.206 0.321 6.42 2.39 2.71
8/5/2022 6:00:00 AM 20.66 69.188 0.321 6.43 2.04 2.74
8/5/2022 6:15:00 AM 20.64 69.152 0.321 6.42 2.27 2.65
8/5/2022 6:30:00 AM 20.63 69.134 0.321 6.43 2.36 2.7
8/5/2022 6:45:00 AM 20.62 69.116 0.321 6.43 1.71 2.74
8/5/2022 7:00:00 AM 20.61 69.098 0.321 6.43 2.58 2.67
8/5/2022 7:15:00 AM 20.6 69.08 0.321 6.41 3.95 2.61
8/5/2022 7:30:00 AM 20.61 69.098 0.321 6.42 2.88 2.66
8/5/2022 7:45:00 AM 20.61 69.098 0.321 6.42 2.85 2.71
8/5/2022 8:00:00 AM 20.62 69.116 0.321 6.43 2.09 2.74
8/5/2022 8:15:00 AM 20.64 69.152 0.321 6.43 2.42 2.87
8/5/2022 8:30:00 AM 20.66 69.188 0.321 6.43 1.53 2.9
8/5/2022 8:45:00 AM 20.69 69.242 0.321 6.44 1.43 2.86
8/5/2022 9:00:00 AM 20.75 69.35 0.321 6.44 1.28 3.2
8/5/2022 9:15:00 AM 20.83 69.494 0.321 6.45 1.26 3.56
8/5/2022 9:30:00 AM 20.91 69.638 0.321 6.46 1.81 3.86
8/5/2022 9:45:00 AM 20.93 69.674 0.321 6.47 1.08 3.9
8/5/2022 10:00:00 AM 21.02 69.836 0.321 6.47 1.19 4.1
8/5/2022 10:15:00 AM 21.12 70.016 0.321 6.48 1.11 4.33
8/5/2022 10:30:00 AM 21.15 70.07 0.321 6.49 1.18 4.36
8/5/2022 10:45:00 AM 21.22 70.196 0.32 6.49 1.16 4.58
8/5/2022 11:00:00 AM 21.32 70.376 0.32 6.5 1.22 4.8
8/5/2022 11:15:00 AM 21.41 70.538 0.32 6.51 1.19 5.09
8/5/2022 11:30:00 AM 21.38 70.484 0.32 6.5 2.02 4.81
8/5/2022 11:45:00 AM 21.46 70.628 0.321 6.52 1.15 4.9
8/5/2022 12:00:00 PM 21.46 70.628 0.32 6.51 1.29 5.06
8/5/2022 12:15:00 PM 21.54 70.772 0.321 6.52 1.28 5.03
8/5/2022 12:30:00 PM 21.59 70.862 0.322 6.52 1.24 5.23
8/5/2022 12:45:00 PM 21.63 70.934 0.322 6.52 1.99 5.37
8/5/2022 1:00:00 PM 21.78 71.204 0.322 6.52 0.97 5.38
8/5/2022 1:15:00 PM 22.02 71.636 0.322 6.54 1.06 5.92
8/5/2022 1:30:00 PM 22.35 72.23 0.322 6.55 1.47 5.97
8/5/2022 1:45:00 PM 22.78 73.004 0.322 6.57 2.24 6.49
8/5/2022 2:00:00 PM 22.87 73.166 0.321 6.59 0.98 6.73
8/5/2022 2:15:00 PM 23.06 73.508 0.322 6.58 1.76 6.81
8/5/2022 2:30:00 PM 23.3 73.94 0.322 6.59 0.97 6.8
8/5/2022 2:45:00 PM 23.34 74.012 0.322 6.6 1.01 6.98
8/5/2022 3:00:00 PM 23.67 74.606 0.322 6.6 0.91 7.11
8/5/2022 3:15:00 PM 23.83 74.894 0.323 6.6 0.94 7.16
8/5/2022 3:30:00 PM 23.97 75.146 0.322 6.61 0.97 7.25
8/5/2022 3:45:00 PM 24.1 75.38 0.321 6.61 0.95 7.34
8/5/2022 4:00:00 PM 24.16 75.488 0.321 6.61 1.04 7.41
8/5/2022 4:15:00 PM 24.22 75.596 0.321 6.62 0.93 7.41
8/5/2022 4:30:00 PM 24.18 75.524 0.321 6.62 1.28 7.38
8/5/2022 4:45:00 PM 24.08 75.344 0.321 6.62 1.96 7.37
8/5/2022 5:00:00 PM 24.03 75.254 0.321 6.62 1.15 7.34
8/5/2022 5:15:00 PM 23.94 75.092 0.322 6.62 1.02 7.21
8/5/2022 5:30:00 PM 23.9 75.02 0.322 6.61 1.22 7.26
8/5/2022 5:45:00 PM 23.77 74.786 0.322 6.6 2.42 7
8/5/2022 6:00:00 PM 23.69 74.642 0.321 6.61 1.25 6.93
8/5/2022 6:15:00 PM 23.65 74.57 0.321 6.6 1.16 6.84
8/5/2022 6:30:00 PM 23.58 74.444 0.32 6.6 1.08 6.75
8/5/2022 6:45:00 PM 23.46 74.228 0.321 6.59 2.37 6.6
8/5/2022 7:00:00 PM 23.31 73.958 0.322 6.51 1.84 6.44
8/5/2022 7:15:00 PM 23.15 73.67 0.323 6.55 3.31 6.22
8/5/2022 7:30:00 PM 23.05 73.49 0.324 6.54 2.94 6
8/5/2022 7:45:00 PM 22.93 73.274 0.326 6.52 3.79 5.86
8/5/2022 8:00:00 PM 22.81 73.058 0.327 6.52 2.43 5.7
8/5/2022 8:15:00 PM 22.72 72.896 0.327 6.51 2.23 5.57
8/5/2022 8:30:00 PM 22.62 72.716 0.327 6.51 2.58 5.48
8/5/2022 8:45:00 PM 22.52 72.536 0.327 6.5 3.48 5.3
8/5/2022 9:00:00 PM 22.41 72.338 0.326 6.49 2.19 5.11
8/5/2022 9:15:00 PM 22.33 72.194 0.326 6.5 1.64 4.99
8/5/2022 9:30:00 PM 22.25 72.05 0.325 6.48 2.81 4.88
8/5/2022 9:45:00 PM 22.17 71.906 0.325 6.48 2.78 4.73
8/5/2022 10:00:00 PM 22.1 71.78 0.324 6.48 2.25 4.61
8/5/2022 10:15:00 PM 22 71.6 0.324 6.48 2.39 4.52
8/5/2022 10:30:00 PM 21.93 71.474 0.324 6.47 2.26 4.36
8/5/2022 10:45:00 PM 21.85 71.33 0.324 6.46 3.04 4.25
8/5/2022 11:00:00 PM 21.79 71.222 0.324 6.46 2.33 4.11
8/5/2022 11:15:00 PM 21.7 71.06 0.324 6.45 2.82 4.05
8/5/2022 11:30:00 PM 21.65 70.97 0.324 6.46 1.67 3.97
8/5/2022 11:45:00 PM 21.58 70.844 0.324 6.44 2.13 3.85
8/6/2022 12:00:00 AM 21.53 70.754 0.324 6.45 1.4 3.76
8/6/2022 12:15:00 AM 21.47 70.646 0.325 6.44 2.1 3.68
8/6/2022 12:30:00 AM 21.42 70.556 0.324 6.44 1.52 3.57
8/6/2022 12:45:00 AM 21.35 70.43 0.325 6.43 3.27 3.52
8/6/2022 1:00:00 AM 21.31 70.358 0.325 6.43 2.53 3.42
8/6/2022 1:15:00 AM 21.25 70.25 0.325 6.42 2.51 3.34
8/6/2022 1:30:00 AM 21.22 70.196 0.327 6.43 2.07 3.33
8/6/2022 1:45:00 AM 21.19 70.142 0.325 6.43 1.45 3.28
8/6/2022 2:00:00 AM 21.14 70.052 0.324 6.43 1.45 3.26
8/6/2022 2:15:00 AM 21.13 70.034 0.324 6.43 1.21 3.22
8/6/2022 2:30:00 AM 21.09 69.962 0.323 6.43 1.13 3.16
8/6/2022 2:45:00 AM 21.06 69.908 0.323 6.43 1.15 3.12
8/6/2022 3:00:00 AM 21.03 69.854 0.323 6.42 1.25 3.08
8/6/2022 3:15:00 AM 21 69.8 0.323 6.43 1.71 3.1
8/6/2022 3:30:00 AM 20.98 69.764 0.323 6.43 1.7 3.04
8/6/2022 3:45:00 AM 20.97 69.746 0.323 6.42 2.05 2.98
8/6/2022 4:00:00 AM 20.94 69.692 0.323 6.43 1.48 2.93
8/6/2022 4:15:00 AM 20.92 69.656 0.324 6.42 2.09 2.95
8/6/2022 4:30:00 AM 20.91 69.638 0.324 6.43 1.15 2.98
8/6/2022 4:45:00 AM 20.88 69.584 0.324 6.42 1.51 2.93
8/6/2022 5:00:00 AM 20.86 69.548 0.324 6.42 2.14 2.87
8/6/2022 5:15:00 AM 20.85 69.53 0.324 6.42 1.14 2.82
8/6/2022 5:30:00 AM 20.84 69.512 0.324 6.43 1.1 2.86
8/6/2022 5:45:00 AM 20.82 69.476 0.324 6.42 2.01 2.89
8/6/2022 6:00:00 AM 20.81 69.458 0.324 6.43 1.24 2.87
8/6/2022 6:15:00 AM 20.8 69.44 0.324 6.42 1.13 2.88
8/6/2022 6:30:00 AM 20.79 69.422 0.324 6.43 2.25 2.85
8/6/2022 6:45:00 AM 20.78 69.404 0.324 6.43 1.39 2.86
8/6/2022 7:00:00 AM 20.77 69.386 0.324 6.43 1.44 2.84
8/6/2022 7:15:00 AM 20.76 69.368 0.324 6.44 1.42 2.88
8/6/2022 7:30:00 AM 20.75 69.35 0.324 6.44 1.66 3.01
8/6/2022 7:45:00 AM 20.77 69.386 0.324 6.43 2.31 3.03
8/6/2022 8:00:00 AM 20.78 69.404 0.324 6.37 2.36 3.08
8/6/2022 8:15:00 AM 20.8 69.44 0.324 6.44 2.04 3.13
8/6/2022 8:30:00 AM 20.84 69.512 0.324 6.45 1.28 3.14
8/6/2022 8:45:00 AM 20.88 69.584 0.324 6.45 1.07 3.18
8/6/2022 9:00:00 AM 20.9 69.62 0.324 6.44 1.2 3.21
8/6/2022 9:15:00 AM 20.98 69.764 0.324 6.45 1.15 3.37
8/6/2022 9:30:00 AM 20.97 69.746 0.324 6.45 1.11 3.35
8/6/2022 9:45:00 AM 21.01 69.818 0.324 6.45 2.14 3.5
8/6/2022 10:00:00 AM 21.1 69.98 0.325 6.45 0.95 3.63
8/6/2022 10:15:00 AM 21.18 70.124 0.325 6.45 1.11 3.72
8/6/2022 10:30:00 AM 21.29 70.32201 0.325 6.46 1.08 3.82
8/6/2022 10:45:00 AM 21.5 70.7 0.324 6.47 1.05 3.99
8/6/2022 11:00:00 AM 21.74 71.132 0.324 6.49 1.07 4.2
8/6/2022 11:15:00 AM 21.87 71.366 0.324 6.5 1.11 4.34
8/6/2022 11:30:00 AM 22.28 72.104 0.324 6.52 1.24 4.87
8/6/2022 11:45:00 AM 22.36 72.248 0.325 6.53 1.92 4.85
8/6/2022 12:00:00 PM 22.94 73.292 0.325 6.55 0.97 5.47
8/6/2022 12:15:00 PM 22.79 73.022 0.325 6.54 1.81 5.25
8/6/2022 12:30:00 PM 23.19 73.742 0.325 6.55 1.87 5.54
8/6/2022 12:45:00 PM 23.66 74.588 0.326 6.58 0.91 5.94
8/6/2022 1:00:00 PM 23.58 74.444 0.325 6.58 1.84 5.85
8/6/2022 1:15:00 PM 24.23 75.614 0.325 6.6 0.89 6.31
8/6/2022 1:30:00 PM 24.03 75.254 0.325 6.56 1.59 6.12
8/6/2022 1:45:00 PM 24.26 75.668 0.325 6.6 0.99 6.24
8/6/2022 2:00:00 PM 24.51 76.118 0.325 6.62 1.35 6.4
8/6/2022 2:15:00 PM 24.42 75.956 0.324 6.62 1.2 6.56
8/6/2022 2:30:00 PM 24.75 76.55 0.324 6.63 1.5 6.66
8/6/2022 2:45:00 PM 24.71 76.478 0.323 6.63 1.39 6.67
8/6/2022 3:00:00 PM 24.68 76.424 0.323 6.62 1.41 6.68
8/6/2022 3:15:00 PM 24.57 76.226 0.323 6.62 1.38 6.63
8/6/2022 3:30:00 PM 24.69 76.442 0.323 6.62 1.4 6.64
8/6/2022 3:45:00 PM 24.54 76.172 0.323 6.61 1.37 6.67
8/6/2022 4:00:00 PM 24.56 76.208 0.325 6.6 2.06 6.57
8/6/2022 4:15:00 PM 24.51 76.118 0.325 6.6 1.08 6.6
8/6/2022 4:30:00 PM 24.48 76.064 0.326 6.59 1.93 6.53
8/6/2022 4:45:00 PM 24.38 75.884 0.326 6.59 1.86 6.56
8/6/2022 5:00:00 PM 24.46 76.028 0.325 6.6 1.05 6.6
8/6/2022 5:15:00 PM 24.48 76.064 0.325 6.6 0.96 6.6
8/6/2022 5:30:00 PM 24.41 75.938 0.324 6.6 1.88 6.64
8/6/2022 5:45:00 PM 24.38 75.884 0.324 6.6 2.02 6.7
8/6/2022 6:00:00 PM 24.3 75.74 0.324 6.61 5.67 6.68
8/6/2022 6:15:00 PM 24.25 75.65 0.324 6.61 1.62 6.7
8/6/2022 6:30:00 PM 24.14 75.452 0.324 6.61 1.14 6.67
8/6/2022 6:45:00 PM 24 75.2 0.325 6.6 2.37 6.56
8/6/2022 7:00:00 PM 23.92 75.056 0.325 6.6 1.46 6.53
8/6/2022 7:15:00 PM 23.84 74.912 0.325 6.59 2.52 6.38
8/6/2022 7:30:00 PM 23.74 74.732 0.325 6.59 2.1 6.04
8/6/2022 7:45:00 PM 23.63 74.534 0.326 6.57 2.09 6
8/6/2022 8:00:00 PM 23.52 74.336 0.326 6.56 1.94 5.82
8/6/2022 8:15:00 PM 23.41 74.138 0.327 6.55 2.11 5.73
8/6/2022 8:30:00 PM 23.29 73.922 0.328 6.53 2.72 5.58
8/6/2022 8:45:00 PM 23.14 73.652 0.329 6.53 2.49 5.44
8/6/2022 9:00:00 PM 23.03 73.454 0.329 6.52 2.52 5.28
8/6/2022 9:15:00 PM 22.98 73.364 0.329 6.51 2.91 5.15
8/6/2022 9:30:00 PM 22.92 73.256 0.328 6.52 1.97 5.09
8/6/2022 9:45:00 PM 22.82 73.076 0.328 6.5 2.88 4.92
8/6/2022 10:00:00 PM 22.75 72.95 0.327 6.5 2.13 4.76
8/6/2022 10:15:00 PM 22.69 72.842 0.328 6.49 3.47 4.61
8/6/2022 10:30:00 PM 22.58 72.644 0.327 6.49 1.67 4.57
8/6/2022 10:45:00 PM 22.49 72.482 0.328 6.48 2.38 4.47
8/6/2022 11:00:00 PM 22.42 72.356 0.328 6.47 2.29 4.33
8/6/2022 11:15:00 PM 22.35 72.23 0.328 6.47 1.56 4.22
8/6/2022 11:30:00 PM 22.28 72.104 0.328 6.47 1.24 4.14
8/6/2022 11:45:00 PM 22.2 71.96 0.328 6.46 1.49 4.04
8/7/2022 12:00:00 AM 22.13 71.834 0.328 6.46 1.57 3.94
8/7/2022 12:15:00 AM 22.06 71.708 0.328 6.45 1.82 3.82
8/7/2022 12:30:00 AM 22.01 71.618 0.328 6.45 3.47 3.69
8/7/2022 12:45:00 AM 21.95 71.51 0.328 6.45 3.3 3.59
8/7/2022 1:00:00 AM 21.89 71.402 0.328 6.45 1.52 3.6
8/7/2022 1:15:00 AM 21.86 71.348 0.328 6.43 2.41 3.59
8/7/2022 1:30:00 AM 21.82 71.276 0.328 6.44 1.43 3.44
8/7/2022 1:45:00 AM 21.78 71.204 0.328 6.43 2.13 3.4
8/7/2022 2:00:00 AM 21.73 71.114 0.327 6.43 2.32 3.36
8/7/2022 2:15:00 AM 21.69 71.042 0.327 6.44 1.97 3.34
8/7/2022 2:30:00 AM 21.64 70.952 0.326 6.43 1.26 3.29
8/7/2022 2:45:00 AM 21.61 70.898 0.326 6.43 2.93 3.19
8/7/2022 3:00:00 AM 21.59 70.862 0.327 6.43 1.27 3.21
8/7/2022 3:15:00 AM 21.56 70.808 0.326 6.43 1.2 3.2
8/7/2022 3:30:00 AM 21.54 70.772 0.326 6.43 1.53 3.14
8/7/2022 3:45:00 AM 21.51 70.718 0.326 6.43 1.54 3.11
8/7/2022 4:00:00 AM 21.49 70.682 0.326 6.43 2.38 3.07
8/7/2022 4:15:00 AM 21.45 70.61 0.326 6.41 1.32 3.07
8/7/2022 4:30:00 AM 21.43 70.574 0.326 6.43 2.15 3
8/7/2022 4:45:00 AM 21.4 70.52 0.326 6.42 2.26 3.01
8/7/2022 5:00:00 AM 21.37 70.466 0.326 6.43 2.5 3.01
8/7/2022 5:15:00 AM 21.35 70.43 0.326 6.43 1.01 2.93
8/7/2022 5:30:00 AM 21.33 70.394 0.326 6.43 1.06 2.88
8/7/2022 5:45:00 AM 21.32 70.376 0.327 6.42 2.08 2.87
8/7/2022 6:00:00 AM 21.31 70.358 0.327 6.42 1.56 2.82
8/7/2022 6:15:00 AM 21.29 70.32201 0.327 6.42 1.99 2.79
8/7/2022 6:30:00 AM 21.29 70.32201 0.327 6.42 1.18 2.76
8/7/2022 6:45:00 AM 21.25 70.25 0.328 6.42 1.55 2.75
8/7/2022 7:00:00 AM 21.23 70.214 0.328 6.42 2.05 2.78
8/7/2022 7:15:00 AM 21.22 70.196 0.328 6.42 3.16 2.79
8/7/2022 7:30:00 AM 21.21 70.17799 0.328 6.42 2.36 2.82
8/7/2022 7:45:00 AM 21.21 70.17799 0.328 6.41 3.07 2.75
8/7/2022 8:00:00 AM 21.22 70.196 0.328 6.43 2.05 2.86
8/7/2022 8:15:00 AM 21.25 70.25 0.328 6.42 2.43 2.9
8/7/2022 8:30:00 AM 21.27 70.286 0.328 6.42 2.5 2.96
8/7/2022 8:45:00 AM 21.29 70.32201 0.328 6.43 1.6 2.84
8/7/2022 9:00:00 AM 21.3 70.34 0.328 6.42 2.31 2.91
8/7/2022 9:15:00 AM 21.34 70.412 0.328 6.43 1.2 2.97
8/7/2022 9:30:00 AM 21.36 70.448 0.328 6.44 1.07 3.16
8/7/2022 9:45:00 AM 21.39 70.502 0.328 6.44 1.08 3.17
8/7/2022 10:00:00 AM 21.51 70.718 0.328 6.44 1.93 3.3
8/7/2022 10:15:00 AM 21.61 70.898 0.328 6.45 1.9 3.51
8/7/2022 10:30:00 AM 21.69 71.042 0.327 6.46 1.02 3.75
8/7/2022 10:45:00 AM 21.73 71.114 0.327 6.47 1.02 3.82
8/7/2022 11:00:00 AM 21.77 71.186 0.327 6.47 1.81 3.85
8/7/2022 11:15:00 AM 21.79 71.222 0.326 6.48 1.17 3.98
8/7/2022 11:30:00 AM 21.81 71.258 0.326 6.48 1.02 4.03
8/7/2022 11:45:00 AM 21.86 71.348 0.326 6.48 6.45 4.33
8/7/2022 12:00:00 PM 21.95 71.51 0.326 6.49 1.3 4.32
8/7/2022 12:15:00 PM 22.17 71.906 0.326 6.51 2.51 4.51
8/7/2022 12:30:00 PM 22.64 72.752 0.325 6.51 8.93 4.9
8/7/2022 12:45:00 PM 23.02 73.436 0.325 6.54 9.02 5.22
8/7/2022 1:00:00 PM 23 73.4 0.325 6.54 9.77 5.14
8/7/2022 1:15:00 PM 23.34 74.012 0.326 6.55 6.47 5.4
8/7/2022 1:30:00 PM 23.63 74.534 0.327 6.55 5.71 5.49
8/7/2022 1:45:00 PM 23.7 74.66 0.326 6.55 4.65 5.7
8/7/2022 2:00:00 PM 23.72 74.696 0.326 6.56 4.65 5.75
8/7/2022 2:15:00 PM 23.73 74.714 0.327 6.57 5.89 5.77
8/7/2022 2:30:00 PM 23.8 74.84 0.327 6.57 5.68 5.76
8/7/2022 2:45:00 PM 23.95 75.11 0.327 6.57 6.68 5.88
8/7/2022 3:00:00 PM 23.97 75.146 0.326 6.58 6.48 5.95
8/7/2022 3:15:00 PM 24.01 75.218 0.326 6.57 5.97 5.92
8/7/2022 3:30:00 PM 24.13 75.434 0.327 6.58 6.23 6
8/7/2022 3:45:00 PM 24.1 75.38 0.327 6.58 6.43 6.01
8/7/2022 4:00:00 PM 24.2 75.56 0.327 6.58 7.14 6.19
8/7/2022 4:15:00 PM 24.27 75.686 0.328 6.58 6.1 6.17
8/7/2022 4:30:00 PM 24.29 75.722 0.328 6.58 6.14 6.25
8/7/2022 4:45:00 PM 24.23 75.614 0.328 6.58 4.51 6.16
8/7/2022 5:00:00 PM 24.15 75.47 0.328 6.58 5.01 6.16
8/7/2022 5:15:00 PM 24.12 75.416 0.328 6.58 8.64 6.16
8/7/2022 5:30:00 PM 24.17 75.506 0.328 6.56 4.76 6.21
8/7/2022 5:45:00 PM 24.11 75.398 0.328 6.58 5.09 6.17
8/7/2022 6:00:00 PM 24.1 75.38 0.328 6.58 4.05 6.14
8/7/2022 6:15:00 PM 23.99 75.182 0.328 6.57 3.94 6.15
8/7/2022 6:30:00 PM 23.86 74.948 0.328 6.58 4.02 6.09
8/7/2022 6:45:00 PM 23.74 74.732 0.328 6.57 3.43 6
8/7/2022 7:00:00 PM 23.58 74.444 0.328 6.57 3.22 5.93
8/7/2022 7:15:00 PM 23.44 74.192 0.332 6.53 3.29 5.85
8/7/2022 7:30:00 PM 23.39 74.102 0.329 6.55 3.6 5.65
8/7/2022 7:45:00 PM 23.33 73.994 0.33 6.55 4.4 5.63
8/7/2022 8:00:00 PM 23.27 73.886 0.331 6.54 4.12 5.59
8/7/2022 8:15:00 PM 23.16 73.688 0.331 6.53 2.59 5.47
8/7/2022 8:30:00 PM 23.03 73.454 0.332 6.52 2.52 5.31
8/7/2022 8:45:00 PM 22.92 73.256 0.333 6.5 4.39 5.11
8/7/2022 9:00:00 PM 22.86 73.148 0.333 6.49 3.85 4.96
8/7/2022 9:15:00 PM 22.77 72.986 0.333 6.49 2.18 4.87
8/7/2022 9:30:00 PM 22.68 72.824 0.333 6.48 3.31 4.73
8/7/2022 9:45:00 PM 22.61 72.698 0.333 6.47 4.3 4.58
8/7/2022 10:00:00 PM 22.55 72.59 0.334 6.47 2.17 4.52
8/7/2022 10:15:00 PM 22.48 72.464 0.333 6.47 2.17 4.41
8/7/2022 10:30:00 PM 22.4 72.32 0.333 6.47 2.39 4.32
8/7/2022 10:45:00 PM 22.32 72.176 0.333 6.46 2.49 4.21
8/7/2022 11:00:00 PM 22.26 72.068 0.333 6.45 3.48 4.1
8/7/2022 11:15:00 PM 22.19 71.942 0.332 6.45 2.43 3.96
8/7/2022 11:30:00 PM 22.13 71.834 0.332 6.45 2.47 3.82
8/7/2022 11:45:00 PM 22.06 71.708 0.333 6.43 3.95 3.77
8/8/2022 12:00:00 AM 21.99 71.582 0.333 6.44 3.32 3.73
8/8/2022 12:15:00 AM 21.93 71.474 0.333 6.43 2.2 3.68
8/8/2022 12:30:00 AM 21.88 71.384 0.333 6.43 3.02 3.61
8/8/2022 12:45:00 AM 21.82 71.276 0.333 6.43 1.86 3.48
8/8/2022 1:00:00 AM 21.77 71.186 0.333 6.42 2.91 3.52
8/8/2022 1:15:00 AM 21.74 71.132 0.332 6.42 2.54 3.5
8/8/2022 1:30:00 AM 21.68 71.024 0.332 6.42 2.65 3.43
8/8/2022 1:45:00 AM 21.63 70.934 0.332 6.42 2.85 3.39
8/8/2022 2:00:00 AM 21.58 70.844 0.331 6.43 1.98 3.31
8/8/2022 2:15:00 AM 21.55 70.79 0.331 6.42 2.71 3.31
8/8/2022 2:30:00 AM 21.51 70.718 0.331 6.41 1.38 3.23
8/8/2022 2:45:00 AM 21.47 70.646 0.331 6.42 2.1 3.23
8/8/2022 3:00:00 AM 21.44 70.592 0.331 6.42 2.48 3.19
8/8/2022 3:15:00 AM 21.39 70.502 0.33 6.43 1.26 3.19
8/8/2022 3:30:00 AM 21.35 70.43 0.331 6.43 2.41 3.16
8/8/2022 3:45:00 AM 21.34 70.412 0.33 6.41 2.25 3.1
8/8/2022 4:00:00 AM 21.3 70.34 0.33 6.43 1.08 3.1
8/8/2022 4:15:00 AM 21.27 70.286 0.33 6.41 1.02 3.06
8/8/2022 4:30:00 AM 21.24 70.232 0.33 6.42 2.14 3.02
8/8/2022 4:45:00 AM 21.22 70.196 0.33 6.42 2.06 3.08
8/8/2022 5:00:00 AM 21.19 70.142 0.33 6.42 1.89 3.09
8/8/2022 5:15:00 AM 21.17 70.106 0.33 6.42 1.32 3.05
8/8/2022 5:30:00 AM 21.15 70.07 0.33 6.42 2.04 3.03
8/8/2022 5:45:00 AM 21.13 70.034 0.33 6.43 1.26 2.99
8/8/2022 6:00:00 AM 21.11 69.998 0.33 6.43 1.25 3.05
8/8/2022 6:15:00 AM 21.09 69.962 0.33 6.43 1.45 3.03
8/8/2022 6:30:00 AM 21.08 69.944 0.33 6.42 1.58 3
8/8/2022 6:45:00 AM 21.06 69.908 0.33 6.43 1.22 2.96
8/8/2022 7:00:00 AM 21.05 69.89 0.331 6.41 3.36 2.96
8/8/2022 7:15:00 AM 21.05 69.89 0.33 6.43 2.24 2.98
8/8/2022 7:30:00 AM 21.04 69.872 0.331 6.43 1.62 2.97
8/8/2022 7:45:00 AM 21.05 69.89 0.331 6.43 2.72 2.92
8/8/2022 8:00:00 AM 21.05 69.89 0.331 6.43 3.07 2.93
8/8/2022 8:15:00 AM 21.07 69.926 0.331 6.42 1.49 2.95
8/8/2022 8:30:00 AM 21.08 69.944 0.331 6.44 1.3 2.99
8/8/2022 8:45:00 AM 21.11 69.998 0.331 6.42 2.19 3.03
8/8/2022 9:00:00 AM 21.16 70.088 0.331 6.44 1.07 3.15
8/8/2022 9:15:00 AM 21.22 70.196 0.331 6.43 1.95 3.18
8/8/2022 9:30:00 AM 21.27 70.286 0.331 6.45 1.03 3.2
8/8/2022 9:45:00 AM 21.29 70.32201 0.331 6.45 1.34 3.19
8/8/2022 10:00:00 AM 21.46 70.628 0.331 6.44 1.91 3.5
8/8/2022 10:15:00 AM 21.5 70.7 0.331 6.45 1.86 3.57
8/8/2022 10:30:00 AM 21.6 70.88 0.331 6.46 1.12 3.63
8/8/2022 10:45:00 AM 21.76 71.168 0.331 6.47 0.89 3.63
8/8/2022 11:00:00 AM 21.88 71.384 0.331 6.46 1.86 3.77
8/8/2022 11:15:00 AM 22.12 71.816 0.33 6.49 0.83 3.96
8/8/2022 11:30:00 AM 22.19 71.942 0.33 6.5 1.01 4.12
8/8/2022 11:45:00 AM 22.4 72.32 0.33 6.51 0.98 4.24
8/8/2022 12:00:00 PM 22.7 72.86 0.33 6.52 0.97 4.37
8/8/2022 12:15:00 PM 23.45 74.21 0.329 6.55 1.81 5.22
8/8/2022 12:30:00 PM 23.32 73.976 0.329 6.55 1.71 5.04
8/8/2022 12:45:00 PM 23.81 74.858 0.328 6.58 0.85 5.4
8/8/2022 1:00:00 PM 23.53 74.354 0.328 6.53 0.99 5.2
8/8/2022 1:15:00 PM 23.69 74.642 0.328 6.57 0.92 5.22
8/8/2022 1:30:00 PM 23.82 74.876 0.328 6.57 0.87 5.38
8/8/2022 1:45:00 PM 24.16 75.488 0.327 6.59 0.86 5.69
8/8/2022 2:00:00 PM 24.14 75.452 0.326 6.57 1.85 5.75
8/8/2022 2:15:00 PM 24.26 75.668 0.327 6.6 0.93 5.73
8/8/2022 2:30:00 PM 24.45 76.01 0.327 6.57 0.79 5.77
8/8/2022 2:45:00 PM 24.39 75.902 0.327 6.6 0.75 5.93
8/8/2022 3:00:00 PM 24.45 76.01 0.327 6.6 0.85 6
8/8/2022 3:15:00 PM 24.5 76.1 0.327 6.6 1.05 6.01
8/8/2022 3:30:00 PM 24.7 76.46 0.327 6.61 0.85 5.98
8/8/2022 3:45:00 PM 24.63 76.334 0.328 6.6 0.96 6.05
8/8/2022 4:00:00 PM 24.56 76.208 0.329 6.6 0.84 6.01
8/8/2022 4:15:00 PM 24.44 75.992 0.329 6.6 0.88 5.97
8/8/2022 4:30:00 PM 24.41 75.938 0.329 6.59 1.25 5.92
8/8/2022 4:45:00 PM 24.24 75.632 0.33 6.57 1.86 5.73
8/8/2022 5:00:00 PM 24.14 75.452 0.33 6.58 1.98 5.88
8/8/2022 5:15:00 PM 24.07 75.326 0.33 6.57 1.88 5.79
8/8/2022 5:30:00 PM 23.94 75.092 0.33 6.5 1.86 5.71
8/8/2022 5:45:00 PM 23.86 74.948 0.331 6.56 1.98 5.66
8/8/2022 6:00:00 PM 23.79 74.82201 0.331 6.56 0.97 5.63
8/8/2022 6:15:00 PM 23.69 74.642 0.332 6.55 1.01 5.56
8/8/2022 6:30:00 PM 23.58 74.444 0.334 6.54 0.98 5.46
8/8/2022 6:45:00 PM 23.5 74.3 0.334 6.53 0.98 5.42
8/8/2022 7:00:00 PM 23.4 74.12 0.335 6.52 1.57 5.28
8/8/2022 7:15:00 PM 23.31 73.958 0.336 6.51 1.82 5.24
8/8/2022 7:30:00 PM 23.22 73.796 0.335 6.51 1.84 5.2
8/8/2022 7:45:00 PM 23.16 73.688 0.334 6.51 0.9 5.17
8/8/2022 8:00:00 PM 23.07 73.526 0.334 6.5 2.05 5.1
8/8/2022 8:15:00 PM 23 73.4 0.333 6.5 1.07 5.02
8/8/2022 8:30:00 PM 22.93 73.274 0.333 6.49 0.99 4.85
8/8/2022 8:45:00 PM 22.85 73.13 0.332 6.49 1.12 4.85
8/8/2022 9:00:00 PM 22.77 72.986 0.332 6.49 2.31 4.74
8/8/2022 9:15:00 PM 22.69 72.842 0.332 6.49 1.34 4.64
8/8/2022 9:30:00 PM 22.63 72.734 0.332 6.49 2.26 4.56
8/8/2022 9:45:00 PM 22.55 72.59 0.332 6.48 1.7 4.5
8/8/2022 10:00:00 PM 22.49 72.482 0.332 6.47 1.15 4.38
8/8/2022 10:15:00 PM 22.42 72.356 0.332 6.46 0.94 4.28
8/8/2022 10:30:00 PM 22.38 72.284 0.332 6.46 2.27 4.16
8/8/2022 10:45:00 PM 22.29 72.122 0.332 6.45 1.45 4.1
8/8/2022 11:00:00 PM 22.26 72.068 0.332 6.45 1.13 3.97
8/8/2022 11:15:00 PM 22.18 71.924 0.333 6.44 2.15 3.92
8/8/2022 11:30:00 PM 22.12 71.816 0.332 6.45 1.06 3.89
8/8/2022 11:45:00 PM 22.09 71.762 0.333 6.44 1.09 3.8
8/9/2022 12:00:00 AM 22.02 71.636 0.333 6.44 1.3 3.7
8/9/2022 12:15:00 AM 21.99 71.582 0.334 6.43 2.15 3.67
8/9/2022 12:30:00 AM 21.96 71.528 0.333 6.43 1.27 3.63
8/9/2022 12:45:00 AM 21.91 71.438 0.334 6.43 1.08 3.52
8/9/2022 1:00:00 AM 21.84 71.312 0.334 6.42 1.95 3.48
8/9/2022 1:15:00 AM 21.83 71.294 0.334 6.42 1.03 3.4
8/9/2022 1:30:00 AM 21.78 71.204 0.334 6.43 1.48 3.41
8/9/2022 1:45:00 AM 21.77 71.186 0.334 6.43 1.29 3.37
8/9/2022 2:00:00 AM 21.74 71.132 0.333 6.42 1.46 3.29
8/9/2022 2:15:00 AM 21.72 71.096 0.333 6.42 2.1 3.25
8/9/2022 2:30:00 AM 21.68 71.024 0.333 6.41 2.19 3.21
8/9/2022 2:45:00 AM 21.67 71.006 0.332 6.43 1.06 3.24
8/9/2022 3:00:00 AM 21.65 70.97 0.332 6.42 2 3.22
8/9/2022 3:15:00 AM 21.62 70.916 0.332 6.43 1.08 3.1
8/9/2022 3:30:00 AM 21.59 70.862 0.331 6.43 1.05 3.13
8/9/2022 3:45:00 AM 21.57 70.826 0.331 6.43 0.95 3.12
8/9/2022 4:00:00 AM 21.55 70.79 0.331 6.43 1.07 3.06
8/9/2022 4:15:00 AM 21.53 70.754 0.331 6.43 0.95 3.05
8/9/2022 4:30:00 AM 21.51 70.718 0.331 6.42 1.04 3.02
8/9/2022 4:45:00 AM 21.5 70.7 0.331 6.42 0.92 2.97
8/9/2022 5:00:00 AM 21.49 70.682 0.331 6.42 1.83 2.97
8/9/2022 5:15:00 AM 21.47 70.646 0.33 6.43 1.08 2.99
8/9/2022 5:30:00 AM 21.46 70.628 0.331 6.43 1.02 2.93
8/9/2022 5:45:00 AM 21.45 70.61 0.331 6.42 1.34 2.88
8/9/2022 6:00:00 AM 21.44 70.592 0.331 6.42 1.01 2.84
8/9/2022 6:15:00 AM 21.43 70.574 0.331 6.42 2.06 2.84
8/9/2022 6:30:00 AM 21.4 70.52 0.331 6.42 1.77 2.81
8/9/2022 6:45:00 AM 21.4 70.52 0.331 6.42 1.21 2.8
8/9/2022 7:00:00 AM 21.38 70.484 0.331 6.42 1.52 2.81
8/9/2022 7:15:00 AM 21.38 70.484 0.332 6.42 1.69 2.76
8/9/2022 7:30:00 AM 21.38 70.484 0.332 6.42 2.38 2.7
8/9/2022 7:45:00 AM 21.38 70.484 0.332 6.42 1.85 2.71
8/9/2022 8:00:00 AM 21.39 70.502 0.332 6.42 2.62 2.65
8/9/2022 8:15:00 AM 21.4 70.52 0.332 6.41 2.64 2.64
8/9/2022 8:30:00 AM 21.41 70.538 0.332 6.42 1.64 2.61
8/9/2022 8:45:00 AM 21.43 70.574 0.332 6.42 1.59 2.61
8/9/2022 9:00:00 AM 21.49 70.682 0.331 6.42 1.42 2.73
8/9/2022 9:15:00 AM 21.53 70.754 0.331 6.43 1.16 2.9
8/9/2022 9:30:00 AM 21.63 70.934 0.331 6.44 1.23 3.03
8/9/2022 9:45:00 AM 21.72 71.096 0.332 6.46 1.86 3.58
8/9/2022 10:00:00 AM 21.72 71.096 0.331 6.49 1.88 3.93
8/9/2022 10:15:00 AM 21.62 70.916 0.326 6.51 1.91 4.19
8/9/2022 10:30:00 AM 21.6 70.88 0.328 6.5 1.8 4.01
8/9/2022 10:45:00 AM 21.61 70.898 0.327 6.5 1 3.99
8/9/2022 11:00:00 AM 21.63 70.934 0.327 6.5 0.95 4.09
8/9/2022 11:15:00 AM 21.68 71.024 0.327 6.5 2.17 4.08
8/9/2022 11:30:00 AM 21.71 71.078 0.327 6.49 1.83 4.04
8/9/2022 11:45:00 AM 21.77 71.186 0.327 6.5 0.92 4.15
8/9/2022 12:00:00 PM 21.86 71.348 0.328 6.5 0.89 4.39
8/9/2022 12:15:00 PM 21.97 71.546 0.328 6.51 0.93 4.44
8/9/2022 12:30:00 PM 22.03 71.654 0.328 6.5 1.79 4.65
8/9/2022 12:45:00 PM 22.01 71.618 0.328 6.51 0.9 4.51
8/9/2022 1:00:00 PM 22.07 71.726 0.328 6.51 0.84 4.55
8/9/2022 1:15:00 PM 22.15 71.87 0.328 6.52 0.84 4.87
8/9/2022 1:30:00 PM 22.29 72.122 0.329 6.52 1.63 4.91
8/9/2022 1:45:00 PM 22.38 72.284 0.33 6.53 1.85 5.08
8/9/2022 2:00:00 PM 22.68 72.824 0.329 6.53 1 5.22
8/9/2022 2:15:00 PM 22.96 73.328 0.33 6.53 0.94 5.31
8/9/2022 2:30:00 PM 23.01 73.418 0.33 6.54 0.89 5.42
8/9/2022 2:45:00 PM 23.09 73.562 0.33 6.54 0.9 5.46
8/9/2022 3:00:00 PM 23.18 73.724 0.329 6.55 0.9 5.51
8/9/2022 3:15:00 PM 23.19 73.742 0.329 6.55 1.03 5.55
8/9/2022 3:30:00 PM 23.22 73.796 0.329 6.54 2.31 5.74
8/9/2022 3:45:00 PM 23.22 73.796 0.329 6.55 2.03 5.7
8/9/2022 4:00:00 PM 23.21 73.778 0.33 6.55 1.96 5.66
8/9/2022 4:15:00 PM 23.15 73.67 0.331 6.54 2 5.61
8/9/2022 4:30:00 PM 23.15 73.67 0.331 6.54 1.8 5.62
8/9/2022 4:45:00 PM 23.17 73.706 0.331 6.54 1.09 5.62
8/9/2022 5:00:00 PM 23.17 73.706 0.331 6.54 2.11 5.68
8/9/2022 5:15:00 PM 23.18 73.724 0.332 6.55 1.07 5.72
8/9/2022 5:30:00 PM 23.18 73.724 0.332 6.56 1.14 5.66
8/9/2022 5:45:00 PM 23.25 73.85 0.332 6.56 0.89 5.69
8/9/2022 6:00:00 PM 23.18 73.724 0.331 6.55 1.09 5.68
8/9/2022 6:15:00 PM 23.12 73.616 0.331 6.55 1.15 5.64
8/9/2022 6:30:00 PM 23.06 73.508 0.331 6.55 1.27 5.58
8/9/2022 6:45:00 PM 22.96 73.328 0.331 6.54 1.56 5.53
8/9/2022 7:00:00 PM 22.88 73.184 0.332 6.54 1.61 5.5
8/9/2022 7:15:00 PM 22.76 72.968 0.333 6.53 1.6 5.35
8/9/2022 7:30:00 PM 22.69 72.842 0.334 6.52 1.54 5.18
8/9/2022 7:45:00 PM 22.56 72.608 0.334 6.52 1.15 5.17
8/9/2022 8:00:00 PM 22.51 72.518 0.334 6.51 1.12 5.09
8/9/2022 8:15:00 PM 22.45 72.41 0.334 6.51 1.1 5.05
8/9/2022 8:30:00 PM 22.4 72.32 0.334 6.5 2.19 5.04
8/9/2022 8:45:00 PM 22.31 72.158 0.334 6.5 1.39 4.94
8/9/2022 9:00:00 PM 22.25 72.05 0.334 6.49 1.89 4.82
8/9/2022 9:15:00 PM 22.16 71.888 0.334 6.49 2.1 4.71
8/9/2022 9:30:00 PM 22.09 71.762 0.334 6.49 1.94 4.66
8/9/2022 9:45:00 PM 22.01 71.618 0.334 6.46 2.73 4.59
8/9/2022 10:00:00 PM 21.93 71.474 0.334 6.48 2.37 4.56
8/9/2022 10:15:00 PM 21.87 71.366 0.335 6.48 1.7 4.43
8/9/2022 10:30:00 PM 21.79 71.222 0.335 6.46 2.72 4.36
8/9/2022 10:45:00 PM 21.72 71.096 0.335 6.46 2.79 4.25
8/9/2022 11:00:00 PM 21.67 71.006 0.335 6.46 2.08 4.24
8/9/2022 11:15:00 PM 21.61 70.898 0.336 6.46 1.57 4.14
8/9/2022 11:30:00 PM 21.54 70.772 0.336 6.45 2.34 4.05
8/9/2022 11:45:00 PM 21.48 70.664 0.336 6.45 1.31 4.01
8/10/2022 12:00:00 AM 21.43 70.574 0.336 6.44 2.17 3.88
8/10/2022 12:15:00 AM 21.37 70.466 0.336 6.44 1.15 3.85
8/10/2022 12:30:00 AM 21.32 70.376 0.336 6.43 2.24 3.75
8/10/2022 12:45:00 AM 21.28 70.304 0.336 6.44 1.18 3.69
8/10/2022 1:00:00 AM 21.22 70.196 0.336 6.44 2.24 3.62
8/10/2022 1:15:00 AM 21.16 70.088 0.336 6.43 1.5 3.56
8/10/2022 1:30:00 AM 21.09 69.962 0.336 6.44 1.71 3.51
8/10/2022 1:45:00 AM 21.04 69.872 0.336 6.43 2.05 3.46
8/10/2022 2:00:00 AM 20.99 69.782 0.335 6.43 2.6 3.46
8/10/2022 2:15:00 AM 20.93 69.674 0.335 6.44 2.15 3.49
8/10/2022 2:30:00 AM 20.88 69.584 0.334 6.44 2.19 3.53
8/10/2022 2:45:00 AM 20.82 69.476 0.334 6.4 1.21 3.58
8/10/2022 3:00:00 AM 20.78 69.404 0.334 6.4 2.06 3.52
8/10/2022 3:15:00 AM 20.75 69.35 0.334 6.42 1.12 3.44
8/10/2022 3:30:00 AM 20.71 69.278 0.334 6.43 1.11 3.47
8/10/2022 3:45:00 AM 20.68 69.224 0.334 6.43 1.02 3.44
8/10/2022 4:00:00 AM 20.64 69.152 0.334 6.43 2.08 3.44
8/10/2022 4:15:00 AM 20.6 69.08 0.334 6.42 1.99 3.44
8/10/2022 4:30:00 AM 20.57 69.026 0.334 6.43 1.89 3.45
8/10/2022 4:45:00 AM 20.56 69.008 0.334 6.42 1.01 3.37
8/10/2022 5:00:00 AM 20.53 68.954 0.334 6.43 1.99 3.34
8/10/2022 5:15:00 AM 20.48 68.864 0.334 6.44 1.03 3.3
8/10/2022 5:30:00 AM 20.47 68.846 0.334 6.44 1.09 3.26
8/10/2022 5:45:00 AM 20.44 68.792 0.335 6.45 1.05 3.32
8/10/2022 6:00:00 AM 20.4 68.72 0.335 6.45 1.04 3.32
8/10/2022 6:15:00 AM 20.39 68.702 0.335 6.45 1.31 3.22
8/10/2022 6:30:00 AM 20.38 68.684 0.336 6.45 1.02 3.32
8/10/2022 6:45:00 AM 20.37 68.666 0.336 6.46 1.8 3.35
8/10/2022 7:00:00 AM 20.36 68.648 0.336 6.45 1.79 3.42
8/10/2022 7:15:00 AM 20.35 68.63 0.336 6.46 0.93 3.41
8/10/2022 7:30:00 AM 20.36 68.648 0.336 6.46 0.91 3.43
8/10/2022 7:45:00 AM 20.35 68.63 0.336 6.45 1.75 3.45
8/10/2022 8:00:00 AM 20.36 68.648 0.335 6.47 0.83 3.51
8/10/2022 8:15:00 AM 20.37 68.666 0.335 6.46 1.69 3.55
8/10/2022 8:30:00 AM 20.39 68.702 0.335 6.48 0.86 3.61
8/10/2022 8:45:00 AM 20.44 68.792 0.334 6.48 0.85 3.67
8/10/2022 9:00:00 AM 20.5 68.9 0.334 6.48 1.12 3.75
8/10/2022 9:15:00 AM 20.57 69.026 0.334 6.48 0.97 3.88
8/10/2022 9:30:00 AM 20.6 69.08 0.334 6.49 1.98 3.97
8/10/2022 9:45:00 AM 20.64 69.152 0.334 6.49 1.02 3.99
8/10/2022 10:00:00 AM 20.7 69.26 0.334 6.5 1.08 4.19
8/10/2022 10:15:00 AM 20.74 69.332 0.334 6.5 1.84 4.45
8/10/2022 10:30:00 AM 20.83 69.494 0.333 6.51 0.95 4.47
8/10/2022 10:45:00 AM 20.89 69.602 0.334 6.51 1.75 4.74
8/10/2022 11:00:00 AM 20.97 69.746 0.333 6.53 0.9 4.79
8/10/2022 11:15:00 AM 21.04 69.872 0.333 6.52 1.78 4.92
8/10/2022 11:30:00 AM 21.13 70.034 0.333 6.52 1.76 5.04
8/10/2022 11:45:00 AM 21.24 70.232 0.332 6.54 0.87 5.06
8/10/2022 12:00:00 PM 21.31 70.358 0.333 6.55 0.84 5.35
8/10/2022 12:15:00 PM 21.35 70.43 0.333 6.56 0.82 5.44
8/10/2022 12:30:00 PM 21.48 70.664 0.332 6.53 1.66 5.49
8/10/2022 12:45:00 PM 21.73 71.114 0.331 6.59 0.84 5.98
8/10/2022 1:00:00 PM 21.75 71.15 0.332 6.57 1 5.86
8/10/2022 1:15:00 PM 21.81 71.258 0.332 6.58 0.87 5.93
8/10/2022 1:30:00 PM 21.97 71.546 0.332 6.58 0.81 6.05
8/10/2022 1:45:00 PM 22.09 71.762 0.332 6.58 0.88 6.16
8/10/2022 2:00:00 PM 22.12 71.816 0.332 6.59 1.74 6.16
8/10/2022 2:15:00 PM 22.23 72.014 0.331 6.59 0.88 6.19
8/10/2022 2:30:00 PM 22.22 71.996 0.331 6.59 1.08 6.35
8/10/2022 2:45:00 PM 22.34 72.212 0.331 6.6 1.09 6.42
8/10/2022 3:00:00 PM 22.43 72.374 0.331 6.61 1.05 6.5
8/10/2022 3:15:00 PM 22.65 72.77 0.33 6.6 1.81 6.47
8/10/2022 3:30:00 PM 22.74 72.932 0.33 6.58 1.04 6.33
8/10/2022 3:45:00 PM 22.75 72.95 0.33 6.59 2.16 6.43
8/10/2022 4:00:00 PM 22.98 73.364 0.331 6.57 1.87 6.16
8/10/2022 4:15:00 PM 23.07 73.526 0.331 6.56 1.7 6.03
8/10/2022 4:30:00 PM 23.17 73.706 0.331 6.57 1.93 6.11
8/10/2022 4:45:00 PM 23.17 73.706 0.332 6.57 1.9 5.95
8/10/2022 5:00:00 PM 23.2 73.76 0.331 6.58 1.05 6.09
8/10/2022 5:15:00 PM 23.23 73.814 0.332 6.59 1.03 6.2
8/10/2022 5:30:00 PM 23.19 73.742 0.332 6.57 1.96 6.06
8/10/2022 5:45:00 PM 23.16 73.688 0.332 6.58 1.31 5.88
8/10/2022 6:00:00 PM 23.09 73.562 0.332 6.58 1.1 6.07
8/10/2022 6:15:00 PM 22.93 73.274 0.334 6.56 3.07 5.99
8/10/2022 6:30:00 PM 22.67 72.806 0.335 6.55 2.12 5.71
8/10/2022 6:45:00 PM 22.87 73.166 0.334 6.56 3.39 5.89
8/10/2022 7:00:00 PM 22.75 72.95 0.335 6.55 2.61 5.64
8/10/2022 7:15:00 PM 22.66 72.788 0.335 6.53 2.17 5.52
8/10/2022 7:30:00 PM 22.58 72.644 0.334 6.54 2.61 5.47
8/10/2022 7:45:00 PM 22.53 72.554 0.334 6.54 1.79 5.39
8/10/2022 8:00:00 PM 22.45 72.41 0.334 6.53 1.93 5.32
8/10/2022 8:15:00 PM 22.4 72.32 0.334 6.53 1.8 5.18
8/10/2022 8:30:00 PM 22.35 72.23 0.334 6.53 1.62 5.21
8/10/2022 8:45:00 PM 22.29 72.122 0.334 6.52 2.41 5.13
8/10/2022 9:00:00 PM 22.21 71.978 0.334 6.52 1.84 5.02
8/10/2022 9:15:00 PM 22.14 71.852 0.334 6.51 1.69 4.94
8/10/2022 9:30:00 PM 22.07 71.726 0.334 6.51 1.31 4.91
8/10/2022 9:45:00 PM 22 71.6 0.334 6.51 1.4 4.89
8/10/2022 10:00:00 PM 21.9 71.42 0.335 6.48 2.39 4.77
8/10/2022 10:15:00 PM 21.83 71.294 0.335 6.5 1.26 4.69
8/10/2022 10:30:00 PM 21.73 71.114 0.335 6.49 1.39 4.6
8/10/2022 10:45:00 PM 21.67 71.006 0.335 6.48 1.34 4.5
8/10/2022 11:00:00 PM 21.58 70.844 0.335 6.48 1.35 4.45
8/10/2022 11:15:00 PM 21.49 70.682 0.336 6.46 2.38 4.35
8/10/2022 11:30:00 PM 21.43 70.574 0.336 6.47 1.47 4.25
8/10/2022 11:45:00 PM 21.36 70.448 0.336 6.47 1.77 4.18
8/11/2022 12:00:00 AM 21.29 70.32201 0.336 6.46 1.29 4.08
8/11/2022 12:15:00 AM 21.22 70.196 0.336 6.46 3.22 3.97
8/11/2022 12:30:00 AM 21.13 70.034 0.336 6.46 1.89 4.01
8/11/2022 12:45:00 AM 21.04 69.872 0.336 6.45 9.21 3.93
8/11/2022 1:00:00 AM 21 69.8 0.336 6.45 1.41 3.81
8/11/2022 1:15:00 AM 20.93 69.674 0.336 6.43 2.15 3.76
8/11/2022 1:30:00 AM 20.85 69.53 0.336 6.44 1.26 3.75
8/11/2022 1:45:00 AM 20.79 69.422 0.336 6.44 2.03 3.75
8/11/2022 2:00:00 AM 20.72 69.296 0.336 6.44 1.11 3.69
8/11/2022 2:15:00 AM 20.65 69.17 0.336 6.43 1.88 3.68
8/11/2022 2:30:00 AM 20.6 69.08 0.336 6.44 1.34 3.66
8/11/2022 2:45:00 AM 20.53 68.954 0.335 6.45 1.3 3.64
8/11/2022 3:00:00 AM 20.47 68.846 0.335 6.45 1.21 3.63
8/11/2022 3:15:00 AM 20.41 68.738 0.335 6.44 5.04 3.71
8/11/2022 3:30:00 AM 20.36 68.648 0.335 6.46 1.03 3.71
8/11/2022 3:45:00 AM 20.31 68.558 0.335 6.45 2.08 3.71
8/11/2022 4:00:00 AM 20.26 68.468 0.335 6.43 2.27 3.67
8/11/2022 4:15:00 AM 20.21 68.378 0.336 6.44 2.04 3.65
8/11/2022 4:30:00 AM 20.16 68.288 0.336 6.37 1.95 3.67
8/11/2022 4:45:00 AM 20.1 68.18 0.335 6.46 1.02 3.67
8/11/2022 5:00:00 AM 20.07 68.126 0.336 6.45 1.14 3.62
8/11/2022 5:15:00 AM 20.03 68.054 0.336 6.46 1.19 3.55
8/11/2022 5:30:00 AM 19.99 67.982 0.336 6.46 1.02 3.54
8/11/2022 5:45:00 AM 19.95 67.91 0.336 6.45 2.13 3.57
8/11/2022 6:00:00 AM 19.89 67.802 0.337 6.45 2.18 3.53
8/11/2022 6:15:00 AM 19.88 67.784 0.337 6.45 1.34 3.58
8/11/2022 6:30:00 AM 19.83 67.694 0.337 6.45 2.27 3.59
8/11/2022 6:45:00 AM 19.8 67.64 0.337 6.45 1.67 3.61
8/11/2022 7:00:00 AM 19.76 67.568 0.337 6.45 2.31 3.67
8/11/2022 7:15:00 AM 19.75 67.55 0.337 6.46 1.76 3.69
8/11/2022 7:30:00 AM 19.73 67.514 0.337 6.46 1.3 3.7
8/11/2022 7:45:00 AM 19.72 67.496 0.337 6.47 1.17 3.72
8/11/2022 8:00:00 AM 19.72 67.496 0.337 6.47 1.11 3.81
8/11/2022 8:15:00 AM 19.72 67.496 0.336 6.48 1.09 3.89
8/11/2022 8:30:00 AM 19.74 67.532 0.336 6.49 2.09 4.04
8/11/2022 8:45:00 AM 19.78 67.604 0.335 6.5 2.21 4.18
8/11/2022 9:00:00 AM 19.82 67.676 0.335 6.5 1.22 4.26
8/11/2022 9:15:00 AM 19.86 67.748 0.335 6.51 1.14 4.27
8/11/2022 9:30:00 AM 19.92 67.856 0.334 6.51 1.13 4.28
8/11/2022 9:45:00 AM 19.99 67.982 0.333 6.51 1.06 4.28
8/11/2022 10:00:00 AM 20.07 68.126 0.332 6.5 1.08 4.28
8/11/2022 10:15:00 AM 20.13 68.234 0.333 6.51 1.39 4.27
8/11/2022 10:30:00 AM 20.27 68.486 0.333 6.51 1.01 4.25
8/11/2022 10:45:00 AM 20.45 68.81 0.334 6.51 2.07 4.35
8/11/2022 11:00:00 AM 20.78 69.404 0.335 6.5 2.03 4.38
8/11/2022 11:15:00 AM 21.13 70.034 0.335 6.52 1.43 4.52
8/11/2022 11:30:00 AM 21.37 70.466 0.335 6.52 1.94 4.6
8/11/2022 11:45:00 AM 21.6 70.88 0.334 6.55 0.85 4.81
8/11/2022 12:00:00 PM 21.96 71.528 0.335 6.55 0.95 5
8/11/2022 12:15:00 PM 22.11 71.798 0.336 6.55 1.44 5.02
8/11/2022 12:30:00 PM 22.54 72.57201 0.336 6.58 0.81 5.27
8/11/2022 12:45:00 PM 22.44 72.392 0.334 6.56 1.12 5.07
8/11/2022 1:00:00 PM 22.32 72.176 0.335 6.56 0.96 5.01
8/11/2022 1:15:00 PM 22.36 72.248 0.334 6.56 0.99 5.07
8/11/2022 1:30:00 PM 22.48 72.464 0.335 6.56 1.08 5.22
8/11/2022 1:45:00 PM 22.58 72.644 0.334 6.53 0.97 5.12
8/11/2022 2:00:00 PM 22.67 72.806 0.334 6.54 2.29 5.18
8/11/2022 2:15:00 PM 22.87 73.166 0.334 6.55 2.29 5.23
8/11/2022 2:30:00 PM 23.09 73.562 0.333 6.56 0.98 5.3
8/11/2022 2:45:00 PM 23.22 73.796 0.332 6.57 0.91 5.53
8/11/2022 3:00:00 PM 23.29 73.922 0.332 6.56 2.02 5.57
8/11/2022 3:15:00 PM 23.32 73.976 0.332 6.57 0.94 5.51
8/11/2022 3:30:00 PM 23.53 74.354 0.332 6.57 0.93 5.57
8/11/2022 3:45:00 PM 23.63 74.534 0.332 6.59 1.02 5.72
8/11/2022 4:00:00 PM 23.67 74.606 0.332 6.58 1.76 5.79
8/11/2022 4:15:00 PM 23.73 74.714 0.332 6.58 0.88 5.62
8/11/2022 4:30:00 PM 23.86 74.948 0.332 6.58 1.04 5.7
8/11/2022 4:45:00 PM 23.87 74.966 0.333 6.6 1 5.66
8/11/2022 5:00:00 PM 23.92 75.056 0.332 6.61 1.54 5.89
8/11/2022 5:15:00 PM 23.88 74.984 0.332 6.61 1.8 5.93
8/11/2022 5:30:00 PM 23.72 74.696 0.333 6.6 1.9 5.69
8/11/2022 5:45:00 PM 23.65 74.57 0.333 6.59 0.96 5.72
8/11/2022 6:00:00 PM 23.56 74.408 0.334 6.58 2.12 5.71
8/11/2022 6:15:00 PM 23.44 74.192 0.334 6.58 2.41 5.62
8/11/2022 6:30:00 PM 23.33 73.994 0.334 6.57 2.35 5.59
8/11/2022 6:45:00 PM 23.19 73.742 0.333 6.58 2.08 5.57
8/11/2022 7:00:00 PM 23.04 73.472 0.333 6.56 2.36 5.45
8/11/2022 7:15:00 PM 22.97 73.346 0.333 6.57 1.4 5.39
8/11/2022 7:30:00 PM 22.89 73.202 0.333 6.55 2.2 5.3
8/11/2022 7:45:00 PM 22.78 73.004 0.333 6.54 2.78 5.2
8/11/2022 8:00:00 PM 22.71 72.878 0.334 6.55 2.64 5.11
8/11/2022 8:15:00 PM 22.63 72.734 0.334 6.54 2.64 5.03
8/11/2022 8:30:00 PM 22.5 72.5 0.335 6.53 3.11 4.97
8/11/2022 8:45:00 PM 22.4 72.32 0.335 6.53 2.61 4.96
8/11/2022 9:00:00 PM 22.3 72.14 0.336 6.53 2.6 4.89
8/11/2022 9:15:00 PM 22.2 71.96 0.336 6.53 2.81 4.84
8/11/2022 9:30:00 PM 22.08 71.744 0.336 6.52 3.84 4.79
8/11/2022 9:45:00 PM 21.97 71.546 0.336 6.52 2.89 4.75
8/11/2022 10:00:00 PM 21.87 71.366 0.336 6.51 2.62 4.67
8/11/2022 10:15:00 PM 21.76 71.168 0.337 6.51 2.19 4.62
8/11/2022 10:30:00 PM 21.65 70.97 0.337 6.5 2.04 4.56
8/11/2022 10:45:00 PM 21.54 70.772 0.337 6.5 2.6 4.47
8/11/2022 11:00:00 PM 21.47 70.646 0.337 6.5 1.57 4.39
8/11/2022 11:15:00 PM 21.36 70.448 0.337 6.49 2.31 4.34
8/11/2022 11:30:00 PM 21.27 70.286 0.337 6.49 2.46 4.31
8/11/2022 11:45:00 PM 21.17 70.106 0.337 6.48 2.63 4.23
8/12/2022 12:00:00 AM 21.08 69.944 0.337 6.48 2.57 4.17
8/12/2022 12:15:00 AM 21 69.8 0.337 6.48 2.92 4.09
8/12/2022 12:30:00 AM 20.92 69.656 0.337 6.48 4.31 4.03
8/12/2022 12:45:00 AM 20.83 69.494 0.338 6.46 2.46 3.97
8/12/2022 1:00:00 AM 20.75 69.35 0.338 6.47 4.16 3.96
8/12/2022 1:15:00 AM 20.67 69.206 0.338 6.47 4.12 3.83
8/12/2022 1:30:00 AM 20.58 69.044 0.338 6.45 2.79 3.81
8/12/2022 1:45:00 AM 20.51 68.918 0.338 6.45 4.35 3.82
8/12/2022 2:00:00 AM 20.45 68.81 0.337 6.44 4.38 3.77
8/12/2022 2:15:00 AM 20.37 68.666 0.337 6.44 4.24 3.81
8/12/2022 2:30:00 AM 20.3 68.54 0.337 6.44 2.64 3.85
8/12/2022 2:45:00 AM 20.23 68.414 0.336 6.45 4.18 3.89
8/12/2022 3:00:00 AM 20.17 68.306 0.336 6.43 2.27 3.82
8/12/2022 3:15:00 AM 20.11 68.198 0.336 6.44 4.22 3.84
8/12/2022 3:30:00 AM 20.05 68.09 0.336 6.45 3.08 3.85
8/12/2022 3:45:00 AM 19.98 67.964 0.336 6.44 3.16 3.85
8/12/2022 4:00:00 AM 19.93 67.874 0.336 6.45 4.67 3.79
8/12/2022 4:15:00 AM 19.86 67.748 0.336 6.45 2.71 3.8
8/12/2022 4:30:00 AM 19.79 67.622 0.336 6.45 4.63 3.78
8/12/2022 4:45:00 AM 19.74 67.532 0.337 6.45 2.49 3.78
8/12/2022 5:00:00 AM 19.69 67.442 0.337 6.45 2.88 3.78
8/12/2022 5:15:00 AM 19.68 67.424 0.336 6.46 4.77 3.76
8/12/2022 5:30:00 AM 19.63 67.334 0.337 6.45 2.66 3.75
8/12/2022 5:45:00 AM 19.58 67.244 0.337 6.46 4.65 3.74
8/12/2022 6:00:00 AM 19.54 67.172 0.337 6.47 4.88 3.75
8/12/2022 6:15:00 AM 19.48 67.064 0.337 6.47 4.61 3.79
8/12/2022 6:30:00 AM 19.44 66.992 0.338 6.47 2.77 3.85
8/12/2022 6:45:00 AM 19.41 66.938 0.338 6.47 2.82 3.87
8/12/2022 7:00:00 AM 19.38 66.884 0.337 6.48 5.43 3.85
8/12/2022 7:15:00 AM 19.37 66.866 0.337 6.47 2.79 3.95
8/12/2022 7:30:00 AM 19.35 66.83 0.335 6.49 2.8 3.98
8/12/2022 7:45:00 AM 19.34 66.812 0.335 6.49 3.41 4.04
8/12/2022 8:00:00 AM 19.35 66.83 0.335 6.5 4.78 4.11
8/12/2022 8:15:00 AM 19.36 66.848 0.335 6.51 4.47 4.15
8/12/2022 8:30:00 AM 19.37 66.866 0.334 6.51 4.47 4.17
8/12/2022 8:45:00 AM 19.4 66.92 0.334 6.51 2.96 4.24
8/12/2022 9:00:00 AM 19.44 66.992 0.333 6.52 4.79 4.3
8/12/2022 9:15:00 AM 19.5 67.1 0.332 6.52 2.18 4.34
8/12/2022 9:30:00 AM 19.54 67.172 0.331 6.51 2.68 4.37
8/12/2022 9:45:00 AM 19.59 67.262 0.331 6.51 2.49 4.38
8/12/2022 10:00:00 AM 19.65 67.37 0.33 6.53 4.21 4.38
8/12/2022 10:15:00 AM 19.69 67.442 0.331 6.53 4.3 4.51
8/12/2022 10:30:00 AM 19.89 67.802 0.331 6.54 4.3 4.6
8/12/2022 10:45:00 AM 20.09 68.162 0.333 6.54 4.87 4.61
8/12/2022 11:00:00 AM 20.44 68.792 0.336 6.55 3.25 4.9
8/12/2022 11:15:00 AM 20.68 69.224 0.336 6.56 3.28 5.06
8/12/2022 11:30:00 AM 20.89 69.602 0.337 6.58 4.55 5.15
8/12/2022 11:45:00 AM 21.05 69.89 0.337 6.58 4.21 5.07
8/12/2022 12:00:00 PM 21.48 70.664 0.338 6.59 4.37 5.25
8/12/2022 12:15:00 PM 21.61 70.898 0.34 6.59 4.27 5.3
8/12/2022 12:30:00 PM 21.9 71.42 0.341 6.6 4.43 5.46
8/12/2022 12:45:00 PM 22.14 71.852 0.342 6.59 3.86 5.52
8/12/2022 1:00:00 PM 22.17 71.906 0.343 6.59 4.53 5.48
8/12/2022 1:15:00 PM 22.3 72.14 0.343 6.58 4.3 5.43
8/12/2022 1:30:00 PM 22.51 72.518 0.344 6.57 2.29 5.64
8/12/2022 1:45:00 PM 22.72 72.896 0.344 6.59 2.53 5.76
8/12/2022 2:00:00 PM 22.85 73.13 0.34 6.58 4.49 5.66
8/12/2022 2:15:00 PM 22.85 73.13 0.34 6.58 3.29 5.62
8/12/2022 2:30:00 PM 23.12 73.616 0.337 6.59 4.74 5.77
8/12/2022 2:45:00 PM 23.19 73.742 0.335 6.59 2.44 5.86
8/12/2022 3:00:00 PM 23.27 73.886 0.336 6.61 4.74 5.93
8/12/2022 3:15:00 PM 23.25 73.85 0.334 6.6 5.06 5.96
8/12/2022 3:30:00 PM 23.38 74.084 0.334 6.6 2.51 6.01
8/12/2022 3:45:00 PM 23.48 74.264 0.332 6.62 4.81 6.12
8/12/2022 4:00:00 PM 23.54 74.372 0.334 6.62 5.23 6.3
8/12/2022 4:15:00 PM 23.57 74.426 0.332 6.63 5.18 6.22
8/12/2022 4:30:00 PM 23.55 74.39 0.332 6.62 2.7 6.22
8/12/2022 4:45:00 PM 23.55 74.39 0.332 6.65 4.89 6.29
8/12/2022 5:00:00 PM 23.52 74.336 0.332 6.67 4.31 6.39
8/12/2022 5:15:00 PM 23.23 73.814 0.333 6.64 3.42 6.25
8/12/2022 5:30:00 PM 23.19 73.742 0.333 6.64 4.78 6.14
8/12/2022 5:45:00 PM 23.29 73.922 0.332 6.65 2.83 6.31
8/12/2022 6:00:00 PM 23.19 73.742 0.333 6.64 4.57 6.2
8/12/2022 6:15:00 PM 23.13 73.634 0.334 6.63 3.24 6.13
8/12/2022 6:30:00 PM 23 73.4 0.334 6.63 2.57 6.05
8/12/2022 6:45:00 PM 22.82 73.076 0.333 6.62 2.06 6.01
8/12/2022 7:00:00 PM 22.66 72.788 0.334 6.61 2.48 5.89
8/12/2022 7:15:00 PM 22.52 72.536 0.334 6.62 2.49 5.94
8/12/2022 7:30:00 PM 22.42 72.356 0.334 6.62 2.57 5.94
8/12/2022 7:45:00 PM 22.31 72.158 0.334 6.6 3.31 5.7
8/12/2022 8:00:00 PM 22.2 71.96 0.334 6.58 4.14 5.49
8/12/2022 8:15:00 PM 22.06 71.708 0.335 6.57 4.12 5.29
8/12/2022 8:30:00 PM 21.96 71.528 0.335 6.57 4.59 5.2
8/12/2022 8:45:00 PM 21.86 71.348 0.335 6.56 4.55 5.16
8/12/2022 9:00:00 PM 21.75 71.15 0.335 6.54 6.16 5.06
8/12/2022 9:15:00 PM 21.64 70.952 0.335 6.55 4.98 5.01
8/12/2022 9:30:00 PM 21.52 70.736 0.336 6.54 3.82 4.98
8/12/2022 9:45:00 PM 21.42 70.556 0.336 6.53 3.98 4.96
8/12/2022 10:00:00 PM 21.3 70.34 0.337 6.52 3.46 4.83
8/12/2022 10:15:00 PM 21.19 70.142 0.338 6.51 3.22 4.7
8/12/2022 10:30:00 PM 21.09 69.962 0.338 6.52 2.58 4.61
8/12/2022 10:45:00 PM 20.97 69.746 0.338 6.49 3.23 4.55
8/12/2022 11:00:00 PM 20.86 69.548 0.338 6.5 4.15 4.59
8/12/2022 11:15:00 PM 20.75 69.35 0.338 6.52 3.98 4.64
8/12/2022 11:30:00 PM 20.64 69.152 0.338 6.51 3.62 4.62
8/12/2022 11:45:00 PM 20.55 68.99 0.338 6.51 3.14 4.58
8/13/2022 12:00:00 AM 20.43 68.774 0.338 6.49 2.9 4.57
8/13/2022 12:15:00 AM 20.32 68.576 0.337 6.5 2.93 4.56
8/13/2022 12:30:00 AM 20.23 68.414 0.338 6.49 3.23 4.5
8/13/2022 12:45:00 AM 20.13 68.234 0.337 6.49 3.15 4.49
8/13/2022 1:00:00 AM 20.05 68.09 0.336 6.5 3.18 4.47
8/13/2022 1:15:00 AM 19.95 67.91 0.336 6.48 3.3 4.47
8/13/2022 1:30:00 AM 19.87 67.766 0.335 6.49 3.04 4.45
8/13/2022 1:45:00 AM 19.79 67.622 0.335 6.48 3.11 4.45
8/13/2022 2:00:00 AM 19.7 67.46 0.334 6.48 2.58 4.44
8/13/2022 2:15:00 AM 19.62 67.316 0.333 6.48 3.1 4.43
8/13/2022 2:30:00 AM 19.53 67.154 0.333 6.47 2.26 4.42
8/13/2022 2:45:00 AM 19.44 66.992 0.333 6.48 2.23 4.45
8/13/2022 3:00:00 AM 19.37 66.866 0.333 6.47 2.33 4.4
8/13/2022 3:15:00 AM 19.31 66.758 0.333 6.48 2 4.34
8/13/2022 3:30:00 AM 19.25 66.65 0.334 6.48 2.01 4.32
8/13/2022 3:45:00 AM 19.18 66.524 0.334 6.48 2.18 4.33
8/13/2022 4:00:00 AM 19.11 66.398 0.334 6.48 2.2 4.36
8/13/2022 4:15:00 AM 19.03 66.254 0.334 6.49 2.05 4.29
8/13/2022 4:30:00 AM 18.99 66.182 0.334 6.49 2.05 4.29
8/13/2022 4:45:00 AM 18.94 66.092 0.334 6.49 2.02 4.35
8/13/2022 5:00:00 AM 18.89 66.002 0.334 6.5 1.98 4.37
8/13/2022 5:15:00 AM 18.86 65.948 0.334 6.48 2.2 4.43
8/13/2022 5:30:00 AM 18.82 65.876 0.334 6.51 1.88 4.48
8/13/2022 5:45:00 AM 18.77 65.786 0.333 6.52 1.69 4.54
8/13/2022 6:00:00 AM 18.72 65.696 0.333 6.52 2.31 4.59
8/13/2022 6:15:00 AM 18.67 65.606 0.333 6.52 2.62 4.58
8/13/2022 6:30:00 AM 18.63 65.534 0.332 6.51 2.06 4.57
8/13/2022 6:45:00 AM 18.6 65.48 0.332 6.53 1.99 4.57
8/13/2022 7:00:00 AM 18.56 65.408 0.332 6.52 1.75 4.56
8/13/2022 7:15:00 AM 18.52 65.336 0.332 6.51 2.28 4.58
8/13/2022 7:30:00 AM 18.51 65.318 0.332 6.53 3.42 4.59
8/13/2022 7:45:00 AM 18.5 65.3 0.333 6.53 3.48 4.6
8/13/2022 8:00:00 AM 18.48 65.264 0.333 6.54 3.65 4.63
8/13/2022 8:15:00 AM 18.49 65.282 0.333 6.54 4.03 4.67
8/13/2022 8:30:00 AM 18.52 65.336 0.333 6.55 3 4.74
8/13/2022 8:45:00 AM 18.54 65.372 0.333 6.55 2.51 4.78
8/13/2022 9:00:00 AM 18.58 65.444 0.332 6.56 2.22 4.86
8/13/2022 9:15:00 AM 18.62 65.516 0.332 6.56 2.3 4.92
8/13/2022 9:30:00 AM 18.67 65.606 0.333 6.56 1.98 4.98
8/13/2022 9:45:00 AM 18.75 65.75 0.333 6.56 2.23 4.93
8/13/2022 10:00:00 AM 18.78 65.804 0.334 6.56 2.29 4.9
8/13/2022 10:15:00 AM 18.95 66.11 0.336 6.55 1.76 4.81
8/13/2022 10:30:00 AM 19.13 66.434 0.337 6.55 1.83 4.88
8/13/2022 10:45:00 AM 19.41 66.938 0.338 6.55 1.66 4.86
8/13/2022 11:00:00 AM 19.85 67.73 0.339 6.55 1.67 5.02
8/13/2022 11:15:00 AM 20.02 68.036 0.34 6.56 1.94 5.06
8/13/2022 11:30:00 AM 20.59 69.062 0.338 6.51 2.06 5.57
8/13/2022 11:45:00 AM 20.66 69.188 0.34 6.59 1.74 5.43
8/13/2022 12:00:00 PM 20.78 69.404 0.339 6.6 1.98 5.55
8/13/2022 12:15:00 PM 21.14 70.052 0.34 6.62 1.84 5.71
8/13/2022 12:30:00 PM 21.39 70.502 0.339 6.6 1.16 5.78
8/13/2022 12:45:00 PM 21.48 70.664 0.339 6.58 2.46 5.48
8/13/2022 1:00:00 PM 21.78 71.204 0.34 6.57 2.88 5.42
8/13/2022 1:15:00 PM 22 71.6 0.34 6.59 2.4 5.72
8/13/2022 1:30:00 PM 22.03 71.654 0.337 6.59 4.58 5.73
8/13/2022 1:45:00 PM 22.22 71.996 0.338 6.59 3.98 5.67
8/13/2022 2:00:00 PM 22.34 72.212 0.336 6.59 4.07 5.83
8/13/2022 2:15:00 PM 22.48 72.464 0.333 6.6 4.24 5.76
8/13/2022 2:30:00 PM 22.67 72.806 0.333 6.59 3.92 5.95
8/13/2022 2:45:00 PM 22.72 72.896 0.333 6.61 3.61 6.06
8/13/2022 3:00:00 PM 22.79 73.022 0.333 6.61 3.04 6.04
8/13/2022 3:15:00 PM 22.86 73.148 0.334 6.61 2.66 5.99
8/13/2022 3:30:00 PM 22.87 73.166 0.334 6.61 2.52 6.05
8/13/2022 3:45:00 PM 23.07 73.526 0.334 6.61 2.87 5.9
8/13/2022 4:00:00 PM 23.27 73.886 0.333 6.61 2.31 5.98
8/13/2022 4:15:00 PM 23.32 73.976 0.333 6.61 2.05 5.99
8/13/2022 4:30:00 PM 23.33 73.994 0.333 6.61 2.2 5.96
8/13/2022 4:45:00 PM 23.37 74.066 0.333 6.62 2.06 6.12
8/13/2022 5:00:00 PM 23.38 74.084 0.334 6.64 1.88 6.22
8/13/2022 5:15:00 PM 23.42 74.156 0.334 6.66 1.94 6.3
8/13/2022 5:30:00 PM 23.4 74.12 0.334 6.65 2.36 6.3
8/13/2022 5:45:00 PM 23.31 73.958 0.334 6.64 2.11 6.16
8/13/2022 6:00:00 PM 23.17 73.706 0.334 6.61 4.94 5.94
8/13/2022 6:15:00 PM 23.08 73.544 0.334 6.62 2.76 6.11
8/13/2022 6:30:00 PM 22.9 73.22 0.334 6.62 2.32 6.06
8/13/2022 6:45:00 PM 22.73 72.914 0.334 6.62 1.72 5.97
8/13/2022 7:00:00 PM 22.6 72.68 0.334 6.61 1.72 5.81
8/13/2022 7:15:00 PM 22.49 72.482 0.334 6.6 3.43 5.68
8/13/2022 7:30:00 PM 22.41 72.338 0.334 6.59 4.82 5.55
8/13/2022 7:45:00 PM 22.28 72.104 0.334 6.57 5.11 5.51
8/13/2022 8:00:00 PM 22.16 71.888 0.335 6.58 4.83 5.42
8/13/2022 8:15:00 PM 22.06 71.708 0.335 6.56 7.43 5.28
8/13/2022 8:30:00 PM 21.96 71.528 0.335 6.57 5.13 5.25
8/13/2022 8:45:00 PM 21.86 71.348 0.335 6.56 5.33 5.13
8/13/2022 9:00:00 PM 21.75 71.15 0.335 6.57 4.85 5.15
8/13/2022 9:15:00 PM 21.58 70.844 0.335 6.56 3.29 5.09
8/13/2022 9:30:00 PM 21.48 70.664 0.336 6.55 3.38 5.04
8/13/2022 9:45:00 PM 21.36 70.448 0.336 6.55 2.69 5.01
8/13/2022 10:00:00 PM 21.26 70.268 0.336 6.55 3.19 4.96
8/13/2022 10:15:00 PM 21.15 70.07 0.336 6.54 2.52 4.91
8/13/2022 10:30:00 PM 21.03 69.854 0.337 6.54 2.47 4.82
8/13/2022 10:45:00 PM 20.92 69.656 0.337 6.54 2.48 4.82
8/13/2022 11:00:00 PM 20.82 69.476 0.336 6.53 3.96 4.78
8/13/2022 11:15:00 PM 20.71 69.278 0.337 6.53 2.71 4.74
8/13/2022 11:30:00 PM 20.61 69.098 0.336 6.53 1.77 4.71
8/13/2022 11:45:00 PM 20.52 68.936 0.337 6.52 1.68 4.63
8/14/2022 12:00:00 AM 20.41 68.738 0.337 6.52 2.42 4.6
8/14/2022 12:15:00 AM 20.32 68.576 0.338 6.52 1.57 4.54
8/14/2022 12:30:00 AM 20.22 68.396 0.339 6.51 2.41 4.46
8/14/2022 12:45:00 AM 20.13 68.234 0.339 6.51 1.54 4.36
8/14/2022 1:00:00 AM 20.05 68.09 0.339 6.5 3.6 4.32
8/14/2022 1:15:00 AM 19.96 67.92799 0.339 6.48 1.42 4.28
8/14/2022 1:30:00 AM 19.88 67.784 0.339 6.49 1.35 4.23
8/14/2022 1:45:00 AM 19.79 67.622 0.339 6.49 2.54 4.24
8/14/2022 2:00:00 AM 19.71 67.478 0.338 6.5 1.62 4.3
8/14/2022 2:15:00 AM 19.65 67.37 0.338 6.5 2.21 4.31
8/14/2022 2:30:00 AM 19.56 67.208 0.337 6.5 2.49 4.35
8/14/2022 2:45:00 AM 19.48 67.064 0.337 6.49 3.14 4.36
8/14/2022 3:00:00 AM 19.41 66.938 0.337 6.48 2.61 4.36
8/14/2022 3:15:00 AM 19.34 66.812 0.337 6.49 2.21 4.37
8/14/2022 3:30:00 AM 19.27 66.686 0.336 6.48 3.05 4.34
8/14/2022 3:45:00 AM 19.21 66.578 0.336 6.49 2.85 4.33
8/14/2022 4:00:00 AM 19.15 66.47 0.336 6.49 1.91 4.34
8/14/2022 4:15:00 AM 19.09 66.362 0.336 6.49 2.14 4.3
8/14/2022 4:30:00 AM 19.02 66.236 0.336 6.49 1.58 4.31
8/14/2022 4:45:00 AM 18.98 66.164 0.336 6.49 2.52 4.3
8/14/2022 5:00:00 AM 18.92 66.056 0.336 6.5 1.46 4.31
8/14/2022 5:15:00 AM 18.88 65.984 0.335 6.5 2.2 4.4
8/14/2022 5:30:00 AM 18.84 65.912 0.335 6.51 2.3 4.5
8/14/2022 5:45:00 AM 18.81 65.858 0.335 6.52 1.5 4.52
8/14/2022 6:00:00 AM 18.76 65.768 0.335 6.52 1.23 4.55
8/14/2022 6:15:00 AM 18.71 65.67799 0.335 6.52 1.36 4.56
8/14/2022 6:30:00 AM 18.68 65.624 0.335 6.5 1.36 4.53
8/14/2022 6:45:00 AM 18.64 65.552 0.334 6.52 2.38 4.54
8/14/2022 7:00:00 AM 18.61 65.498 0.334 6.53 1.71 4.52
8/14/2022 7:15:00 AM 18.57 65.426 0.334 6.52 2.61 4.51
8/14/2022 7:30:00 AM 18.55 65.39 0.334 6.52 1.94 4.52
8/14/2022 7:45:00 AM 18.54 65.372 0.334 6.54 2.12 4.53
8/14/2022 8:00:00 AM 18.53 65.354 0.334 6.54 2.25 4.55
8/14/2022 8:15:00 AM 18.54 65.372 0.334 6.55 1.89 4.69
8/14/2022 8:30:00 AM 18.56 65.408 0.334 6.56 1.53 4.74
8/14/2022 8:45:00 AM 18.58 65.444 0.334 6.56 1.49 4.8
8/14/2022 9:00:00 AM 18.64 65.552 0.333 6.57 1.3 4.87
8/14/2022 9:15:00 AM 18.69 65.642 0.333 6.56 2.45 4.84
8/14/2022 9:30:00 AM 18.72 65.696 0.333 6.57 2.49 4.9
8/14/2022 9:45:00 AM 18.78 65.804 0.332 6.57 2.02 4.91
8/14/2022 10:00:00 AM 18.85 65.93 0.332 6.58 1.17 4.96
8/14/2022 10:15:00 AM 18.99 66.182 0.332 6.58 1.09 4.96
8/14/2022 10:30:00 AM 19.18 66.524 0.333 6.57 1.97 4.98
8/14/2022 10:45:00 AM 19.37 66.866 0.333 6.57 1.05 4.89
8/14/2022 11:00:00 AM 19.71 67.478 0.334 6.57 1.23 4.87
8/14/2022 11:15:00 AM 20.22 68.396 0.336 6.57 1.74 5.15
8/14/2022 11:30:00 AM 20.47 68.846 0.336 6.58 0.89 5.22
8/14/2022 11:45:00 AM 20.59 69.062 0.337 6.58 0.97 5.19
8/14/2022 12:00:00 PM 20.77 69.386 0.336 6.61 1.16 5.24
8/14/2022 12:15:00 PM 21.14 70.052 0.337 6.61 0.89 5.28
8/14/2022 12:30:00 PM 21.11 69.998 0.337 6.6 1.75 5.35
8/14/2022 12:45:00 PM 21.33 70.394 0.337 6.58 1.76 5.29
8/14/2022 1:00:00 PM 21.54 70.772 0.337 6.6 1.23 5.59
8/14/2022 1:15:00 PM 21.53 70.754 0.338 6.59 1.47 5.56
8/14/2022 1:30:00 PM 21.58 70.844 0.338 6.58 2.24 5.48
8/14/2022 1:45:00 PM 21.62 70.916 0.337 6.59 1.88 5.49
8/14/2022 2:00:00 PM 21.64 70.952 0.337 6.58 2.46 5.49
8/14/2022 2:15:00 PM 21.66 70.988 0.337 6.58 1.67 5.45
8/14/2022 2:30:00 PM 21.76 71.168 0.337 6.58 2.34 5.56
8/14/2022 2:45:00 PM 21.82 71.276 0.337 6.56 1.96 5.56
8/14/2022 3:00:00 PM 21.86 71.348 0.336 6.56 2.74 5.49
8/14/2022 3:15:00 PM 21.86 71.348 0.337 6.58 2.63 5.66
8/14/2022 3:30:00 PM 21.98 71.564 0.336 6.58 2.02 5.72
8/14/2022 3:45:00 PM 21.8 71.24 0.336 6.59 2.54 5.81
8/14/2022 4:00:00 PM 22.12 71.816 0.336 6.61 1.5 5.98
8/14/2022 4:15:00 PM 22.14 71.852 0.334 6.61 1.48 5.93
8/14/2022 4:30:00 PM 22.16 71.888 0.334 6.61 1.35 5.9
8/14/2022 4:45:00 PM 22.1 71.78 0.334 6.61 1.79 5.92
8/14/2022 5:00:00 PM 22.23 72.014 0.334 6.62 1.82 6
8/14/2022 5:15:00 PM 22.12 71.816 0.334 6.6 2.35 5.96
8/14/2022 5:30:00 PM 22.13 71.834 0.334 6.61 1.35 5.91
8/14/2022 5:45:00 PM 22.14 71.852 0.333 6.6 1.23 5.91
8/14/2022 6:00:00 PM 22.17 71.906 0.334 6.61 1.23 5.85
8/14/2022 6:15:00 PM 22.11 71.798 0.334 6.61 1.31 5.91
8/14/2022 6:30:00 PM 22.06 71.708 0.334 6.61 1.25 5.81
8/14/2022 6:45:00 PM 21.99 71.582 0.334 6.6 1.24 5.88
8/14/2022 7:00:00 PM 21.92 71.456 0.334 6.59 1.1 5.88
8/14/2022 7:15:00 PM 21.86 71.348 0.334 6.58 1.64 5.75
8/14/2022 7:30:00 PM 21.8 71.24 0.335 6.57 7.42 5.6
8/14/2022 7:45:00 PM 21.71 71.078 0.335 6.56 2.44 5.52
8/14/2022 8:00:00 PM 21.64 70.952 0.335 6.55 2.79 5.48
8/14/2022 8:15:00 PM 21.59 70.862 0.335 6.55 4.95 5.42
8/14/2022 8:30:00 PM 21.52 70.736 0.335 6.55 1.34 5.27
8/14/2022 8:45:00 PM 21.45 70.61 0.335 6.54 2.24 5.19
8/14/2022 9:00:00 PM 21.37 70.466 0.335 6.54 1.39 5.01
8/14/2022 9:15:00 PM 21.32 70.376 0.335 6.53 1.37 4.97
8/14/2022 9:30:00 PM 21.25 70.25 0.335 6.52 1.55 4.82
8/14/2022 9:45:00 PM 21.18 70.124 0.336 6.52 1.71 4.72
8/14/2022 10:00:00 PM 21.12 70.016 0.336 6.51 2.04 4.69
8/14/2022 10:15:00 PM 21.05 69.89 0.336 6.52 1.53 4.63
8/14/2022 10:30:00 PM 21 69.8 0.336 6.52 1.75 4.58
8/14/2022 10:45:00 PM 20.93 69.674 0.336 6.51 1.61 4.53
8/14/2022 11:00:00 PM 20.87 69.566 0.336 6.5 2.22 4.49
8/14/2022 11:15:00 PM 20.8 69.44 0.336 6.5 1.24 4.43
8/14/2022 11:30:00 PM 20.74 69.332 0.337 6.49 2.27 4.36
8/14/2022 11:45:00 PM 20.68 69.224 0.337 6.5 1.26 4.32
8/15/2022 12:00:00 AM 20.62 69.116 0.336 6.5 1.3 4.28
8/15/2022 12:15:00 AM 20.56 69.008 0.337 6.5 1.35 4.28
8/15/2022 12:30:00 AM 20.47 68.846 0.336 6.48 1.21 4.18
8/15/2022 12:45:00 AM 20.42 68.756 0.337 6.48 2.25 4.16
8/15/2022 1:00:00 AM 20.38 68.684 0.336 6.46 1.29 4.08
8/15/2022 1:15:00 AM 20.31 68.558 0.336 6.49 1.27 4.06
8/15/2022 1:30:00 AM 20.25 68.45 0.336 6.49 1.18 4.12
8/15/2022 1:45:00 AM 20.19 68.342 0.336 6.48 2.09 4.1
8/15/2022 2:00:00 AM 20.13 68.234 0.336 6.48 2.1 4.11
8/15/2022 2:15:00 AM 20.09 68.162 0.337 6.48 2.09 4.02
8/15/2022 2:30:00 AM 20.04 68.07201 0.336 6.48 1.49 4
8/15/2022 2:45:00 AM 20 68 0.337 6.48 1.19 3.93
8/15/2022 3:00:00 AM 19.96 67.92799 0.337 6.49 1.27 3.9
8/15/2022 3:15:00 AM 19.91 67.838 0.337 6.49 1.15 3.87
8/15/2022 3:30:00 AM 19.87 67.766 0.337 6.49 1.81 3.86
8/15/2022 3:45:00 AM 19.82 67.676 0.338 6.48 4.03 3.75
8/15/2022 4:00:00 AM 19.78 67.604 0.338 6.48 3.42 3.7
8/15/2022 4:15:00 AM 19.73 67.514 0.338 6.48 4.21 3.65
8/15/2022 4:30:00 AM 19.69 67.442 0.338 6.48 6 3.55
8/15/2022 4:45:00 AM 19.65 67.37 0.338 6.47 3.45 3.52
8/15/2022 5:00:00 AM 19.61 67.298 0.338 6.46 4.12 3.54
8/15/2022 5:15:00 AM 19.56 67.208 0.338 6.48 3.35 3.57
8/15/2022 5:30:00 AM 19.53 67.154 0.338 6.46 3.27 3.6
8/15/2022 5:45:00 AM 19.49 67.082 0.339 6.48 1.38 3.59
8/15/2022 6:00:00 AM 19.47 67.046 0.339 6.47 2.17 3.63
8/15/2022 6:15:00 AM 19.44 66.992 0.339 6.46 1.21 3.66
8/15/2022 6:30:00 AM 19.41 66.938 0.339 6.48 2.39 3.71
8/15/2022 6:45:00 AM 19.39 66.902 0.339 6.49 1.54 3.63
8/15/2022 7:00:00 AM 19.37 66.866 0.339 6.49 1.6 3.69
8/15/2022 7:15:00 AM 19.34 66.812 0.339 6.49 1.51 3.72
8/15/2022 7:30:00 AM 19.32 66.776 0.339 6.48 1.51 3.77
8/15/2022 7:45:00 AM 19.3 66.74 0.339 6.5 1.72 3.79
8/15/2022 8:00:00 AM 19.3 66.74 0.339 6.5 1.59 3.82
8/15/2022 8:15:00 AM 19.3 66.74 0.339 6.51 1.46 3.92
8/15/2022 8:30:00 AM 19.32 66.776 0.339 6.51 1.3 4
8/15/2022 8:45:00 AM 19.35 66.83 0.338 6.51 1.2 4.11
8/15/2022 9:00:00 AM 19.4 66.92 0.338 6.51 2.01 4.2
8/15/2022 9:15:00 AM 19.46 67.028 0.337 6.52 1.04 4.26
8/15/2022 9:30:00 AM 19.52 67.136 0.337 6.53 1.25 4.29
8/15/2022 9:45:00 AM 19.58 67.244 0.336 6.53 1.42 4.27
8/15/2022 10:00:00 AM 19.64 67.352 0.336 6.52 0.99 4.23
8/15/2022 10:15:00 AM 19.76 67.568 0.336 6.53 0.95 4.33
8/15/2022 10:30:00 AM 19.85 67.73 0.336 6.53 2.12 4.3
8/15/2022 10:45:00 AM 20.15 68.27 0.337 6.53 0.95 4.39
8/15/2022 11:00:00 AM 20.5 68.9 0.337 6.52 1.01 4.57
8/15/2022 11:15:00 AM 20.77 69.386 0.337 6.54 1.83 4.73
8/15/2022 11:30:00 AM 20.97 69.746 0.338 6.54 1.85 4.63
8/15/2022 11:45:00 AM 21.24 70.232 0.338 6.54 1.67 4.68
8/15/2022 12:00:00 PM 21.03 69.854 0.337 6.55 0.91 4.65
8/15/2022 12:15:00 PM 20.96 69.728 0.337 6.55 0.95 4.68
8/15/2022 12:30:00 PM 20.99 69.782 0.338 6.54 1.86 4.71
8/15/2022 12:45:00 PM 20.96 69.728 0.338 6.54 1.85 4.71
8/15/2022 1:00:00 PM 21 69.8 0.337 6.55 0.91 4.81
8/15/2022 1:15:00 PM 20.88 69.584 0.337 6.54 0.95 4.82
8/15/2022 1:30:00 PM 20.94 69.692 0.338 6.55 1.06 4.84
8/15/2022 1:45:00 PM 21.01 69.818 0.338 6.55 0.94 4.92
8/15/2022 2:00:00 PM 21.05 69.89 0.338 6.54 1.83 4.97
8/15/2022 2:15:00 PM 21.02 69.836 0.337 6.54 1.87 5.04
8/15/2022 2:30:00 PM 21 69.8 0.337 6.55 0.85 5.02
8/15/2022 2:45:00 PM 21 69.8 0.337 6.54 0.9 4.9
8/15/2022 3:00:00 PM 21.01 69.818 0.337 6.55 1.07 4.92
8/15/2022 3:15:00 PM 21.01 69.818 0.337 6.54 1.76 4.92
8/15/2022 3:30:00 PM 21 69.8 0.336 6.55 0.95 4.91
8/15/2022 3:45:00 PM 21 69.8 0.336 6.56 0.89 5.09
8/15/2022 4:00:00 PM 20.96 69.728 0.336 6.56 1 5.07
8/15/2022 4:15:00 PM 20.93 69.674 0.335 6.54 1.84 5.04
8/15/2022 4:30:00 PM 20.9 69.62 0.334 6.55 1.05 5.05
8/15/2022 4:45:00 PM 20.87 69.566 0.335 6.54 1.74 5.11
8/15/2022 5:00:00 PM 20.85 69.53 0.334 6.56 1.04 5.12
8/15/2022 5:15:00 PM 20.83 69.494 0.334 6.54 1.8 5.09
8/15/2022 5:30:00 PM 20.83 69.494 0.334 6.55 0.92 5.08
8/15/2022 5:45:00 PM 20.82 69.476 0.334 6.54 1.94 5.08
8/15/2022 6:00:00 PM 20.82 69.476 0.334 6.55 1.07 5.08
8/15/2022 6:15:00 PM 20.81 69.458 0.334 6.54 0.95 5.09
8/15/2022 6:30:00 PM 20.81 69.458 0.334 6.55 0.9 5.12
8/15/2022 6:45:00 PM 20.79 69.422 0.334 6.55 1.08 5.08
8/15/2022 7:00:00 PM 20.76 69.368 0.334 6.53 1.94 5.04
8/15/2022 7:15:00 PM 20.74 69.332 0.334 6.54 1.15 5.05
8/15/2022 7:30:00 PM 20.7 69.26 0.334 6.52 2.33 4.96
8/15/2022 7:45:00 PM 20.67 69.206 0.334 6.52 1.42 5.01
8/15/2022 8:00:00 PM 20.62 69.116 0.334 6.51 1.29 4.94
8/15/2022 8:15:00 PM 20.58 69.044 0.334 6.52 1.69 4.78
8/15/2022 8:30:00 PM 20.53 68.954 0.335 6.51 2.39 4.64
8/15/2022 8:45:00 PM 20.48 68.864 0.335 6.51 1.4 4.52
8/15/2022 9:00:00 PM 20.45 68.81 0.335 6.5 2.3 4.48
8/15/2022 9:15:00 PM 20.42 68.756 0.335 6.51 1.4 4.4
8/15/2022 9:30:00 PM 20.38 68.684 0.335 6.49 1.56 4.36
8/15/2022 9:45:00 PM 20.35 68.63 0.335 6.48 1.3 4.31
8/15/2022 10:00:00 PM 20.3 68.54 0.335 6.49 2.23 4.35
8/15/2022 10:15:00 PM 20.26 68.468 0.335 6.51 1.31 4.37
8/15/2022 10:30:00 PM 20.23 68.414 0.335 6.49 2.19 4.33
8/15/2022 10:45:00 PM 20.21 68.378 0.335 6.51 1.38 4.28
8/15/2022 11:00:00 PM 20.16 68.288 0.336 6.49 1.48 4.25
8/15/2022 11:15:00 PM 20.14 68.252 0.336 6.51 1.37 4.21
8/15/2022 11:30:00 PM 20.11 68.198 0.336 6.5 1.56 4.14
8/15/2022 11:45:00 PM 20.08 68.144 0.337 6.49 1.86 4.07
8/16/2022 12:00:00 AM 20.05 68.09 0.337 6.49 1.44 4.01
8/16/2022 12:15:00 AM 20.01 68.018 0.337 6.48 2.37 3.98
8/16/2022 12:30:00 AM 19.99 67.982 0.337 6.49 1.44 3.93
8/16/2022 12:45:00 AM 19.94 67.892 0.338 6.48 2.33 3.87
8/16/2022 1:00:00 AM 19.93 67.874 0.338 6.49 1.37 3.86
8/16/2022 1:15:00 AM 19.89 67.802 0.338 6.47 1.3 3.8
8/16/2022 1:30:00 AM 19.86 67.748 0.338 6.48 1.67 3.84
8/16/2022 1:45:00 AM 19.84 67.712 0.338 6.48 2.14 3.88
8/16/2022 2:00:00 AM 19.82 67.676 0.338 6.48 1.09 3.88
8/16/2022 2:15:00 AM 19.79 67.622 0.338 6.48 1.21 3.87
8/16/2022 2:30:00 AM 19.77 67.586 0.339 6.48 1.9 3.83
8/16/2022 2:45:00 AM 19.75 67.55 0.339 6.48 1.34 3.83
8/16/2022 3:00:00 AM 19.73 67.514 0.339 6.47 1.17 3.83
8/16/2022 3:15:00 AM 19.71 67.478 0.339 6.48 1.18 3.8
8/16/2022 3:30:00 AM 19.69 67.442 0.34 6.48 1.07 3.79
8/16/2022 3:45:00 AM 19.68 67.424 0.34 6.48 0.95 3.82
8/16/2022 4:00:00 AM 19.66 67.388 0.34 6.48 0.99 3.79
8/16/2022 4:15:00 AM 19.64 67.352 0.34 6.47 1.97 3.77
8/16/2022 4:30:00 AM 19.63 67.334 0.34 6.48 1.05 3.75
8/16/2022 4:45:00 AM 19.62 67.316 0.34 6.47 2.33 3.74
8/16/2022 5:00:00 AM 19.6 67.28 0.34 6.48 1 3.74
8/16/2022 5:15:00 AM 19.59 67.262 0.34 6.48 1.01 3.73
8/16/2022 5:30:00 AM 19.57 67.226 0.34 6.48 1.05 3.7
8/16/2022 5:45:00 AM 19.56 67.208 0.34 6.46 2.11 3.7
8/16/2022 6:00:00 AM 19.56 67.208 0.34 6.48 1.6 3.67
8/16/2022 6:15:00 AM 19.54 67.172 0.34 6.48 1.44 3.66
8/16/2022 6:30:00 AM 19.53 67.154 0.34 6.48 1.77 3.66
8/16/2022 6:45:00 AM 19.52 67.136 0.34 6.48 1.46 3.64
8/16/2022 7:00:00 AM 19.51 67.118 0.34 6.47 2.35 3.65
8/16/2022 7:15:00 AM 19.51 67.118 0.339 6.47 2.08 3.65
8/16/2022 7:30:00 AM 19.5 67.1 0.339 6.48 1.46 3.67
8/16/2022 7:45:00 AM 19.51 67.118 0.339 6.48 1.26 3.65
8/16/2022 8:00:00 AM 19.52 67.136 0.34 6.47 1.98 3.66
8/16/2022 8:15:00 AM 19.55 67.19 0.339 6.48 1.04 3.69
8/16/2022 8:30:00 AM 19.59 67.262 0.339 6.47 1.85 3.74
8/16/2022 8:45:00 AM 19.65 67.37 0.338 6.48 1.91 3.81
8/16/2022 9:00:00 AM 19.72 67.496 0.338 6.5 0.95 3.94
8/16/2022 9:15:00 AM 19.82 67.676 0.338 6.5 1.84 4.09
8/16/2022 9:30:00 AM 19.94 67.892 0.337 6.49 1.88 4.15
8/16/2022 9:45:00 AM 20 68 0.337 6.51 0.99 4.25
8/16/2022 10:00:00 AM 20.07 68.126 0.337 6.52 0.93 4.41
8/16/2022 10:15:00 AM 20.2 68.36 0.336 6.53 0.87 4.62
8/16/2022 10:30:00 AM 20.28 68.504 0.337 6.52 1.65 4.64
8/16/2022 10:45:00 AM 20.45 68.81 0.336 6.54 0.95 4.73
8/16/2022 11:00:00 AM 20.61 69.098 0.337 6.54 0.88 4.78
8/16/2022 11:15:00 AM 20.67 69.206 0.337 6.52 1.77 4.75
8/16/2022 11:30:00 AM 21.03 69.854 0.337 6.54 0.87 4.83
8/16/2022 11:45:00 AM 21.16 70.088 0.337 6.54 0.8 4.87
8/16/2022 12:00:00 PM 21.57 70.826 0.338 6.55 1.26 5.1
8/16/2022 12:15:00 PM 21.42 70.556 0.338 6.56 1.01 5.09
8/16/2022 12:30:00 PM 21.87 71.366 0.339 6.54 1.67 5.55
8/16/2022 12:45:00 PM 22.06 71.708 0.339 6.57 1.6 5.65
8/16/2022 1:00:00 PM 22.06 71.708 0.338 6.56 0.87 5.58
8/16/2022 1:15:00 PM 22.42 72.356 0.338 6.58 0.74 5.76
8/16/2022 1:30:00 PM 22.34 72.212 0.338 6.56 0.83 5.81
8/16/2022 1:45:00 PM 22.11 71.798 0.338 6.57 1.92 5.81
8/16/2022 2:00:00 PM 22.1 71.78 0.336 6.57 2.64 5.73
8/16/2022 2:15:00 PM 22.15 71.87 0.334 6.59 1.8 5.76
8/16/2022 2:30:00 PM 22.11 71.798 0.334 6.6 1.93 5.88
8/16/2022 2:45:00 PM 22.05 71.69 0.333 6.6 1.31 5.85
8/16/2022 3:00:00 PM 22.01 71.618 0.332 6.6 1.52 5.88
8/16/2022 3:15:00 PM 22.01 71.618 0.331 6.59 2.02 5.85
8/16/2022 3:30:00 PM 21.97 71.546 0.332 6.58 2.21 5.82
8/16/2022 3:45:00 PM 21.93 71.474 0.332 6.59 1.27 5.76
8/16/2022 4:00:00 PM 21.91 71.438 0.334 6.58 1.39 5.69
8/16/2022 4:15:00 PM 21.85 71.33 0.335 6.57 1.41 5.64
8/16/2022 4:30:00 PM 21.85 71.33 0.335 6.55 1.62 5.64
8/16/2022 4:45:00 PM 21.87 71.366 0.334 6.57 1.23 5.65
8/16/2022 5:00:00 PM 22 71.6 0.334 6.58 1.36 5.81
8/16/2022 5:15:00 PM 22.08 71.744 0.333 6.6 0.99 5.93
8/16/2022 5:30:00 PM 22.12 71.816 0.333 6.62 1 6.01
8/16/2022 5:45:00 PM 22.16 71.888 0.333 6.6 1.89 6.01
8/16/2022 6:00:00 PM 22.1 71.78 0.333 6.6 1.12 5.92
8/16/2022 6:15:00 PM 22.04 71.672 0.332 6.58 1.07 5.78
8/16/2022 6:30:00 PM 21.95 71.51 0.332 6.58 1.31 5.87
8/16/2022 6:45:00 PM 21.87 71.366 0.332 6.57 2.15 5.72
8/16/2022 7:00:00 PM 21.79 71.222 0.331 6.56 3.54 5.66
8/16/2022 7:15:00 PM 21.72 71.096 0.332 6.55 2.94 5.62
8/16/2022 7:30:00 PM 21.66 70.988 0.332 6.56 2.99 5.65
8/16/2022 7:45:00 PM 21.59 70.862 0.332 6.56 2.37 5.58
8/16/2022 8:00:00 PM 21.52 70.736 0.334 6.54 3.08 5.43
8/16/2022 8:15:00 PM 21.45 70.61 0.334 6.53 2.99 5.3
8/16/2022 8:30:00 PM 21.34 70.412 0.336 6.53 2.03 5.1
8/16/2022 8:45:00 PM 21.25 70.25 0.337 6.51 2.94 4.99
8/16/2022 9:00:00 PM 21.16 70.088 0.338 6.52 2.25 4.9
8/16/2022 9:15:00 PM 21.07 69.926 0.338 6.52 2.85 4.82
8/16/2022 9:30:00 PM 20.98 69.764 0.339 6.45 3.78 4.71
8/16/2022 9:45:00 PM 20.9 69.62 0.34 6.49 2.91 4.65
8/16/2022 10:00:00 PM 20.82 69.476 0.34 6.44 3.27 4.54
8/16/2022 10:15:00 PM 20.74 69.332 0.341 6.49 3.11 4.5
8/16/2022 10:30:00 PM 20.68 69.224 0.341 6.49 2.16 4.46
8/16/2022 10:45:00 PM 20.61 69.098 0.342 6.48 2.99 4.39
8/16/2022 11:00:00 PM 20.55 68.99 0.342 6.49 1.66 4.38
8/16/2022 11:15:00 PM 20.49 68.882 0.342 6.48 1.56 4.33
8/16/2022 11:30:00 PM 20.43 68.774 0.343 6.48 1.4 4.29
8/16/2022 11:45:00 PM 20.38 68.684 0.343 6.48 1.57 4.23
8/17/2022 12:00:00 AM 20.33 68.594 0.343 6.47 1.37 4.21
8/17/2022 12:15:00 AM 20.27 68.486 0.343 6.47 1.26 4.12
8/17/2022 12:30:00 AM 20.2 68.36 0.342 6.47 1.47 4.08
8/17/2022 12:45:00 AM 20.14 68.252 0.341 6.45 2.14 4.05
8/17/2022 1:00:00 AM 20.09 68.162 0.34 6.47 1.36 4.01
8/17/2022 1:15:00 AM 20.03 68.054 0.34 6.47 1.61 3.93
8/17/2022 1:30:00 AM 19.98 67.964 0.34 6.46 2.44 3.89
8/17/2022 1:45:00 AM 19.93 67.874 0.34 6.46 1.61 3.8
8/17/2022 2:00:00 AM 19.86 67.748 0.34 6.44 2.34 3.71
8/17/2022 2:15:00 AM 19.82 67.676 0.339 6.46 1.46 3.69
8/17/2022 2:30:00 AM 19.77 67.586 0.339 6.46 1.3 3.64
8/17/2022 2:45:00 AM 19.73 67.514 0.339 6.45 1.35 3.6
8/17/2022 3:00:00 AM 19.68 67.424 0.339 6.45 1.4 3.59
8/17/2022 3:15:00 AM 19.64 67.352 0.339 6.45 1.31 3.58
8/17/2022 3:30:00 AM 19.6 67.28 0.339 6.45 1.42 3.55
8/17/2022 3:45:00 AM 19.56 67.208 0.339 6.46 1.34 3.55
8/17/2022 4:00:00 AM 19.49 67.082 0.339 6.46 1.2 3.57
8/17/2022 4:15:00 AM 19.48 67.064 0.34 6.47 1.22 3.75
8/17/2022 4:30:00 AM 19.47 67.046 0.34 6.47 2.06 3.83
8/17/2022 4:45:00 AM 19.44 66.992 0.341 6.46 2.16 3.84
8/17/2022 5:00:00 AM 19.42 66.956 0.341 6.46 2.27 3.86
8/17/2022 5:15:00 AM 19.41 66.938 0.341 6.46 1.4 3.85
8/17/2022 5:30:00 AM 19.38 66.884 0.341 6.45 2.03 3.87
8/17/2022 5:45:00 AM 19.35 66.83 0.341 6.47 1.21 3.88
8/17/2022 6:00:00 AM 19.33 66.794 0.341 6.47 1.39 3.89
8/17/2022 6:15:00 AM 19.3 66.74 0.342 6.48 1.92 3.91
8/17/2022 6:30:00 AM 19.29 66.722 0.342 6.48 1.28 3.96
8/17/2022 6:45:00 AM 19.27 66.686 0.342 6.47 2.17 3.98
8/17/2022 7:00:00 AM 19.26 66.668 0.342 6.47 2.15 3.98
8/17/2022 7:15:00 AM 19.25 66.65 0.342 6.49 2.12 4.01
8/17/2022 7:30:00 AM 19.24 66.632 0.341 6.49 1.2 4.01
8/17/2022 7:45:00 AM 19.24 66.632 0.341 6.49 2.05 4.06
8/17/2022 8:00:00 AM 19.25 66.65 0.341 6.5 1.1 4.08
8/17/2022 8:15:00 AM 19.26 66.668 0.341 6.5 1.91 4.1
8/17/2022 8:30:00 AM 19.29 66.722 0.34 6.5 2.03 4.17
8/17/2022 8:45:00 AM 19.33 66.794 0.34 6.5 2.18 4.22
8/17/2022 9:00:00 AM 19.38 66.884 0.34 6.51 2.63 4.28
8/17/2022 9:15:00 AM 19.44 66.992 0.339 6.51 1.99 4.39
8/17/2022 9:30:00 AM 19.5 67.1 0.339 6.52 1 4.44
8/17/2022 9:45:00 AM 19.55 67.19 0.339 6.51 1.08 4.46
8/17/2022 10:00:00 AM 19.6 67.28 0.339 6.52 1.25 4.51
8/17/2022 10:15:00 AM 19.64 67.352 0.339 6.53 1.06 4.57
8/17/2022 10:30:00 AM 19.72 67.496 0.338 6.53 1.81 4.66
8/17/2022 10:45:00 AM 19.76 67.568 0.337 6.52 1.96 4.52
8/17/2022 11:00:00 AM 19.89 67.802 0.336 6.52 1.75 4.6
8/17/2022 11:15:00 AM 19.95 67.91 0.336 6.53 1.13 4.65
8/17/2022 11:30:00 AM 20.09 68.162 0.337 6.54 1.04 4.85
8/17/2022 11:45:00 AM 20.16 68.288 0.338 6.53 1.76 5.03
8/17/2022 12:00:00 PM 20.2 68.36 0.338 6.53 1.79 5.11
8/17/2022 12:15:00 PM 20.2 68.36 0.339 6.55 0.86 5.16
8/17/2022 12:30:00 PM 20.24 68.432 0.338 6.54 1.98 5.14
8/17/2022 12:45:00 PM 20.31 68.558 0.337 6.53 1.81 5.11
8/17/2022 1:00:00 PM 20.38 68.684 0.337 6.55 0.85 5.11
8/17/2022 1:15:00 PM 20.45 68.81 0.338 6.55 0.98 5.16
8/17/2022 1:30:00 PM 20.56 69.008 0.337 6.52 1.79 5.19
8/17/2022 1:45:00 PM 20.68 69.224 0.337 6.54 0.84 5.29
8/17/2022 2:00:00 PM 20.97 69.746 0.336 6.55 0.99 5.45
8/17/2022 2:15:00 PM 21.13 70.034 0.336 6.55 1.77 5.62
8/17/2022 2:30:00 PM 21.28 70.304 0.336 6.57 0.87 5.67
8/17/2022 2:45:00 PM 21.39 70.502 0.336 6.55 0.79 5.69
8/17/2022 3:00:00 PM 21.64 70.952 0.335 6.57 0.91 5.94
8/17/2022 3:15:00 PM 21.74 71.132 0.334 6.59 0.89 5.97
8/17/2022 3:30:00 PM 21.81 71.258 0.333 6.57 1.73 5.96
8/17/2022 3:45:00 PM 21.86 71.348 0.333 6.59 1.42 5.96
8/17/2022 4:00:00 PM 21.95 71.51 0.333 6.57 1.8 6.1
8/17/2022 4:15:00 PM 21.91 71.438 0.333 6.58 1.77 6.04
8/17/2022 4:30:00 PM 21.82 71.276 0.333 6.6 0.97 6.03
8/17/2022 4:45:00 PM 21.79 71.222 0.335 6.58 0.99 5.92
8/17/2022 5:00:00 PM 21.73 71.114 0.335 6.57 0.9 5.82
8/17/2022 5:15:00 PM 21.7 71.06 0.336 6.58 1.01 5.85
8/17/2022 5:30:00 PM 21.69 71.042 0.336 6.58 1.02 5.84
8/17/2022 5:45:00 PM 21.69 71.042 0.336 6.59 0.91 5.87
8/17/2022 6:00:00 PM 21.65 70.97 0.336 6.57 0.88 5.85
8/17/2022 6:15:00 PM 21.57 70.826 0.336 6.57 1 5.72
8/17/2022 6:30:00 PM 21.51 70.718 0.336 6.58 0.99 5.78
8/17/2022 6:45:00 PM 21.43 70.574 0.336 6.56 0.99 5.65
8/17/2022 7:00:00 PM 21.35 70.43 0.335 6.56 0.92 5.51
8/17/2022 7:15:00 PM 21.28 70.304 0.335 6.56 1 5.54
8/17/2022 7:30:00 PM 21.2 70.16 0.335 6.55 1.19 5.43
8/17/2022 7:45:00 PM 21.14 70.052 0.336 6.55 1.1 5.42
8/17/2022 8:00:00 PM 21.07 69.926 0.336 6.55 1 5.32
8/17/2022 8:15:00 PM 21 69.8 0.337 6.54 3.02 5.22
8/17/2022 8:30:00 PM 20.91 69.638 0.337 6.54 1.05 5.11
8/17/2022 8:45:00 PM 20.84 69.512 0.337 6.54 1.18 5.11
8/17/2022 9:00:00 PM 20.76 69.368 0.338 6.53 2.59 5.04
8/17/2022 9:15:00 PM 20.7 69.26 0.338 6.52 2.11 4.93
8/17/2022 9:30:00 PM 20.62 69.116 0.338 6.53 1.4 4.84
8/17/2022 9:45:00 PM 20.56 69.008 0.338 6.51 2.59 4.76
8/17/2022 10:00:00 PM 20.5 68.9 0.338 6.51 1.71 4.66
8/17/2022 10:15:00 PM 20.44 68.792 0.338 6.51 1.55 4.59
8/17/2022 10:30:00 PM 20.36 68.648 0.338 6.49 2.24 4.52
8/17/2022 10:45:00 PM 20.31 68.558 0.338 6.5 1.33 4.46
8/17/2022 11:00:00 PM 20.25 68.45 0.339 6.48 1.5 4.38
8/17/2022 11:15:00 PM 20.18 68.324 0.339 6.48 2.28 4.32
8/17/2022 11:30:00 PM 20.13 68.234 0.339 6.48 1.34 4.29
8/17/2022 11:45:00 PM 20.06 68.108 0.339 6.48 1.32 4.22
8/18/2022 12:00:00 AM 20.01 68.018 0.339 6.46 2.39 4.17
8/18/2022 12:15:00 AM 19.95 67.91 0.339 6.47 2.22 4.15
8/18/2022 12:30:00 AM 19.85 67.73 0.339 6.48 1.38 4.09
8/18/2022 12:45:00 AM 19.82 67.676 0.339 6.46 2.39 4.02
8/18/2022 1:00:00 AM 19.77 67.586 0.339 6.47 1.51 3.96
8/18/2022 1:15:00 AM 19.71 67.478 0.339 6.45 2.79 4
8/18/2022 1:30:00 AM 19.65 67.37 0.339 6.47 2.93 4.01
8/18/2022 1:45:00 AM 19.64 67.352 0.339 6.46 4.32 3.78
8/18/2022 2:00:00 AM 19.61 67.298 0.339 6.47 2.74 3.94
8/18/2022 2:15:00 AM 19.6 67.28 0.34 6.46 3.04 3.91
8/18/2022 2:30:00 AM 19.57 67.226 0.34 6.45 3.18 3.82
8/18/2022 2:45:00 AM 19.54 67.172 0.34 6.46 2.8 3.78
8/18/2022 3:00:00 AM 19.49 67.082 0.34 6.44 3.2 3.75
8/18/2022 3:15:00 AM 19.46 67.028 0.34 6.45 2.74 3.73
8/18/2022 3:30:00 AM 19.45 67.01 0.34 6.47 5.25 3.76
8/18/2022 3:45:00 AM 19.41 66.938 0.341 6.45 3.47 3.74
8/18/2022 4:00:00 AM 19.39 66.902 0.341 6.47 3.05 3.71
8/18/2022 4:15:00 AM 19.35 66.83 0.341 6.46 3.45 3.75
8/18/2022 4:30:00 AM 19.34 66.812 0.341 6.47 3.31 3.73
8/18/2022 4:45:00 AM 19.3 66.74 0.341 6.47 4.74 3.79
8/18/2022 5:00:00 AM 19.27 66.686 0.341 6.48 3.72 3.81
8/18/2022 5:15:00 AM 19.24 66.632 0.341 6.47 4.24 3.82
8/18/2022 5:30:00 AM 19.23 66.614 0.341 6.48 4.68 3.82
8/18/2022 5:45:00 AM 19.18 66.524 0.341 6.48 9.4 3.85
8/18/2022 6:00:00 AM 19.14 66.452 0.342 6.47 2.35 3.83
8/18/2022 6:15:00 AM 19.11 66.398 0.342 6.46 2.34 3.82
8/18/2022 6:30:00 AM 19.11 66.398 0.342 6.48 1.49 3.83
8/18/2022 6:45:00 AM 19.08 66.344 0.342 6.49 1.52 3.83
8/18/2022 7:00:00 AM 19.06 66.308 0.342 6.48 2.31 3.89
8/18/2022 7:15:00 AM 19.04 66.272 0.341 6.49 1.64 3.92
8/18/2022 7:30:00 AM 19.03 66.254 0.341 6.49 2.41 3.96
8/18/2022 7:45:00 AM 19.02 66.236 0.341 6.48 2.33 3.97
8/18/2022 8:00:00 AM 19.03 66.254 0.341 6.5 2.27 4.09
8/18/2022 8:15:00 AM 19.06 66.308 0.34 6.51 1.32 4.21
8/18/2022 8:30:00 AM 19.08 66.344 0.34 6.5 1.38 4.21
8/18/2022 8:45:00 AM 19.1 66.38 0.34 6.51 2.18 4.25
8/18/2022 9:00:00 AM 19.14 66.452 0.339 6.52 2.21 4.4
8/18/2022 9:15:00 AM 19.2 66.56 0.338 6.53 1.47 4.48
8/18/2022 9:30:00 AM 19.27 66.686 0.338 6.53 1.1 4.58
8/18/2022 9:45:00 AM 19.36 66.848 0.338 6.55 1 4.75
8/18/2022 10:00:00 AM 19.46 67.028 0.338 6.54 1.11 4.87
8/18/2022 10:15:00 AM 19.51 67.118 0.339 6.55 1.24 4.91
8/18/2022 10:30:00 AM 19.65 67.37 0.339 6.55 2.35 4.99
8/18/2022 10:45:00 AM 19.79 67.622 0.34 6.54 0.98 5.05
8/18/2022 11:00:00 AM 20.05 68.09 0.34 6.55 0.99 5.04
8/18/2022 11:15:00 AM 20.47 68.846 0.341 6.57 0.99 5.4
8/18/2022 11:30:00 AM 20.62 69.116 0.339 6.57 0.95 5.32
8/18/2022 11:45:00 AM 20.73 69.314 0.339 6.58 0.96 5.42
8/18/2022 12:00:00 PM 20.96 69.728 0.339 6.58 0.91 5.49
8/18/2022 12:15:00 PM 21.07 69.926 0.34 6.59 1.02 5.53
8/18/2022 12:30:00 PM 21.09 69.962 0.34 6.59 1.01 5.58
8/18/2022 12:45:00 PM 21.07 69.926 0.339 6.59 1.02 5.7
8/18/2022 1:00:00 PM 21.2 70.16 0.339 6.6 0.97 5.8
8/18/2022 1:15:00 PM 21.24 70.232 0.34 6.58 1.86 5.51
8/18/2022 1:30:00 PM 21.38 70.484 0.34 6.59 1.93 5.77
8/18/2022 1:45:00 PM 21.54 70.772 0.34 6.58 1.75 5.92
8/18/2022 2:00:00 PM 21.74 71.132 0.339 6.57 0.92 5.9
8/18/2022 2:15:00 PM 21.74 71.132 0.339 6.58 0.91 6.07
8/18/2022 2:30:00 PM 21.97 71.546 0.339 6.57 0.95 5.99
8/18/2022 2:45:00 PM 22.04 71.672 0.339 6.57 1.87 6.07
8/18/2022 3:00:00 PM 22.14 71.852 0.339 6.57 1.71 6.19
8/18/2022 3:15:00 PM 22.27 72.086 0.336 6.59 1.3 6.25
8/18/2022 3:30:00 PM 22.41 72.338 0.334 6.6 1.97 6.49
8/18/2022 3:45:00 PM 21.9 71.42 0.337 6.6 1.18 6.41
8/18/2022 4:00:00 PM 22.37 72.266 0.333 6.62 0.98 6.55
8/18/2022 4:15:00 PM 22.46 72.42799 0.333 6.62 1.88 6.53
8/18/2022 4:30:00 PM 22.52 72.536 0.332 6.64 0.91 6.5
8/18/2022 4:45:00 PM 22.38 72.284 0.333 6.62 1.11 6.34
8/18/2022 5:00:00 PM 22.27 72.086 0.334 6.6 2.08 6.26
8/18/2022 5:15:00 PM 22.19 71.942 0.335 6.61 1.13 6.17
8/18/2022 5:30:00 PM 22.09 71.762 0.336 6.6 1.27 6.12
8/18/2022 5:45:00 PM 22.04 71.672 0.336 6.6 2.03 6.22
8/18/2022 6:00:00 PM 21.99 71.582 0.336 6.6 2.14 6.26
8/18/2022 6:15:00 PM 21.94 71.492 0.335 6.59 1.1 6.29
8/18/2022 6:30:00 PM 21.88 71.384 0.336 6.62 1.09 6.27
8/18/2022 6:45:00 PM 21.82 71.276 0.335 6.6 2.04 6.22
8/18/2022 7:00:00 PM 21.74 71.132 0.335 6.6 1.99 6.08
8/18/2022 7:15:00 PM 21.66 70.988 0.336 6.6 1.11 5.96
8/18/2022 7:30:00 PM 21.59 70.862 0.336 6.59 1.23 5.84
8/18/2022 7:45:00 PM 21.49 70.682 0.337 6.58 1.16 5.73
8/18/2022 8:00:00 PM 21.43 70.574 0.337 6.57 2.18 5.69
8/18/2022 8:15:00 PM 21.34 70.412 0.338 6.56 2.19 5.51
8/18/2022 8:30:00 PM 21.26 70.268 0.338 6.57 2.74 5.53
8/18/2022 8:45:00 PM 21.15 70.07 0.339 6.55 2.34 5.33
8/18/2022 9:00:00 PM 21.06 69.908 0.339 6.55 1.46 5.21
8/18/2022 9:15:00 PM 20.96 69.728 0.34 6.52 2.42 5.12
8/18/2022 9:30:00 PM 20.88 69.584 0.34 6.52 2.31 5.05
8/18/2022 9:45:00 PM 20.8 69.44 0.339 6.51 2.39 4.99
8/18/2022 10:00:00 PM 20.73 69.314 0.339 6.53 1.23 4.95
8/18/2022 10:15:00 PM 20.65 69.17 0.339 6.53 1.37 4.91
8/18/2022 10:30:00 PM 20.57 69.026 0.339 6.52 1.39 4.85
8/18/2022 10:45:00 PM 20.5 68.9 0.339 6.51 2.15 4.82
8/18/2022 11:00:00 PM 20.43 68.774 0.339 6.52 1.21 4.78
8/18/2022 11:15:00 PM 20.36 68.648 0.339 6.5 2.28 4.72
8/18/2022 11:30:00 PM 20.3 68.54 0.339 6.51 1.4 4.64
8/18/2022 11:45:00 PM 20.23 68.414 0.339 6.5 1.44 4.58
8/19/2022 12:00:00 AM 20.16 68.288 0.339 6.5 1.32 4.51
8/19/2022 12:15:00 AM 20.09 68.162 0.339 6.48 2.29 4.42
8/19/2022 12:30:00 AM 20.02 68.036 0.339 6.48 2.29 4.32
8/19/2022 12:45:00 AM 19.96 67.92799 0.339 6.48 1.38 4.24
8/19/2022 1:00:00 AM 19.91 67.838 0.339 6.46 2.32 4.17
8/19/2022 1:15:00 AM 19.85 67.73 0.339 6.48 1.73 4.09
8/19/2022 1:30:00 AM 19.78 67.604 0.34 6.46 2.54 4
8/19/2022 1:45:00 AM 19.72 67.496 0.34 6.46 2.3 3.94
8/19/2022 2:00:00 AM 19.66 67.388 0.339 6.47 1.49 3.91
8/19/2022 2:15:00 AM 19.61 67.298 0.339 6.47 1.59 3.86
8/19/2022 2:30:00 AM 19.57 67.226 0.34 6.47 1.53 3.82
8/19/2022 2:45:00 AM 19.51 67.118 0.34 6.47 1.52 3.82
8/19/2022 3:00:00 AM 19.46 67.028 0.34 6.47 1.56 3.8
8/19/2022 3:15:00 AM 19.4 66.92 0.34 6.44 2.34 3.75
8/19/2022 3:30:00 AM 19.33 66.794 0.34 6.46 1.54 3.75
8/19/2022 3:45:00 AM 19.28 66.704 0.34 6.46 1.42 3.74
8/19/2022 4:00:00 AM 19.23 66.614 0.34 6.45 2.31 3.69
8/19/2022 4:15:00 AM 19.17 66.506 0.341 6.44 2.29 3.72
8/19/2022 4:30:00 AM 19.15 66.47 0.341 6.46 1.66 3.77
8/19/2022 4:45:00 AM 19.1 66.38 0.341 6.46 1.55 3.79
8/19/2022 5:00:00 AM 19.09 66.362 0.342 6.46 2.38 3.9
8/19/2022 5:15:00 AM 19.06 66.308 0.341 6.47 1.21 3.92
8/19/2022 5:30:00 AM 19.03 66.254 0.342 6.47 2.84 3.92
8/19/2022 5:45:00 AM 18.99 66.182 0.342 6.47 1.4 3.93
8/19/2022 6:00:00 AM 18.96 66.128 0.342 6.48 1.71 3.97
8/19/2022 6:15:00 AM 18.93 66.074 0.342 6.48 1.56 3.96
8/19/2022 6:30:00 AM 18.91 66.038 0.341 6.48 1.35 3.99
8/19/2022 6:45:00 AM 18.88 65.984 0.342 6.48 1.34 4.01
8/19/2022 7:00:00 AM 18.86 65.948 0.341 6.49 1.71 3.99
8/19/2022 7:15:00 AM 18.85 65.93 0.341 6.49 1.49 4
8/19/2022 7:30:00 AM 18.83 65.894 0.341 6.49 2.58 4.03
8/19/2022 7:45:00 AM 18.83 65.894 0.341 6.49 2.43 4.1
8/19/2022 8:00:00 AM 18.83 65.894 0.339 6.49 2.35 4.18
8/19/2022 8:15:00 AM 18.85 65.93 0.338 6.51 2.32 4.23
8/19/2022 8:30:00 AM 18.88 65.984 0.338 6.52 1.29 4.28
8/19/2022 8:45:00 AM 18.94 66.092 0.337 6.52 1.15 4.31
8/19/2022 9:00:00 AM 18.99 66.182 0.337 6.51 2.11 4.36
8/19/2022 9:15:00 AM 19.03 66.254 0.337 6.46 1.98 4.42
8/19/2022 9:30:00 AM 19.09 66.362 0.337 6.52 2.06 4.48
8/19/2022 9:45:00 AM 19.14 66.452 0.337 6.53 1.14 4.49
8/19/2022 10:00:00 AM 19.23 66.614 0.336 6.53 1.08 4.41
8/19/2022 10:15:00 AM 19.34 66.812 0.337 6.53 1.12 4.45
8/19/2022 10:30:00 AM 19.55 67.19 0.338 6.52 0.96 4.44
8/19/2022 10:45:00 AM 19.94 67.892 0.34 6.52 2.04 4.63
8/19/2022 11:00:00 AM 20.16 68.288 0.339 6.53 1.02 4.65
8/19/2022 11:15:00 AM 20.45 68.81 0.34 6.52 1.9 4.69
8/19/2022 11:30:00 AM 20.84 69.512 0.34 6.53 2 4.81
8/19/2022 11:45:00 AM 21.14 70.052 0.339 6.57 0.89 4.98
8/19/2022 12:00:00 PM 21.44 70.592 0.341 6.55 1.84 5
8/19/2022 12:15:00 PM 21.8 71.24 0.34 6.54 1.82 5.1
8/19/2022 12:30:00 PM 21.95 71.51 0.34 6.57 0.98 5.16
8/19/2022 12:45:00 PM 22.28 72.104 0.34 6.59 0.86 5.35
8/19/2022 1:00:00 PM 22.11 71.798 0.34 6.58 0.94 5.37
8/19/2022 1:15:00 PM 22.08 71.744 0.34 6.55 2.02 5.32
8/19/2022 1:30:00 PM 22.33 72.194 0.341 6.55 1.85 5.36
8/19/2022 1:45:00 PM 22.46 72.42799 0.34 6.57 0.97 5.45
8/19/2022 2:00:00 PM 22.54 72.57201 0.34 6.58 1 5.59
8/19/2022 2:15:00 PM 22.7 72.86 0.338 6.59 1.05 5.73
8/19/2022 2:30:00 PM 22.88 73.184 0.339 6.59 1.05 5.9
8/19/2022 2:45:00 PM 22.92 73.256 0.337 6.6 0.98 5.89
8/19/2022 3:00:00 PM 22.97 73.346 0.336 6.6 0.93 5.86
8/19/2022 3:15:00 PM 22.93 73.274 0.336 6.58 0.98 5.86
8/19/2022 3:30:00 PM 23.08 73.544 0.336 6.58 1 5.88
8/19/2022 3:45:00 PM 23.11 73.598 0.337 6.61 0.91 5.83
8/19/2022 4:00:00 PM 23.14 73.652 0.336 6.58 1.74 5.78
8/19/2022 4:15:00 PM 23.21 73.778 0.336 6.6 0.91 5.78
8/19/2022 4:30:00 PM 23.27 73.886 0.336 6.6 0.93 5.76
8/19/2022 4:45:00 PM 23.21 73.778 0.336 6.59 1.91 5.77
8/19/2022 5:00:00 PM 23.24 73.832 0.336 6.59 1.84 5.73
8/19/2022 5:15:00 PM 23.21 73.778 0.336 6.58 1.93 5.65
8/19/2022 5:30:00 PM 23.07 73.526 0.336 6.6 0.98 5.73
8/19/2022 5:45:00 PM 23.01 73.418 0.336 6.6 1.18 5.7
8/19/2022 6:00:00 PM 22.89 73.202 0.337 6.6 1.02 5.72
8/19/2022 6:15:00 PM 22.76 72.968 0.338 6.59 1.1 5.64
8/19/2022 6:30:00 PM 22.64 72.752 0.339 6.56 2.02 5.6
8/19/2022 6:45:00 PM 22.56 72.608 0.339 6.55 2.08 5.58
8/19/2022 7:00:00 PM 22.48 72.464 0.338 6.57 1.29 5.5
8/19/2022 7:15:00 PM 22.4 72.32 0.337 6.56 1.44 5.41
8/19/2022 7:30:00 PM 22.34 72.212 0.337 6.55 1.83 5.27
8/19/2022 7:45:00 PM 22.26 72.068 0.338 6.52 2.51 5.2
8/19/2022 8:00:00 PM 22.19 71.942 0.338 6.54 2.3 5.14
8/19/2022 8:15:00 PM 22.12 71.816 0.338 6.54 1.63 4.96
8/19/2022 8:30:00 PM 22 71.6 0.339 6.52 3.55 4.99
8/19/2022 8:45:00 PM 21.9 71.42 0.339 6.53 2.56 4.81
8/19/2022 9:00:00 PM 21.84 71.312 0.34 6.5 2.54 4.79
8/19/2022 9:15:00 PM 21.77 71.186 0.34 6.53 1.6 4.71
8/19/2022 9:30:00 PM 21.7 71.06 0.34 6.52 2.92 4.65
8/19/2022 9:45:00 PM 21.59 70.862 0.34 6.52 1.86 4.57
8/19/2022 10:00:00 PM 21.51 70.718 0.34 6.51 1.77 4.45
8/19/2022 10:15:00 PM 21.4 70.52 0.341 6.51 1.71 4.41
8/19/2022 10:30:00 PM 21.33 70.394 0.341 6.49 1.56 4.38
8/19/2022 10:45:00 PM 21.23 70.214 0.341 6.51 1.64 4.39
8/19/2022 11:00:00 PM 21.14 70.052 0.341 6.51 1.65 4.38
8/19/2022 11:15:00 PM 21.05 69.89 0.341 6.42 2.54 4.35
8/19/2022 11:30:00 PM 20.95 69.71 0.341 6.5 2.43 4.26
8/19/2022 11:45:00 PM 20.88 69.584 0.341 6.5 1.84 4.22
8/20/2022 12:00:00 AM 20.79 69.422 0.34 6.5 1.51 4.2
8/20/2022 12:15:00 AM 20.71 69.278 0.34 6.5 1.45 4.18
8/20/2022 12:30:00 AM 20.64 69.152 0.34 6.49 2.33 4.13
8/20/2022 12:45:00 AM 20.57 69.026 0.34 6.49 2.35 4.12
8/20/2022 1:00:00 AM 20.5 68.9 0.34 6.48 2.31 4.06
8/20/2022 1:15:00 AM 20.44 68.792 0.34 6.49 1.49 4.01
8/20/2022 1:30:00 AM 20.38 68.684 0.34 6.49 1.37 3.92
8/20/2022 1:45:00 AM 20.31 68.558 0.34 6.47 2.29 3.83
8/20/2022 2:00:00 AM 20.24 68.432 0.34 6.47 2.39 3.79
8/20/2022 2:15:00 AM 20.2 68.36 0.34 6.47 1.52 3.75
8/20/2022 2:30:00 AM 20.15 68.27 0.34 6.47 1.53 3.64
8/20/2022 2:45:00 AM 20.06 68.108 0.34 6.46 1.48 3.63
8/20/2022 3:00:00 AM 20.04 68.07201 0.34 6.46 1.45 3.48
8/20/2022 3:15:00 AM 19.99 67.982 0.341 6.41 1.87 3.43
8/20/2022 3:30:00 AM 19.94 67.892 0.34 6.4 1.44 3.44
8/20/2022 3:45:00 AM 19.88 67.784 0.34 6.43 1.53 3.37
8/20/2022 4:00:00 AM 19.82 67.676 0.341 6.43 1.51 3.25
8/20/2022 4:15:00 AM 19.77 67.586 0.341 6.43 2.41 3.23
8/20/2022 4:30:00 AM 19.71 67.478 0.341 6.42 2.44 3.15
8/20/2022 4:45:00 AM 19.67 67.406 0.341 6.43 2.67 3.21
8/20/2022 5:00:00 AM 19.63 67.334 0.341 6.43 2.47 3.19
8/20/2022 5:15:00 AM 19.59 67.262 0.341 6.42 1.61 3.11
8/20/2022 5:30:00 AM 19.54 67.172 0.341 6.44 1.56 3.08
8/20/2022 5:45:00 AM 19.48 67.064 0.341 6.44 1.47 3.12
8/20/2022 6:00:00 AM 19.43 66.974 0.341 6.45 1.82 3.27
8/20/2022 6:15:00 AM 19.42 66.956 0.341 6.45 1.5 3.22
8/20/2022 6:30:00 AM 19.39 66.902 0.342 6.45 2.47 3.3
8/20/2022 6:45:00 AM 19.37 66.866 0.343 6.46 1.84 3.41
8/20/2022 7:00:00 AM 19.33 66.794 0.343 6.46 2.64 3.4
8/20/2022 7:15:00 AM 19.35 66.83 0.343 6.47 1.87 3.46
8/20/2022 7:30:00 AM 19.33 66.794 0.344 6.46 2.78 3.5
8/20/2022 7:45:00 AM 19.33 66.794 0.344 6.48 1.83 3.57
8/20/2022 8:00:00 AM 19.34 66.812 0.344 6.48 1.68 3.62
8/20/2022 8:15:00 AM 19.35 66.83 0.344 6.48 2.48 3.69
8/20/2022 8:30:00 AM 19.38 66.884 0.343 6.49 1.33 3.75
8/20/2022 8:45:00 AM 19.41 66.938 0.343 6.5 1.5 3.82
8/20/2022 9:00:00 AM 19.48 67.064 0.343 6.49 2.14 3.94
8/20/2022 9:15:00 AM 19.54 67.172 0.342 6.5 1.97 3.95
8/20/2022 9:30:00 AM 19.6 67.28 0.341 6.51 1.21 3.95
8/20/2022 9:45:00 AM 19.66 67.388 0.34 6.49 1.99 3.99
8/20/2022 10:00:00 AM 19.73 67.514 0.34 6.5 1.16 3.97
8/20/2022 10:15:00 AM 19.83 67.694 0.34 6.49 1.28 3.92
8/20/2022 10:30:00 AM 20.01 68.018 0.341 6.49 1.98 3.92
8/20/2022 10:45:00 AM 20.24 68.432 0.342 6.5 1 3.99
8/20/2022 11:00:00 AM 20.64 69.152 0.342 6.51 1.45 4.09
8/20/2022 11:15:00 AM 20.8 69.44 0.342 6.51 0.93 4.23
8/20/2022 11:30:00 AM 21.22 70.196 0.341 6.52 1.02 4.21
8/20/2022 11:45:00 AM 21.85 71.33 0.34 6.54 0.92 4.51
8/20/2022 12:00:00 PM 21.98 71.564 0.34 6.54 1.24 4.49
8/20/2022 12:15:00 PM 21.85 71.33 0.34 6.54 0.94 4.49
8/20/2022 12:30:00 PM 22.11 71.798 0.34 6.54 0.95 4.57
8/20/2022 12:45:00 PM 22.26 72.068 0.34 6.57 0.87 4.68
8/20/2022 1:00:00 PM 22.17 71.906 0.34 6.54 1.95 4.78
8/20/2022 1:15:00 PM 22.26 72.068 0.337 6.56 1.16 5.09
8/20/2022 1:30:00 PM 22.19 71.942 0.338 6.48 1.83 4.93
8/20/2022 1:45:00 PM 22.21 71.978 0.338 6.56 0.94 5
8/20/2022 2:00:00 PM 22.28 72.104 0.338 6.56 0.98 5.17
8/20/2022 2:15:00 PM 22.48 72.464 0.338 6.56 0.95 5.25
8/20/2022 2:30:00 PM 22.56 72.608 0.337 6.56 0.96 5.22
8/20/2022 2:45:00 PM 22.62 72.716 0.337 6.57 1.07 5.26
8/20/2022 3:00:00 PM 22.51 72.518 0.337 6.56 1.9 5.23
8/20/2022 3:15:00 PM 22.54 72.57201 0.337 6.57 1.05 5.3
8/20/2022 3:30:00 PM 22.47 72.446 0.336 6.57 0.98 5.28
8/20/2022 3:45:00 PM 22.5 72.5 0.336 6.56 2.56 5.37
8/20/2022 4:00:00 PM 22.5 72.5 0.335 6.59 0.98 5.49
8/20/2022 4:15:00 PM 22.48 72.464 0.336 6.54 2.59 5.47
8/20/2022 4:30:00 PM 22.43 72.374 0.337 6.56 1.99 5.24
8/20/2022 4:45:00 PM 22.29 72.122 0.337 6.57 1.19 5.28
8/20/2022 5:00:00 PM 22.37 72.266 0.337 6.57 1.01 5.33
8/20/2022 5:15:00 PM 22.34 72.212 0.337 6.56 1.06 5.19
8/20/2022 5:30:00 PM 22.27 72.086 0.337 6.56 1.15 5.23
8/20/2022 5:45:00 PM 22.19 71.942 0.338 6.54 2.05 5.22
8/20/2022 6:00:00 PM 22.11 71.798 0.338 6.53 1.98 5.25
8/20/2022 6:15:00 PM 22.05 71.69 0.338 6.53 2.12 5.22
8/20/2022 6:30:00 PM 22.06 71.708 0.337 6.55 1.06 5.17
8/20/2022 6:45:00 PM 22.01 71.618 0.337 6.53 2.15 5.22
8/20/2022 7:00:00 PM 21.97 71.546 0.337 6.53 2.34 5.21
8/20/2022 7:15:00 PM 21.93 71.474 0.336 6.53 2.58 5.18
8/20/2022 7:30:00 PM 21.89 71.402 0.336 6.54 1.65 5.13
8/20/2022 7:45:00 PM 21.83 71.294 0.335 6.53 2.31 4.97
8/20/2022 8:00:00 PM 21.77 71.186 0.336 6.51 3.94 4.86
8/20/2022 8:15:00 PM 21.71 71.078 0.336 6.52 8.03 4.77
8/20/2022 8:30:00 PM 21.64 70.952 0.336 6.52 5.66 4.68
8/20/2022 8:45:00 PM 21.58 70.844 0.336 6.51 9.92 4.55
8/20/2022 9:00:00 PM 21.52 70.736 0.336 6.48 3.37 4.54
8/20/2022 9:15:00 PM 21.45 70.61 0.337 6.51 3.2 4.4
8/20/2022 9:30:00 PM 21.4 70.52 0.337 6.49 3.46 4.34
8/20/2022 9:45:00 PM 21.34 70.412 0.337 6.49 3.09 4.29
8/20/2022 10:00:00 PM 21.28 70.304 0.337 6.5 7.06 4.25
8/20/2022 10:15:00 PM 21.22 70.196 0.338 6.49 2.98 4.19
8/20/2022 10:30:00 PM 21.18 70.124 0.339 6.49 7.27 4.16
8/20/2022 10:45:00 PM 21.12 70.016 0.34 6.46 2.27 4.07
8/20/2022 11:00:00 PM 21.08 69.944 0.34 6.49 1.65 4.08
8/20/2022 11:15:00 PM 21.03 69.854 0.34 6.48 1.56 4.02
8/20/2022 11:30:00 PM 20.98 69.764 0.34 6.48 1.41 3.99
8/20/2022 11:45:00 PM 20.92 69.656 0.34 6.48 1.85 3.96
8/21/2022 12:00:00 AM 20.87 69.566 0.34 6.48 1.48 3.94
8/21/2022 12:15:00 AM 20.82 69.476 0.34 6.47 2.52 3.93
8/21/2022 12:30:00 AM 20.76 69.368 0.34 6.48 2.24 3.89
8/21/2022 12:45:00 AM 20.69 69.242 0.34 6.47 2.89 3.83
8/21/2022 1:00:00 AM 20.65 69.17 0.341 6.48 1.9 3.72
8/21/2022 1:15:00 AM 20.58 69.044 0.341 6.47 2.46 3.73
8/21/2022 1:30:00 AM 20.54 68.972 0.341 6.47 2.9 3.65
8/21/2022 1:45:00 AM 20.49 68.882 0.341 6.44 3.86 3.59
8/21/2022 2:00:00 AM 20.44 68.792 0.341 6.47 4.22 3.58
8/21/2022 2:15:00 AM 20.38 68.684 0.341 6.45 3.97 3.52
8/21/2022 2:30:00 AM 20.33 68.594 0.341 6.44 3.59 3.49
8/21/2022 2:45:00 AM 20.28 68.504 0.341 6.44 3.73 3.45
8/21/2022 3:00:00 AM 20.22 68.396 0.341 6.45 4.98 3.43
8/21/2022 3:15:00 AM 20.19 68.342 0.341 6.45 3.55 3.39
8/21/2022 3:30:00 AM 20.15 68.27 0.341 6.46 3.94 3.33
8/21/2022 3:45:00 AM 20.1 68.18 0.341 6.46 4.49 3.27
8/21/2022 4:00:00 AM 20.07 68.126 0.341 6.46 4.86 3.24
8/21/2022 4:15:00 AM 20 68 0.341 6.44 3.93 3.29
8/21/2022 4:30:00 AM 19.97 67.946 0.341 6.45 4.8 3.25
8/21/2022 4:45:00 AM 19.92 67.856 0.342 6.45 5.03 3.09
8/21/2022 5:00:00 AM 19.88 67.784 0.342 6.45 3.61 3.06
8/21/2022 5:15:00 AM 19.85 67.73 0.342 6.43 5.75 3.04
8/21/2022 5:30:00 AM 19.82 67.676 0.341 6.42 10.34 2.92
8/21/2022 5:45:00 AM 19.78 67.604 0.342 6.44 14.48 2.96
8/21/2022 6:00:00 AM 19.75 67.55 0.342 6.45 2.53 3.08
8/21/2022 6:15:00 AM 19.74 67.532 0.342 6.45 1.31 3.14
8/21/2022 6:30:00 AM 19.73 67.514 0.343 6.45 2.34 3.24
8/21/2022 6:45:00 AM 19.73 67.514 0.343 6.46 1.39 3.29
8/21/2022 7:00:00 AM 19.72 67.496 0.344 6.47 2.69 3.33
8/21/2022 7:15:00 AM 19.72 67.496 0.344 6.46 2.68 3.34
8/21/2022 7:30:00 AM 19.72 67.496 0.344 6.47 1.11 3.36
8/21/2022 7:45:00 AM 19.73 67.514 0.344 6.47 2.03 3.4
8/21/2022 8:00:00 AM 19.75 67.55 0.344 6.47 1.08 3.43
8/21/2022 8:15:00 AM 19.78 67.604 0.344 6.47 1.1 3.45
8/21/2022 8:30:00 AM 19.83 67.694 0.344 6.47 1.03 3.42
8/21/2022 8:45:00 AM 19.86 67.748 0.344 6.47 1.69 3.46
8/21/2022 9:00:00 AM 19.92 67.856 0.343 6.47 1.8 3.47
8/21/2022 9:15:00 AM 19.97 67.946 0.343 6.47 1.1 3.48
8/21/2022 9:30:00 AM 20.02 68.036 0.342 6.47 1.02 3.42
8/21/2022 9:45:00 AM 20.12 68.216 0.342 6.46 0.86 3.51
8/21/2022 10:00:00 AM 20.17 68.306 0.342 6.48 0.99 3.56
8/21/2022 10:15:00 AM 20.19 68.342 0.341 6.48 1.01 3.61
8/21/2022 10:30:00 AM 20.26 68.468 0.341 6.48 0.89 3.65
8/21/2022 10:45:00 AM 20.34 68.612 0.34 6.48 0.96 3.76
8/21/2022 11:00:00 AM 20.43 68.774 0.339 6.49 0.83 3.85
8/21/2022 11:15:00 AM 20.61 69.098 0.339 6.49 1.8 4
8/21/2022 11:30:00 AM 20.67 69.206 0.339 6.5 0.75 4.11
8/21/2022 11:45:00 AM 20.73 69.314 0.339 6.5 1.7 4.14
8/21/2022 12:00:00 PM 20.99 69.782 0.339 6.52 0.71 4.49
8/21/2022 12:15:00 PM 21.22 70.196 0.338 6.52 1.7 4.72
8/21/2022 12:30:00 PM 21.45 70.61 0.338 6.54 0.83 4.9
8/21/2022 12:45:00 PM 21.48 70.664 0.338 6.55 0.75 4.95
8/21/2022 1:00:00 PM 21.55 70.79 0.338 6.55 0.83 5
8/21/2022 1:15:00 PM 21.73 71.114 0.338 6.56 0.75 5.17
8/21/2022 1:30:00 PM 21.76 71.168 0.338 6.56 0.85 5.21
8/21/2022 1:45:00 PM 21.94 71.492 0.338 6.57 0.81 5.43
8/21/2022 2:00:00 PM 21.98 71.564 0.338 6.57 1.1 5.53
8/21/2022 2:15:00 PM 21.98 71.564 0.338 6.57 1.03 5.53
8/21/2022 2:30:00 PM 22.2 71.96 0.338 6.58 2.06 5.82
8/21/2022 2:45:00 PM 22.04 71.672 0.337 6.56 1.86 5.65
8/21/2022 3:00:00 PM 22.06 71.708 0.337 6.57 0.95 5.65
8/21/2022 3:15:00 PM 22.04 71.672 0.337 6.42 1.91 5.62
8/21/2022 3:30:00 PM 22.05 71.69 0.337 6.57 0.85 5.6
8/21/2022 3:45:00 PM 21.95 71.51 0.336 6.57 1.1 5.64
8/21/2022 4:00:00 PM 21.89 71.402 0.336 6.57 1 5.55
8/21/2022 4:15:00 PM 21.82 71.276 0.336 6.56 0.91 5.51
8/21/2022 4:30:00 PM 21.75 71.15 0.336 6.54 2.88 5.4
8/21/2022 4:45:00 PM 21.72 71.096 0.336 6.57 1.43 5.47
8/21/2022 5:00:00 PM 21.63 70.934 0.336 6.57 1.15 5.37
8/21/2022 5:15:00 PM 21.54 70.772 0.336 6.56 0.94 5.24
8/21/2022 5:30:00 PM 21.51 70.718 0.336 6.56 0.86 5.18
8/21/2022 5:45:00 PM 21.44 70.592 0.337 6.46 1.99 5.05
8/21/2022 6:00:00 PM 21.39 70.502 0.337 6.54 2.6 4.97
8/21/2022 6:15:00 PM 21.37 70.466 0.337 6.53 3.6 4.92
8/21/2022 6:30:00 PM 21.37 70.466 0.337 6.53 2.75 4.95
8/21/2022 6:45:00 PM 21.34 70.412 0.337 6.5 4.32 4.88
8/21/2022 7:00:00 PM 21.3 70.34 0.337 6.51 5.19 4.81
8/21/2022 7:15:00 PM 21.25 70.25 0.338 6.52 3.05 4.79
8/21/2022 7:30:00 PM 21.2 70.16 0.339 6.51 4.91 4.71
8/21/2022 7:45:00 PM 21.13 70.034 0.34 6.5 2.36 4.6
8/21/2022 8:00:00 PM 21.09 69.962 0.34 6.51 1.98 4.6
8/21/2022 8:15:00 PM 21.04 69.872 0.341 6.51 1.79 4.61
8/21/2022 8:30:00 PM 20.99 69.782 0.341 6.5 1.92 4.5
8/21/2022 8:45:00 PM 20.94 69.692 0.342 6.49 1.87 4.37
8/21/2022 9:00:00 PM 20.9 69.62 0.342 6.49 1.91 4.24
8/21/2022 9:15:00 PM 20.86 69.548 0.342 6.48 1.92 4.13
8/21/2022 9:30:00 PM 20.8 69.44 0.342 6.47 3.13 4
8/21/2022 9:45:00 PM 20.78 69.404 0.342 6.44 2.34 3.94
8/21/2022 10:00:00 PM 20.75 69.35 0.341 6.48 2.35 3.91
8/21/2022 10:15:00 PM 20.71 69.278 0.341 6.46 2.77 3.86
8/21/2022 10:30:00 PM 20.65 69.17 0.34 6.47 1.71 3.85
8/21/2022 10:45:00 PM 20.62 69.116 0.341 6.48 2.7 3.78
8/21/2022 11:00:00 PM 20.6 69.08 0.341 6.47 1.82 3.72
8/21/2022 11:15:00 PM 20.57 69.026 0.341 6.46 2.49 3.71
8/21/2022 11:30:00 PM 20.53 68.954 0.341 6.46 1.53 3.66
8/21/2022 11:45:00 PM 20.5 68.9 0.341 6.46 1.38 3.54
8/22/2022 12:00:00 AM 20.46 68.828 0.341 6.46 1.35 3.46
8/22/2022 12:15:00 AM 20.43 68.774 0.342 6.45 2.24 3.45
8/22/2022 12:30:00 AM 20.39 68.702 0.342 6.45 2.28 3.41
8/22/2022 12:45:00 AM 20.36 68.648 0.341 6.45 1.3 3.41
8/22/2022 1:00:00 AM 20.33 68.594 0.341 6.45 1.4 3.36
8/22/2022 1:15:00 AM 20.3 68.54 0.341 6.45 1.28 3.3
8/22/2022 1:30:00 AM 20.28 68.504 0.341 6.44 1.28 3.28
8/22/2022 1:45:00 AM 20.25 68.45 0.341 6.45 2.14 3.23
8/22/2022 2:00:00 AM 20.21 68.378 0.34 6.45 1.18 3.21
8/22/2022 2:15:00 AM 20.19 68.342 0.34 6.45 1.41 3.12
8/22/2022 2:30:00 AM 20.17 68.306 0.341 6.44 2.18 3.12
8/22/2022 2:45:00 AM 20.14 68.252 0.34 6.44 2.1 3.16
8/22/2022 3:00:00 AM 20.12 68.216 0.34 6.45 1.15 3.1
8/22/2022 3:15:00 AM 20.09 68.162 0.34 6.45 1.42 3.06
8/22/2022 3:30:00 AM 20.08 68.144 0.341 6.45 1.62 3
8/22/2022 3:45:00 AM 20.06 68.108 0.341 6.44 12.73 2.99
8/22/2022 4:00:00 AM 20.05 68.09 0.341 6.45 1.49 2.95
8/22/2022 4:15:00 AM 20.02 68.036 0.341 6.45 2.02 3
8/22/2022 4:30:00 AM 20.01 68.018 0.341 6.46 1.33 3.09
8/22/2022 4:45:00 AM 20 68 0.341 6.45 1.32 2.99
8/22/2022 5:00:00 AM 19.98 67.964 0.341 6.46 1.21 3.01
8/22/2022 5:15:00 AM 19.97 67.946 0.341 6.45 2.13 3.04
8/22/2022 5:30:00 AM 19.97 67.946 0.341 6.46 1.32 3.06
8/22/2022 5:45:00 AM 19.96 67.92799 0.341 6.44 1.23 3.13
8/22/2022 6:00:00 AM 19.95 67.91 0.341 6.46 1.28 3.13
8/22/2022 6:15:00 AM 19.95 67.91 0.342 6.45 2.22 3.1
8/22/2022 6:30:00 AM 19.93 67.874 0.341 6.46 1.28 3.14
8/22/2022 6:45:00 AM 19.93 67.874 0.341 6.47 1.31 3.23
8/22/2022 7:00:00 AM 19.92 67.856 0.341 6.47 1.07 3.26
8/22/2022 7:15:00 AM 19.93 67.874 0.341 6.47 1.08 3.3
8/22/2022 7:30:00 AM 19.92 67.856 0.34 6.47 2.14 3.35
8/22/2022 7:45:00 AM 19.92 67.856 0.34 6.48 1.16 3.39
8/22/2022 8:00:00 AM 19.92 67.856 0.339 6.47 2.12 3.46
8/22/2022 8:15:00 AM 19.93 67.874 0.339 6.48 0.97 3.47
8/22/2022 8:30:00 AM 19.93 67.874 0.339 6.48 1.02 3.46
8/22/2022 8:45:00 AM 19.94 67.892 0.338 6.48 0.83 3.48
8/22/2022 9:00:00 AM 19.96 67.92799 0.338 6.48 1.91 3.5
8/22/2022 9:15:00 AM 19.98 67.964 0.338 6.48 1.87 3.48
8/22/2022 9:30:00 AM 20.02 68.036 0.338 6.47 1.83 3.44
8/22/2022 9:45:00 AM 20.07 68.126 0.337 6.48 0.83 3.41
8/22/2022 10:00:00 AM 20.11 68.198 0.338 6.47 1.86 3.4
8/22/2022 10:15:00 AM 20.16 68.288 0.337 6.47 1.78 3.43
8/22/2022 10:30:00 AM 20.21 68.378 0.337 6.47 1.8 3.47
8/22/2022 10:45:00 AM 20.27 68.486 0.337 6.48 0.77 3.49
8/22/2022 11:00:00 AM 20.3 68.54 0.337 6.47 0.97 3.53
8/22/2022 11:15:00 AM 20.36 68.648 0.337 6.47 3.63 3.68
8/22/2022 11:30:00 AM 20.65 69.17 0.337 6.48 3.6 3.85
8/22/2022 11:45:00 AM 20.85 69.53 0.34 6.48 2.72 3.98
8/22/2022 12:00:00 PM 21.1 69.98 0.341 6.49 3.67 4.07
8/22/2022 12:15:00 PM 21.16 70.088 0.342 6.49 5.3 4.22
8/22/2022 12:30:00 PM 21.37 70.466 0.337 6.52 3.46 4.48
8/22/2022 12:45:00 PM 21.52 70.736 0.336 6.53 3.13 4.6
8/22/2022 1:00:00 PM 21.56 70.808 0.335 6.53 3.09 4.77
8/22/2022 1:15:00 PM 21.49 70.682 0.333 6.53 3.01 4.71
8/22/2022 1:30:00 PM 21.48 70.664 0.332 6.56 1.74 4.9
8/22/2022 1:45:00 PM 21.46 70.628 0.332 6.57 1.48 5.01
8/22/2022 2:00:00 PM 21.48 70.664 0.333 6.55 1.76 4.79
8/22/2022 2:15:00 PM 21.4 70.52 0.335 6.53 2.82 4.7
8/22/2022 2:30:00 PM 21.44 70.592 0.335 6.53 2.29 4.62
8/22/2022 2:45:00 PM 21.54 70.772 0.336 6.53 1.63 4.72
8/22/2022 3:00:00 PM 21.54 70.772 0.336 6.51 2.54 4.7
8/22/2022 3:15:00 PM 21.63 70.934 0.336 6.53 1.43 4.8
8/22/2022 3:30:00 PM 21.79 71.222 0.337 6.53 1.99 4.89
8/22/2022 3:45:00 PM 21.92 71.456 0.337 6.5 2.09 4.89
8/22/2022 4:00:00 PM 22.01 71.618 0.339 6.52 1.57 4.84
8/22/2022 4:15:00 PM 22.04 71.672 0.339 6.52 2.12 4.85
8/22/2022 4:30:00 PM 22.06 71.708 0.339 6.52 1.08 4.9
8/22/2022 4:45:00 PM 22.07 71.726 0.338 6.53 0.97 4.85
8/22/2022 5:00:00 PM 22.11 71.798 0.338 6.46 2.04 4.88
8/22/2022 5:15:00 PM 22.13 71.834 0.338 6.53 2.22 4.87
8/22/2022 5:30:00 PM 22.13 71.834 0.338 6.54 1.64 4.99
8/22/2022 5:45:00 PM 22.12 71.816 0.338 6.54 1.34 4.91
8/22/2022 6:00:00 PM 22.04 71.672 0.338 6.51 1.57 4.85
8/22/2022 6:15:00 PM 21.94 71.492 0.338 6.48 2.84 4.83
8/22/2022 6:30:00 PM 21.83 71.294 0.339 6.51 3.3 4.69
8/22/2022 6:45:00 PM 21.75 71.15 0.34 6.5 4.01 4.51
8/22/2022 7:00:00 PM 21.67 71.006 0.341 6.5 3.36 4.38
8/22/2022 7:15:00 PM 21.63 70.934 0.342 6.49 2.9 4.38
8/22/2022 7:30:00 PM 21.58 70.844 0.343 6.49 2.75 4.31
8/22/2022 7:45:00 PM 21.48 70.664 0.343 6.49 2.55 4.27
8/22/2022 8:00:00 PM 21.42 70.556 0.342 6.49 2.92 4.26
8/22/2022 8:15:00 PM 21.34 70.412 0.341 6.47 2.41 4.19
8/22/2022 8:30:00 PM 21.27 70.286 0.341 6.5 3 4.12
8/22/2022 8:45:00 PM 21.23 70.214 0.34 6.47 2.82 4.1
8/22/2022 9:00:00 PM 21.15 70.07 0.34 6.49 4.45 4.02
8/22/2022 9:15:00 PM 21.09 69.962 0.339 6.48 3.77 3.97
8/22/2022 9:30:00 PM 21.02 69.836 0.339 6.48 3.6 3.93
8/22/2022 9:45:00 PM 20.98 69.764 0.339 6.47 3.15 3.81
8/22/2022 10:00:00 PM 20.92 69.656 0.34 6.47 2.84 3.77
8/22/2022 10:15:00 PM 20.88 69.584 0.34 6.48 1.72 3.8
8/22/2022 10:30:00 PM 20.82 69.476 0.341 6.47 1.59 3.72
8/22/2022 10:45:00 PM 20.78 69.404 0.341 6.46 2.85 3.69
8/22/2022 11:00:00 PM 20.73 69.314 0.341 6.46 2.67 3.57
8/22/2022 11:15:00 PM 20.69 69.242 0.341 6.45 2.41 3.62
8/22/2022 11:30:00 PM 20.64 69.152 0.341 6.47 1.5 3.57
8/22/2022 11:45:00 PM 20.6 69.08 0.341 6.46 1.44 3.49
8/23/2022 12:00:00 AM 20.55 68.99 0.341 6.46 1.5 3.46
8/23/2022 12:15:00 AM 20.52 68.936 0.342 6.45 2.91 3.31
8/23/2022 12:30:00 AM 20.48 68.864 0.341 6.44 2.59 3.39
8/23/2022 12:45:00 AM 20.45 68.81 0.341 6.46 1.94 3.3
8/23/2022 1:00:00 AM 20.41 68.738 0.341 6.46 1.75 3.31
8/23/2022 1:15:00 AM 20.38 68.684 0.34 6.46 1.73 3.26
8/23/2022 1:30:00 AM 20.35 68.63 0.34 6.45 1.61 3.2
8/23/2022 1:45:00 AM 20.31 68.558 0.34 6.45 1.38 3.14
8/23/2022 2:00:00 AM 20.29 68.522 0.34 6.45 1.6 3.11
8/23/2022 2:15:00 AM 20.25 68.45 0.34 6.45 2.42 3.11
8/23/2022 2:30:00 AM 20.23 68.414 0.341 6.44 2.35 3.04
8/23/2022 2:45:00 AM 20.21 68.378 0.34 6.45 1.65 2.97
8/23/2022 3:00:00 AM 20.18 68.324 0.34 6.45 1.83 2.95
8/23/2022 3:15:00 AM 20.16 68.288 0.34 6.45 1.71 2.88
8/23/2022 3:30:00 AM 20.12 68.216 0.34 6.43 1.48 2.95
8/23/2022 3:45:00 AM 20.09 68.162 0.34 6.45 1.17 3.03
8/23/2022 4:00:00 AM 20.07 68.126 0.34 6.45 1.5 2.96
8/23/2022 4:15:00 AM 20.04 68.07201 0.34 6.45 1.56 3.01
8/23/2022 4:30:00 AM 20.03 68.054 0.339 6.46 1.81 3.05
8/23/2022 4:45:00 AM 20.03 68.054 0.34 6.46 1.78 3
8/23/2022 5:00:00 AM 20.02 68.036 0.34 6.43 1.59 3.01
8/23/2022 5:15:00 AM 20.01 68.018 0.34 6.46 1.89 3.05
8/23/2022 5:30:00 AM 20 68 0.34 6.46 1.82 3.02
8/23/2022 5:45:00 AM 19.99 67.982 0.34 6.46 1.93 2.94
8/23/2022 6:00:00 AM 19.98 67.964 0.34 6.46 2.31 2.93
8/23/2022 6:15:00 AM 19.98 67.964 0.34 6.46 1.92 2.96
8/23/2022 6:30:00 AM 19.97 67.946 0.34 6.46 1.28 2.95
8/23/2022 6:45:00 AM 19.97 67.946 0.34 6.46 1.29 3.06
8/23/2022 7:00:00 AM 19.98 67.964 0.34 6.46 1.3 3.09
8/23/2022 7:15:00 AM 19.98 67.964 0.341 6.47 1.3 3.07
8/23/2022 7:30:00 AM 19.98 67.964 0.341 6.46 1.02 3.08
8/23/2022 7:45:00 AM 19.99 67.982 0.341 6.47 0.99 3.07
8/23/2022 8:00:00 AM 20 68 0.341 6.46 1.1 3.05
8/23/2022 8:15:00 AM 20.02 68.036 0.342 6.46 1.11 3.04
8/23/2022 8:30:00 AM 20.06 68.108 0.342 6.47 0.92 3.14
8/23/2022 8:45:00 AM 20.12 68.216 0.342 6.47 0.9 3.13
8/23/2022 9:00:00 AM 20.16 68.288 0.342 6.47 1.04 3.17
8/23/2022 9:15:00 AM 20.22 68.396 0.342 6.46 1.92 3.28
8/23/2022 9:30:00 AM 20.28 68.504 0.342 6.47 2.16 3.4
8/23/2022 9:45:00 AM 20.35 68.63 0.342 6.48 0.86 3.49
8/23/2022 10:00:00 AM 20.38 68.684 0.342 6.48 0.9 3.59
8/23/2022 10:15:00 AM 20.45 68.81 0.342 6.49 0.84 3.64
8/23/2022 10:30:00 AM 20.55 68.99 0.342 6.49 0.85 3.69
8/23/2022 10:45:00 AM 20.7 69.26 0.342 6.51 0.98 4
8/23/2022 11:00:00 AM 20.84 69.512 0.342 6.48 1.79 4.24
8/23/2022 11:15:00 AM 20.86 69.548 0.342 6.52 0.91 4.19
8/23/2022 11:30:00 AM 20.84 69.512 0.342 6.52 1.83 4.2
8/23/2022 11:45:00 AM 20.98 69.764 0.342 6.53 0.86 4.35
8/23/2022 12:00:00 PM 21.1 69.98 0.342 6.53 0.8 3.72
8/23/2022 12:15:00 PM 21.26 70.268 0.342 6.52 1.74 4.42
8/23/2022 12:30:00 PM 21.18 70.124 0.339 6.54 1.91 4.73
8/23/2022 12:45:00 PM 21.43 70.574 0.34 6.56 0.88 4.89
8/23/2022 1:00:00 PM 21.57 70.826 0.339 6.56 0.88 4.97
8/23/2022 1:15:00 PM 21.72 71.096 0.34 6.56 0.88 4.94
8/23/2022 1:30:00 PM 21.89 71.402 0.34 6.56 1.96 5.05
8/23/2022 1:45:00 PM 21.96 71.528 0.341 6.53 1.93 4.96
8/23/2022 2:00:00 PM 21.97 71.546 0.341 6.53 1.86 4.93
8/23/2022 2:15:00 PM 21.99 71.582 0.34 6.55 0.96 5.04
8/23/2022 2:30:00 PM 21.95 71.51 0.34 6.53 1.86 4.86
8/23/2022 2:45:00 PM 21.95 71.51 0.34 6.54 0.87 4.87
8/23/2022 3:00:00 PM 22.07 71.726 0.337 6.58 1.07 5.41
8/23/2022 3:15:00 PM 21.98 71.564 0.337 6.58 0.95 5.19
8/23/2022 3:30:00 PM 21.94 71.492 0.337 6.51 1.9 5.35
8/23/2022 3:45:00 PM 21.94 71.492 0.336 6.59 0.99 5.4
8/23/2022 4:00:00 PM 21.88 71.384 0.338 6.57 1.09 5.1
8/23/2022 4:15:00 PM 21.83 71.294 0.339 6.54 1.98 4.88
8/23/2022 4:30:00 PM 21.78 71.204 0.339 6.55 0.96 4.78
8/23/2022 4:45:00 PM 21.74 71.132 0.338 6.55 1.01 4.82
8/23/2022 5:00:00 PM 21.72 71.096 0.339 6.54 3.37 4.82
8/23/2022 5:15:00 PM 21.83 71.294 0.338 6.56 0.94 5.07
8/23/2022 5:30:00 PM 21.92 71.456 0.34 6.54 2.01 5.02
8/23/2022 5:45:00 PM 21.95 71.51 0.34 6.57 1 5.02
8/23/2022 6:00:00 PM 21.95 71.51 0.341 6.55 1.23 5.1
8/23/2022 6:15:00 PM 21.9 71.42 0.341 6.54 1.17 5.03
8/23/2022 6:30:00 PM 21.8 71.24 0.34 6.55 1.34 5.05
8/23/2022 6:45:00 PM 21.69 71.042 0.342 6.53 2.66 4.84
8/23/2022 7:00:00 PM 21.61 70.898 0.342 6.53 2.45 4.78
8/23/2022 7:15:00 PM 21.55 70.79 0.342 6.52 2.56 4.71
8/23/2022 7:30:00 PM 21.48 70.664 0.343 6.51 3.45 4.66
8/23/2022 7:45:00 PM 21.46 70.628 0.343 6.51 1.65 4.6
8/23/2022 8:00:00 PM 21.41 70.538 0.343 6.51 1.5 4.53
8/23/2022 8:15:00 PM 21.36 70.448 0.343 6.49 2.3 4.42
8/23/2022 8:30:00 PM 21.32 70.376 0.343 6.49 2.45 4.36
8/23/2022 8:45:00 PM 21.28 70.304 0.343 6.5 1.66 4.34
8/23/2022 9:00:00 PM 21.21 70.17799 0.343 6.49 1.76 4.18
8/23/2022 9:15:00 PM 21.14 70.052 0.343 6.49 1.29 4.1
8/23/2022 9:30:00 PM 21.09 69.962 0.343 6.48 1.25 4.05
8/23/2022 9:45:00 PM 21.04 69.872 0.342 6.49 1.21 3.98
8/23/2022 10:00:00 PM 20.99 69.782 0.343 6.48 2.35 3.97
8/23/2022 10:15:00 PM 20.92 69.656 0.342 6.47 2.32 3.94
8/23/2022 10:30:00 PM 20.85 69.53 0.342 6.48 1.34 3.9
8/23/2022 10:45:00 PM 20.8 69.44 0.342 6.48 1.47 3.83
8/23/2022 11:00:00 PM 20.75 69.35 0.342 6.47 2.55 3.85
8/23/2022 11:15:00 PM 20.7 69.26 0.342 6.46 2.34 3.75
8/23/2022 11:30:00 PM 20.65 69.17 0.341 6.47 1.3 3.74
8/23/2022 11:45:00 PM 20.59 69.062 0.342 6.47 1.43 3.77
8/24/2022 12:00:00 AM 20.56 69.008 0.342 6.46 1.81 3.69
8/24/2022 12:15:00 AM 20.5 68.9 0.342 6.46 1.39 3.65
8/24/2022 12:30:00 AM 20.47 68.846 0.342 6.46 1.57 3.54
8/24/2022 12:45:00 AM 20.43 68.774 0.342 6.44 2.55 3.55
8/24/2022 1:00:00 AM 20.38 68.684 0.342 6.46 1.55 3.52
8/24/2022 1:15:00 AM 20.34 68.612 0.342 6.46 1.35 3.45
8/24/2022 1:30:00 AM 20.29 68.522 0.342 6.46 1.48 3.41
8/24/2022 1:45:00 AM 20.25 68.45 0.343 6.46 1.46 3.4
8/24/2022 2:00:00 AM 20.19 68.342 0.343 6.44 2.62 3.42
8/24/2022 2:15:00 AM 20.15 68.27 0.343 6.45 1.3 3.29
8/24/2022 2:30:00 AM 20.12 68.216 0.343 6.42 1.5 3.23
8/24/2022 2:45:00 AM 20.08 68.144 0.344 6.44 2.71 3.1
8/24/2022 3:00:00 AM 20.04 68.07201 0.344 6.44 1.4 3.08
8/24/2022 3:15:00 AM 20 68 0.343 6.44 1.39 3.05
8/24/2022 3:30:00 AM 19.96 67.92799 0.343 6.44 1.36 3.02
8/24/2022 3:45:00 AM 19.9 67.82 0.343 6.44 1.83 3.04
8/24/2022 4:00:00 AM 19.88 67.784 0.343 6.44 1.91 3
8/24/2022 4:15:00 AM 19.81 67.658 0.343 6.42 2.34 2.9
8/24/2022 4:30:00 AM 19.78 67.604 0.343 6.44 1.37 2.94
8/24/2022 4:45:00 AM 19.75 67.55 0.343 6.44 1.27 2.99
8/24/2022 5:00:00 AM 19.68 67.424 0.343 6.43 2.34 3.01
8/24/2022 5:15:00 AM 19.63 67.334 0.343 6.44 1.28 3.07
8/24/2022 5:30:00 AM 19.6 67.28 0.343 6.44 1.24 3.07
8/24/2022 5:45:00 AM 19.56 67.208 0.343 6.44 1.44 3.06
8/24/2022 6:00:00 AM 19.52 67.136 0.343 6.43 2.36 3.09
8/24/2022 6:15:00 AM 19.48 67.064 0.343 6.41 2.37 3.08
8/24/2022 6:30:00 AM 19.45 67.01 0.343 6.38 2.47 3.14
8/24/2022 6:45:00 AM 19.44 66.992 0.343 6.41 1.29 3.2
8/24/2022 7:00:00 AM 19.43 66.974 0.343 6.42 2.29 3.29
8/24/2022 7:15:00 AM 19.41 66.938 0.343 6.44 2.24 3.42
8/24/2022 7:30:00 AM 19.41 66.938 0.343 6.46 1.25 3.46
8/24/2022 7:45:00 AM 19.39 66.902 0.343 6.46 2.16 3.47
8/24/2022 8:00:00 AM 19.39 66.902 0.343 6.46 2.29 3.51
8/24/2022 8:15:00 AM 19.4 66.92 0.342 6.47 1.38 3.53
8/24/2022 8:30:00 AM 19.41 66.938 0.342 6.42 2.04 3.61
8/24/2022 8:45:00 AM 19.47 67.046 0.341 6.5 0.99 3.79
8/24/2022 9:00:00 AM 19.53 67.154 0.342 6.49 2.05 3.85
8/24/2022 9:15:00 AM 19.62 67.316 0.341 6.5 0.87 3.93
8/24/2022 9:30:00 AM 19.69 67.442 0.341 6.49 2.02 3.93
8/24/2022 9:45:00 AM 19.74 67.532 0.341 6.51 1.25 3.96
8/24/2022 10:00:00 AM 19.78 67.604 0.341 6.51 1.04 3.96
8/24/2022 10:15:00 AM 19.86 67.748 0.341 6.5 1.88 3.96
8/24/2022 10:30:00 AM 20.09 68.162 0.341 6.5 1.81 4.02
8/24/2022 10:45:00 AM 20.28 68.504 0.342 6.51 1.18 3.96
8/24/2022 11:00:00 AM 20.6 69.08 0.343 6.5 1.83 4.03
8/24/2022 11:15:00 AM 21.06 69.908 0.344 6.54 0.83 4.33
8/24/2022 11:30:00 AM 21.34 70.412 0.345 6.54 0.71 4.43
8/24/2022 11:45:00 AM 21.64 70.952 0.345 6.57 0.99 4.54
8/24/2022 12:00:00 PM 21.6 70.88 0.345 6.56 0.84 4.4
8/24/2022 12:15:00 PM 21.57 70.826 0.345 6.55 0.9 4.51
8/24/2022 12:30:00 PM 21.51 70.718 0.345 6.53 1.71 4.45
8/24/2022 12:45:00 PM 21.66 70.988 0.345 6.56 0.75 4.55
8/24/2022 1:00:00 PM 21.8 71.24 0.346 6.56 1 4.59
8/24/2022 1:15:00 PM 21.77 71.186 0.346 6.54 1.97 4.72
8/24/2022 1:30:00 PM 21.75 71.15 0.347 6.54 0.91 4.59
8/24/2022 1:45:00 PM 21.89 71.402 0.346 6.54 0.82 4.75
8/24/2022 2:00:00 PM 21.93 71.474 0.346 6.55 0.83 4.95
8/24/2022 2:15:00 PM 21.96 71.528 0.344 6.55 0.8 5.05
8/24/2022 2:30:00 PM 22.1 71.78 0.344 6.55 0.81 5.15
8/24/2022 2:45:00 PM 22.22 71.996 0.344 6.54 0.77 5.09
8/24/2022 3:00:00 PM 22.42 72.356 0.345 6.55 0.86 5.07
8/24/2022 3:15:00 PM 22.54 72.57201 0.345 6.54 1.9 5.2
8/24/2022 3:30:00 PM 22.67 72.806 0.345 6.53 1.81 5.27
8/24/2022 3:45:00 PM 22.77 72.986 0.344 6.56 0.77 5.35
8/24/2022 4:00:00 PM 22.89 73.202 0.344 6.56 1.06 5.42
8/24/2022 4:15:00 PM 23.06 73.508 0.344 6.55 1.92 5.47
8/24/2022 4:30:00 PM 23.13 73.634 0.344 6.57 1.29 5.49
8/24/2022 4:45:00 PM 23.24 73.832 0.344 6.59 1.23 5.46
8/24/2022 5:00:00 PM 23.31 73.958 0.344 6.6 1.15 5.58
8/24/2022 5:15:00 PM 23.19 73.742 0.344 6.59 1.27 5.39
8/24/2022 5:30:00 PM 23.12 73.616 0.344 6.59 1.28 5.29
8/24/2022 5:45:00 PM 23.09 73.562 0.344 6.58 1.24 5.37
8/24/2022 6:00:00 PM 23.04 73.472 0.344 6.58 1.45 5.41
8/24/2022 6:15:00 PM 22.96 73.328 0.344 6.57 1.35 5.42
8/24/2022 6:30:00 PM 22.87 73.166 0.345 6.56 1.29 5.28
8/24/2022 6:45:00 PM 22.76 72.968 0.344 6.56 1.61 5.34
8/24/2022 7:00:00 PM 22.67 72.806 0.344 6.56 1.7 5.26
8/24/2022 7:15:00 PM 22.55 72.59 0.345 6.54 2.5 5.13
8/24/2022 7:30:00 PM 22.46 72.42799 0.345 6.54 1.66 5.03
8/24/2022 7:45:00 PM 22.37 72.266 0.345 6.53 2.52 4.96
8/24/2022 8:00:00 PM 22.27 72.086 0.345 6.54 1.21 4.89
8/24/2022 8:15:00 PM 22.17 71.906 0.344 6.54 1.26 4.83
8/24/2022 8:30:00 PM 22.08 71.744 0.343 6.53 2.18 4.76
8/24/2022 8:45:00 PM 21.99 71.582 0.343 6.52 2.16 4.71
8/24/2022 9:00:00 PM 21.9 71.42 0.343 6.53 1.32 4.66
8/24/2022 9:15:00 PM 21.81 71.258 0.343 6.53 1.16 4.6
8/24/2022 9:30:00 PM 21.71 71.078 0.343 6.52 1.27 4.49
8/24/2022 9:45:00 PM 21.61 70.898 0.344 6.51 2.27 4.4
8/24/2022 10:00:00 PM 21.52 70.736 0.343 6.51 1.21 4.34
8/24/2022 10:15:00 PM 21.43 70.574 0.343 6.5 2.58 4.27
8/24/2022 10:30:00 PM 21.32 70.376 0.343 6.5 2.62 4.25
8/24/2022 10:45:00 PM 21.24 70.232 0.343 6.5 1.72 4.24
8/24/2022 11:00:00 PM 21.15 70.07 0.343 6.5 1.88 4.17
8/24/2022 11:15:00 PM 21.07 69.926 0.343 6.5 2.44 4.14
8/24/2022 11:30:00 PM 20.97 69.746 0.344 6.48 3 4.08
8/24/2022 11:45:00 PM 20.88 69.584 0.345 6.49 1.93 4.02
8/25/2022 12:00:00 AM 20.8 69.44 0.345 6.48 1.93 3.97
8/25/2022 12:15:00 AM 20.73 69.314 0.346 6.48 2.97 3.92
8/25/2022 12:30:00 AM 20.65 69.17 0.346 6.48 1.57 3.93
8/25/2022 12:45:00 AM 20.58 69.044 0.347 6.46 1.62 3.9
8/25/2022 1:00:00 AM 20.49 68.882 0.347 6.46 2.74 3.79
8/25/2022 1:15:00 AM 20.41 68.738 0.346 6.46 2.58 3.76
8/25/2022 1:30:00 AM 20.34 68.612 0.346 6.45 2.49 3.7
8/25/2022 1:45:00 AM 20.27 68.486 0.346 6.46 1.5 3.66
8/25/2022 2:00:00 AM 20.23 68.414 0.346 6.45 1.83 3.53
8/25/2022 2:15:00 AM 20.17 68.306 0.346 6.43 2.63 3.53
8/25/2022 2:30:00 AM 20.11 68.198 0.346 6.44 1.52 3.44
8/25/2022 2:45:00 AM 20.03 68.054 0.346 6.45 1.5 3.43
8/25/2022 3:00:00 AM 19.97 67.946 0.346 6.44 2.65 3.42
8/25/2022 3:15:00 AM 19.92 67.856 0.345 6.45 1.6 3.34
8/25/2022 3:30:00 AM 19.86 67.748 0.345 6.44 2.48 3.31
8/25/2022 3:45:00 AM 19.81 67.658 0.344 6.45 1.39 3.34
8/25/2022 4:00:00 AM 19.73 67.514 0.344 6.44 2.37 3.34
8/25/2022 4:15:00 AM 19.68 67.424 0.344 6.44 2.23 3.41
8/25/2022 4:30:00 AM 19.61 67.298 0.343 6.45 1.41 3.41
8/25/2022 4:45:00 AM 19.59 67.262 0.343 6.43 1.47 3.45
8/25/2022 5:00:00 AM 19.52 67.136 0.343 6.44 2.19 3.44
8/25/2022 5:15:00 AM 19.47 67.046 0.343 6.45 1.93 3.46
8/25/2022 5:30:00 AM 19.44 66.992 0.343 6.45 1.7 3.42
8/25/2022 5:45:00 AM 19.4 66.92 0.343 6.46 1.24 3.44
8/25/2022 6:00:00 AM 19.36 66.848 0.343 6.45 2.47 3.41
8/25/2022 6:15:00 AM 19.31 66.758 0.344 6.46 1.39 3.45
8/25/2022 6:30:00 AM 19.27 66.686 0.344 6.47 1.61 3.45
8/25/2022 6:45:00 AM 19.26 66.668 0.345 6.46 1.63 3.46
8/25/2022 7:00:00 AM 19.24 66.632 0.345 6.46 1.76 3.49
8/25/2022 7:15:00 AM 19.23 66.614 0.346 6.46 1.49 3.52
8/25/2022 7:30:00 AM 19.22 66.596 0.347 6.46 1.42 3.6
8/25/2022 7:45:00 AM 19.22 66.596 0.347 6.48 2.15 3.66
8/25/2022 8:00:00 AM 19.22 66.596 0.347 6.48 2.52 3.71
8/25/2022 8:15:00 AM 19.23 66.614 0.346 6.49 1.64 3.77
8/25/2022 8:30:00 AM 19.27 66.686 0.346 6.5 1.15 3.89
8/25/2022 8:45:00 AM 19.31 66.758 0.346 6.5 1.54 3.96
8/25/2022 9:00:00 AM 19.33 66.794 0.345 6.51 1.1 4.04
8/25/2022 9:15:00 AM 19.36 66.848 0.345 6.51 1.34 4.12
8/25/2022 9:30:00 AM 19.4 66.92 0.345 6.51 1.18 4.11
8/25/2022 9:45:00 AM 19.45 67.01 0.344 6.52 1.15 4.18
8/25/2022 10:00:00 AM 19.51 67.118 0.342 6.51 0.98 4.14
8/25/2022 10:15:00 AM 19.61 67.298 0.342 6.52 1.03 4.19
8/25/2022 10:30:00 AM 19.77 67.586 0.341 6.52 0.94 4.19
8/25/2022 10:45:00 AM 20 68 0.341 6.52 2.04 4.2
8/25/2022 11:00:00 AM